<?xml version='1.0' encoding='UTF-8'?>
<gpx version="1.1" creator="https://www.komoot.de" xmlns="http://www.topografix.com/GPX/1/1" xmlns:xsi="http://www.w3.org/2001/XMLSchema-instance" xsi:schemaLocation="http://www.topografix.com/GPX/1/1 http://www.topografix.com/GPX/1/1/gpx.xsd">
  <metadata>
    <name>Cammino dei Bronzi Dorati di Pergola</name>
    <author>
      <link href="https://www.komoot.de">
        <text>komoot</text>
        <type>text/html</type>
      </link>
    </author>
  </metadata>
  <trk>
    <name>Cammino dei Bronzi Dorati di Pergola</name>
    <trkseg>
      <trkpt lat="43.571336" lon="12.896568">
        <ele>425.772933</ele>
        <time>2022-02-14T13:48:30.271Z</time>
      </trkpt>
      <trkpt lat="43.571433" lon="12.896187">
        <ele>425.772933</ele>
        <time>2022-02-14T13:49:01.542Z</time>
      </trkpt>
      <trkpt lat="43.571544" lon="12.895274">
        <ele>425.243245</ele>
        <time>2022-02-14T13:50:13.387Z</time>
      </trkpt>
      <trkpt lat="43.571548" lon="12.895036">
        <ele>423.815650</ele>
        <time>2022-02-14T13:50:32.948Z</time>
      </trkpt>
      <trkpt lat="43.571396" lon="12.895019">
        <ele>422.553448</ele>
        <time>2022-02-14T13:50:50.277Z</time>
      </trkpt>
      <trkpt lat="43.571328" lon="12.895079">
        <ele>421.885444</ele>
        <time>2022-02-14T13:50:59.735Z</time>
      </trkpt>
      <trkpt lat="43.571203" lon="12.895328">
        <ele>420.068855</ele>
        <time>2022-02-14T13:51:25.206Z</time>
      </trkpt>
      <trkpt lat="43.570949" lon="12.896212">
        <ele>414.366093</ele>
        <time>2022-02-14T13:52:47.124Z</time>
      </trkpt>
      <trkpt lat="43.570886" lon="12.896307">
        <ele>413.593793</ele>
        <time>2022-02-14T13:52:58.136Z</time>
      </trkpt>
      <trkpt lat="43.570730" lon="12.896304">
        <ele>412.302482</ele>
        <time>2022-02-14T13:53:17.338Z</time>
      </trkpt>
      <trkpt lat="43.570747" lon="12.895384">
        <ele>406.395922</ele>
        <time>2022-02-14T13:54:36.515Z</time>
      </trkpt>
      <trkpt lat="43.570638" lon="12.894202">
        <ele>398.575175</ele>
        <time>2022-02-14T13:56:19.978Z</time>
      </trkpt>
      <trkpt lat="43.570606" lon="12.894066">
        <ele>397.636633</ele>
        <time>2022-02-14T13:56:32.107Z</time>
      </trkpt>
      <trkpt lat="43.570078" lon="12.893200">
        <ele>391.948470</ele>
        <time>2022-02-14T13:58:05.358Z</time>
      </trkpt>
      <trkpt lat="43.569991" lon="12.892976">
        <ele>390.942673</ele>
        <time>2022-02-14T13:58:25.730Z</time>
      </trkpt>
      <trkpt lat="43.569832" lon="12.892162">
        <ele>387.606311</ele>
        <time>2022-02-14T13:59:33.460Z</time>
      </trkpt>
      <trkpt lat="43.569705" lon="12.891114">
        <ele>384.332909</ele>
        <time>2022-02-14T14:00:57.163Z</time>
      </trkpt>
      <trkpt lat="43.569574" lon="12.890728">
        <ele>383.796397</ele>
        <time>2022-02-14T14:01:30.084Z</time>
      </trkpt>
      <trkpt lat="43.569385" lon="12.890553">
        <ele>383.401018</ele>
        <time>2022-02-14T14:01:54.039Z</time>
      </trkpt>
      <trkpt lat="43.569050" lon="12.890391">
        <ele>382.784356</ele>
        <time>2022-02-14T14:02:30.998Z</time>
      </trkpt>
      <trkpt lat="43.568753" lon="12.890161">
        <ele>382.192728</ele>
        <time>2022-02-14T14:03:05.914Z</time>
      </trkpt>
      <trkpt lat="43.567870" lon="12.888917">
        <ele>385.299088</ele>
        <time>2022-02-14T14:05:19.297Z</time>
      </trkpt>
      <trkpt lat="43.566135" lon="12.886779">
        <ele>398.497444</ele>
        <time>2022-02-14T14:10:05.828Z</time>
      </trkpt>
      <trkpt lat="43.565351" lon="12.886361">
        <ele>402.881165</ele>
        <time>2022-02-14T14:11:49.203Z</time>
      </trkpt>
      <trkpt lat="43.564920" lon="12.886524">
        <ele>404.785467</ele>
        <time>2022-02-14T14:12:41.557Z</time>
      </trkpt>
      <trkpt lat="43.564285" lon="12.886405">
        <ele>407.516182</ele>
        <time>2022-02-14T14:13:52.598Z</time>
      </trkpt>
      <trkpt lat="43.564163" lon="12.886432">
        <ele>408.042695</ele>
        <time>2022-02-14T14:14:06.006Z</time>
      </trkpt>
      <trkpt lat="43.564049" lon="12.886535">
        <ele>408.394940</ele>
        <time>2022-02-14T14:14:20.292Z</time>
      </trkpt>
      <trkpt lat="43.563708" lon="12.887283">
        <ele>408.810483</ele>
        <time>2022-02-14T14:15:26.300Z</time>
      </trkpt>
      <trkpt lat="43.563298" lon="12.887945">
        <ele>409.219980</ele>
        <time>2022-02-14T14:16:29.677Z</time>
      </trkpt>
      <trkpt lat="43.562653" lon="12.888389">
        <ele>409.476984</ele>
        <time>2022-02-14T14:17:42.978Z</time>
      </trkpt>
      <trkpt lat="43.561746" lon="12.889316">
        <ele>409.283037</ele>
        <time>2022-02-14T14:19:38.921Z</time>
      </trkpt>
      <trkpt lat="43.561191" lon="12.889605">
        <ele>408.364168</ele>
        <time>2022-02-14T14:20:39.875Z</time>
      </trkpt>
      <trkpt lat="43.560753" lon="12.889911">
        <ele>406.051285</ele>
        <time>2022-02-14T14:21:33.759Z</time>
      </trkpt>
      <trkpt lat="43.560279" lon="12.890544">
        <ele>402.943725</ele>
        <time>2022-02-14T14:22:47.494Z</time>
      </trkpt>
      <trkpt lat="43.559679" lon="12.891067">
        <ele>399.850125</ele>
        <time>2022-02-14T14:24:07.061Z</time>
      </trkpt>
      <trkpt lat="43.559521" lon="12.891085">
        <ele>399.267201</ele>
        <time>2022-02-14T14:24:25.061Z</time>
      </trkpt>
      <trkpt lat="43.559379" lon="12.890916">
        <ele>398.577727</ele>
        <time>2022-02-14T14:24:45.638Z</time>
      </trkpt>
      <trkpt lat="43.559088" lon="12.889584">
        <ele>394.870835</ele>
        <time>2022-02-14T14:26:34.425Z</time>
      </trkpt>
      <trkpt lat="43.558700" lon="12.889031">
        <ele>394.234310</ele>
        <time>2022-02-14T14:27:31.244Z</time>
      </trkpt>
      <trkpt lat="43.558334" lon="12.888332">
        <ele>394.427106</ele>
        <time>2022-02-14T14:28:35.749Z</time>
      </trkpt>
      <trkpt lat="43.558157" lon="12.887633">
        <ele>394.592644</ele>
        <time>2022-02-14T14:29:30.589Z</time>
      </trkpt>
      <trkpt lat="43.558130" lon="12.887546">
        <ele>394.613803</ele>
        <time>2022-02-14T14:29:37.534Z</time>
      </trkpt>
      <trkpt lat="43.557725" lon="12.886269">
        <ele>396.145201</ele>
        <time>2022-02-14T14:31:20.575Z</time>
      </trkpt>
      <trkpt lat="43.557327" lon="12.885868">
        <ele>397.051887</ele>
        <time>2022-02-14T14:32:13.643Z</time>
      </trkpt>
      <trkpt lat="43.556920" lon="12.885259">
        <ele>398.374243</ele>
        <time>2022-02-14T14:33:20.171Z</time>
      </trkpt>
      <trkpt lat="43.557743" lon="12.884511">
        <ele>402.545120</ele>
        <time>2022-02-14T14:35:13.455Z</time>
      </trkpt>
      <trkpt lat="43.558248" lon="12.884147">
        <ele>404.956466</ele>
        <time>2022-02-14T14:36:20.175Z</time>
      </trkpt>
      <trkpt lat="43.558417" lon="12.883683">
        <ele>406.640994</ele>
        <time>2022-02-14T14:37:03.825Z</time>
      </trkpt>
      <trkpt lat="43.558747" lon="12.883177">
        <ele>408.931027</ele>
        <time>2022-02-14T14:38:00.520Z</time>
      </trkpt>
      <trkpt lat="43.558859" lon="12.882611">
        <ele>410.904774</ele>
        <time>2022-02-14T14:38:49.503Z</time>
      </trkpt>
      <trkpt lat="43.558823" lon="12.882425">
        <ele>411.552415</ele>
        <time>2022-02-14T14:39:05.737Z</time>
      </trkpt>
      <trkpt lat="43.558757" lon="12.882364">
        <ele>411.921169</ele>
        <time>2022-02-14T14:39:14.811Z</time>
      </trkpt>
      <trkpt lat="43.558500" lon="12.882323">
        <ele>413.122151</ele>
        <time>2022-02-14T14:39:44.835Z</time>
      </trkpt>
      <trkpt lat="43.558305" lon="12.882194">
        <ele>414.188967</ele>
        <time>2022-02-14T14:40:09.871Z</time>
      </trkpt>
      <trkpt lat="43.557874" lon="12.881332">
        <ele>418.979615</ele>
        <time>2022-02-14T14:41:41.695Z</time>
      </trkpt>
      <trkpt lat="43.557552" lon="12.880035">
        <ele>425.251191</ele>
        <time>2022-02-14T14:43:45.930Z</time>
      </trkpt>
      <trkpt lat="43.557558" lon="12.879587">
        <ele>426.243462</ele>
        <time>2022-02-14T14:44:25.193Z</time>
      </trkpt>
      <trkpt lat="43.557947" lon="12.879009">
        <ele>427.940336</ele>
        <time>2022-02-14T14:45:30.888Z</time>
      </trkpt>
      <trkpt lat="43.558336" lon="12.878715">
        <ele>429.256912</ele>
        <time>2022-02-14T14:46:18.916Z</time>
      </trkpt>
      <trkpt lat="43.558460" lon="12.878562">
        <ele>429.750685</ele>
        <time>2022-02-14T14:46:35.676Z</time>
      </trkpt>
      <trkpt lat="43.558588" lon="12.878522">
        <ele>430.140267</ele>
        <time>2022-02-14T14:46:49.617Z</time>
      </trkpt>
      <trkpt lat="43.558996" lon="12.878613">
        <ele>429.831509</ele>
        <time>2022-02-14T14:47:31.594Z</time>
      </trkpt>
      <trkpt lat="43.559171" lon="12.878580">
        <ele>429.242498</ele>
        <time>2022-02-14T14:47:50.483Z</time>
      </trkpt>
      <trkpt lat="43.559284" lon="12.878489">
        <ele>428.806193</ele>
        <time>2022-02-14T14:48:04.088Z</time>
      </trkpt>
      <trkpt lat="43.559373" lon="12.878248">
        <ele>428.152529</ele>
        <time>2022-02-14T14:48:25.334Z</time>
      </trkpt>
      <trkpt lat="43.559385" lon="12.878055">
        <ele>427.684414</ele>
        <time>2022-02-14T14:48:41.245Z</time>
      </trkpt>
      <trkpt lat="43.559237" lon="12.877336">
        <ele>425.878147</ele>
        <time>2022-02-14T14:49:39.980Z</time>
      </trkpt>
      <trkpt lat="43.558696" lon="12.876651">
        <ele>423.275307</ele>
        <time>2022-02-14T14:50:59.763Z</time>
      </trkpt>
      <trkpt lat="43.558686" lon="12.876502">
        <ele>422.867797</ele>
        <time>2022-02-14T14:51:12.415Z</time>
      </trkpt>
      <trkpt lat="43.557981" lon="12.875827">
        <ele>419.643133</ele>
        <time>2022-02-14T14:52:44.405Z</time>
      </trkpt>
      <trkpt lat="43.557222" lon="12.875218">
        <ele>417.251422</ele>
        <time>2022-02-14T14:54:18.033Z</time>
      </trkpt>
      <trkpt lat="43.556880" lon="12.875072">
        <ele>416.697628</ele>
        <time>2022-02-14T14:54:55.502Z</time>
      </trkpt>
      <trkpt lat="43.556619" lon="12.875098">
        <ele>416.292826</ele>
        <time>2022-02-14T14:55:23.069Z</time>
      </trkpt>
      <trkpt lat="43.556358" lon="12.874969">
        <ele>415.863956</ele>
        <time>2022-02-14T14:55:51.544Z</time>
      </trkpt>
      <trkpt lat="43.556034" lon="12.874557">
        <ele>415.182382</ele>
        <time>2022-02-14T14:56:35.734Z</time>
      </trkpt>
      <trkpt lat="43.555531" lon="12.874145">
        <ele>415.585703</ele>
        <time>2022-02-14T14:57:37.328Z</time>
      </trkpt>
      <trkpt lat="43.555439" lon="12.874119">
        <ele>415.670338</ele>
        <time>2022-02-14T14:57:47.476Z</time>
      </trkpt>
      <trkpt lat="43.554964" lon="12.874068">
        <ele>416.099717</ele>
        <time>2022-02-14T14:58:39.066Z</time>
      </trkpt>
      <trkpt lat="43.554318" lon="12.874283">
        <ele>416.698608</ele>
        <time>2022-02-14T14:59:46.528Z</time>
      </trkpt>
      <trkpt lat="43.554019" lon="12.874446">
        <ele>415.603401</ele>
        <time>2022-02-14T15:00:18.985Z</time>
      </trkpt>
      <trkpt lat="43.554187" lon="12.873922">
        <ele>414.008589</ele>
        <time>2022-02-14T15:01:01.853Z</time>
      </trkpt>
      <trkpt lat="43.554367" lon="12.873716">
        <ele>413.110457</ele>
        <time>2022-02-14T15:01:27.125Z</time>
      </trkpt>
      <trkpt lat="43.555574" lon="12.872695">
        <ele>406.169878</ele>
        <time>2022-02-14T15:04:07.277Z</time>
      </trkpt>
      <trkpt lat="43.555985" lon="12.872420">
        <ele>403.185676</ele>
        <time>2022-02-14T15:04:59.049Z</time>
      </trkpt>
      <trkpt lat="43.556116" lon="12.872257">
        <ele>402.033247</ele>
        <time>2022-02-14T15:05:19.201Z</time>
      </trkpt>
      <trkpt lat="43.556203" lon="12.871996">
        <ele>400.673049</ele>
        <time>2022-02-14T15:05:43.501Z</time>
      </trkpt>
      <trkpt lat="43.556269" lon="12.871268">
        <ele>397.696142</ele>
        <time>2022-02-14T15:06:43.234Z</time>
      </trkpt>
      <trkpt lat="43.556335" lon="12.871051">
        <ele>397.220378</ele>
        <time>2022-02-14T15:07:02.421Z</time>
      </trkpt>
      <trkpt lat="43.556632" lon="12.870530">
        <ele>395.880296</ele>
        <time>2022-02-14T15:07:54.186Z</time>
      </trkpt>
      <trkpt lat="43.556700" lon="12.870315">
        <ele>395.406055</ele>
        <time>2022-02-14T15:08:12.953Z</time>
      </trkpt>
      <trkpt lat="43.556781" lon="12.870265">
        <ele>395.158517</ele>
        <time>2022-02-14T15:08:22.452Z</time>
      </trkpt>
      <trkpt lat="43.556802" lon="12.870182">
        <ele>394.980790</ele>
        <time>2022-02-14T15:08:29.081Z</time>
      </trkpt>
      <trkpt lat="43.556778" lon="12.869440">
        <ele>393.479255</ele>
        <time>2022-02-14T15:09:23.392Z</time>
      </trkpt>
      <trkpt lat="43.556958" lon="12.868591">
        <ele>394.058551</ele>
        <time>2022-02-14T15:10:28.787Z</time>
      </trkpt>
      <trkpt lat="43.557115" lon="12.868410">
        <ele>394.482968</ele>
        <time>2022-02-14T15:10:49.435Z</time>
      </trkpt>
      <trkpt lat="43.557497" lon="12.868253">
        <ele>395.309847</ele>
        <time>2022-02-14T15:11:34.529Z</time>
      </trkpt>
      <trkpt lat="43.557840" lon="12.867306">
        <ele>396.706143</ele>
        <time>2022-02-14T15:13:01.227Z</time>
      </trkpt>
      <trkpt lat="43.557999" lon="12.867052">
        <ele>396.398324</ele>
        <time>2022-02-14T15:13:26.986Z</time>
      </trkpt>
      <trkpt lat="43.558360" lon="12.866803">
        <ele>395.887575</ele>
        <time>2022-02-14T15:14:08.639Z</time>
      </trkpt>
      <trkpt lat="43.558647" lon="12.866683">
        <ele>395.508062</ele>
        <time>2022-02-14T15:14:39.571Z</time>
      </trkpt>
      <trkpt lat="43.558728" lon="12.866683">
        <ele>395.405554</ele>
        <time>2022-02-14T15:14:48.109Z</time>
      </trkpt>
      <trkpt lat="43.558799" lon="12.866773">
        <ele>395.283545</ele>
        <time>2022-02-14T15:14:58.050Z</time>
      </trkpt>
      <trkpt lat="43.559269" lon="12.865859">
        <ele>393.021982</ele>
        <time>2022-02-14T15:16:26.587Z</time>
      </trkpt>
      <trkpt lat="43.559700" lon="12.864733">
        <ele>386.048562</ele>
        <time>2022-02-14T15:18:12.135Z</time>
      </trkpt>
      <trkpt lat="43.559700" lon="12.864733">
        <ele>386.048562</ele>
        <time>2022-02-14T15:18:12.452Z</time>
      </trkpt>
      <trkpt lat="43.559700" lon="12.864733">
        <ele>386.048562</ele>
        <time>2022-02-14T15:18:12.452Z</time>
      </trkpt>
      <trkpt lat="43.559866" lon="12.863932">
        <ele>381.486376</ele>
        <time>2022-02-14T15:19:13.071Z</time>
      </trkpt>
      <trkpt lat="43.560032" lon="12.863131">
        <ele>375.994112</ele>
        <time>2022-02-14T15:20:13.705Z</time>
      </trkpt>
      <trkpt lat="43.560032" lon="12.863131">
        <ele>375.994112</ele>
        <time>2022-02-14T15:20:13.705Z</time>
      </trkpt>
      <trkpt lat="43.560032" lon="12.862491">
        <ele>371.672015</ele>
        <time>2022-02-14T15:21:00.304Z</time>
      </trkpt>
      <trkpt lat="43.560032" lon="12.861851">
        <ele>367.349918</ele>
        <time>2022-02-14T15:21:46.905Z</time>
      </trkpt>
      <trkpt lat="43.559949" lon="12.861816">
        <ele>366.541106</ele>
        <time>2022-02-14T15:21:57.099Z</time>
      </trkpt>
      <trkpt lat="43.559772" lon="12.861901">
        <ele>364.794558</ele>
        <time>2022-02-14T15:22:19.133Z</time>
      </trkpt>
      <trkpt lat="43.559418" lon="12.862012">
        <ele>361.508183</ele>
        <time>2022-02-14T15:23:01.681Z</time>
      </trkpt>
      <trkpt lat="43.558364" lon="12.862192">
        <ele>351.960404</ele>
        <time>2022-02-14T15:25:06.856Z</time>
      </trkpt>
      <trkpt lat="43.558285" lon="12.862292">
        <ele>350.996645</ele>
        <time>2022-02-14T15:25:19.525Z</time>
      </trkpt>
      <trkpt lat="43.558208" lon="12.862570">
        <ele>349.057736</ele>
        <time>2022-02-14T15:25:44.745Z</time>
      </trkpt>
      <trkpt lat="43.558084" lon="12.862673">
        <ele>347.748625</ele>
        <time>2022-02-14T15:26:01.911Z</time>
      </trkpt>
      <trkpt lat="43.558104" lon="12.861456">
        <ele>339.535137</ele>
        <time>2022-02-14T15:27:46.604Z</time>
      </trkpt>
      <trkpt lat="43.558155" lon="12.861104">
        <ele>337.113110</ele>
        <time>2022-02-14T15:28:17.716Z</time>
      </trkpt>
      <trkpt lat="43.558831" lon="12.859009">
        <ele>322.863430</ele>
        <time>2022-02-14T15:31:34.125Z</time>
      </trkpt>
      <trkpt lat="43.559210" lon="12.857651">
        <ele>315.721504</ele>
        <time>2022-02-14T15:33:34.484Z</time>
      </trkpt>
      <trkpt lat="43.559283" lon="12.857462">
        <ele>315.232953</ele>
        <time>2022-02-14T15:33:51.625Z</time>
      </trkpt>
      <trkpt lat="43.559496" lon="12.857338">
        <ele>314.505236</ele>
        <time>2022-02-14T15:34:17.326Z</time>
      </trkpt>
      <trkpt lat="43.558984" lon="12.856172">
        <ele>311.395226</ele>
        <time>2022-02-14T15:36:00.973Z</time>
      </trkpt>
      <trkpt lat="43.558855" lon="12.856089">
        <ele>310.982726</ele>
        <time>2022-02-14T15:36:15.228Z</time>
      </trkpt>
      <trkpt lat="43.558692" lon="12.856266">
        <ele>312.031248</ele>
        <time>2022-02-14T15:36:37.024Z</time>
      </trkpt>
      <trkpt lat="43.558332" lon="12.857224">
        <ele>315.984520</ele>
        <time>2022-02-14T15:38:04.737Z</time>
      </trkpt>
      <trkpt lat="43.557856" lon="12.857607">
        <ele>318.769966</ele>
        <time>2022-02-14T15:39:12.987Z</time>
      </trkpt>
      <trkpt lat="43.557748" lon="12.857626">
        <ele>319.320345</ele>
        <time>2022-02-14T15:39:27.264Z</time>
      </trkpt>
      <trkpt lat="43.557674" lon="12.857563">
        <ele>319.759894</ele>
        <time>2022-02-14T15:39:38.512Z</time>
      </trkpt>
      <trkpt lat="43.557027" lon="12.855694">
        <ele>336.439333</ele>
        <time>2022-02-14T15:43:10.659Z</time>
      </trkpt>
      <trkpt lat="43.556909" lon="12.855470">
        <ele>338.718243</ele>
        <time>2022-02-14T15:43:39.649Z</time>
      </trkpt>
      <trkpt lat="43.556429" lon="12.854852">
        <ele>345.509952</ele>
        <time>2022-02-14T15:45:14.261Z</time>
      </trkpt>
      <trkpt lat="43.555461" lon="12.853618">
        <ele>358.705473</ele>
        <time>2022-02-14T15:48:07.343Z</time>
      </trkpt>
      <trkpt lat="43.555378" lon="12.853558">
        <ele>359.523056</ele>
        <time>2022-02-14T15:48:19.238Z</time>
      </trkpt>
      <trkpt lat="43.555309" lon="12.853585">
        <ele>360.148857</ele>
        <time>2022-02-14T15:48:28.401Z</time>
      </trkpt>
      <trkpt lat="43.555282" lon="12.853766">
        <ele>361.317400</ele>
        <time>2022-02-14T15:48:45.379Z</time>
      </trkpt>
      <trkpt lat="43.555532" lon="12.854697">
        <ele>367.595681</ele>
        <time>2022-02-14T15:50:18.994Z</time>
      </trkpt>
      <trkpt lat="43.555523" lon="12.855401">
        <ele>372.048078</ele>
        <time>2022-02-14T15:51:23.990Z</time>
      </trkpt>
      <trkpt lat="43.555476" lon="12.855693">
        <ele>373.939518</ele>
        <time>2022-02-14T15:51:53.012Z</time>
      </trkpt>
      <trkpt lat="43.555381" lon="12.855937">
        <ele>375.879670</ele>
        <time>2022-02-14T15:52:17.083Z</time>
      </trkpt>
      <trkpt lat="43.555289" lon="12.856029">
        <ele>376.998073</ele>
        <time>2022-02-14T15:52:34.689Z</time>
      </trkpt>
      <trkpt lat="43.554810" lon="12.856271">
        <ele>382.019184</ele>
        <time>2022-02-14T15:53:41.373Z</time>
      </trkpt>
      <trkpt lat="43.554179" lon="12.856986">
        <ele>390.056310</ele>
        <time>2022-02-14T15:55:32.981Z</time>
      </trkpt>
      <trkpt lat="43.553674" lon="12.857975">
        <ele>397.815776</ele>
        <time>2022-02-14T15:57:28.461Z</time>
      </trkpt>
      <trkpt lat="43.553151" lon="12.858411">
        <ele>403.055833</ele>
        <time>2022-02-14T15:58:46.223Z</time>
      </trkpt>
      <trkpt lat="43.552714" lon="12.858993">
        <ele>408.142995</ele>
        <time>2022-02-14T16:00:03.257Z</time>
      </trkpt>
      <trkpt lat="43.552495" lon="12.859484">
        <ele>411.252067</ele>
        <time>2022-02-14T16:00:55.637Z</time>
      </trkpt>
      <trkpt lat="43.552118" lon="12.860771">
        <ele>418.737968</ele>
        <time>2022-02-14T16:03:00.309Z</time>
      </trkpt>
      <trkpt lat="43.552063" lon="12.861564">
        <ele>423.274299</ele>
        <time>2022-02-14T16:04:13.964Z</time>
      </trkpt>
      <trkpt lat="43.551999" lon="12.861753">
        <ele>424.516711</ele>
        <time>2022-02-14T16:04:33.301Z</time>
      </trkpt>
      <trkpt lat="43.551624" lon="12.862192">
        <ele>428.557961</ele>
        <time>2022-02-14T16:05:35.997Z</time>
      </trkpt>
      <trkpt lat="43.551160" lon="12.862866">
        <ele>434.094338</ele>
        <time>2022-02-14T16:07:04.011Z</time>
      </trkpt>
      <trkpt lat="43.550188" lon="12.864049">
        <ele>442.668424</ele>
        <time>2022-02-14T16:09:46.038Z</time>
      </trkpt>
      <trkpt lat="43.550122" lon="12.864129">
        <ele>443.227978</ele>
        <time>2022-02-14T16:09:58.636Z</time>
      </trkpt>
      <trkpt lat="43.549536" lon="12.864484">
        <ele>446.953008</ele>
        <time>2022-02-14T16:11:10.823Z</time>
      </trkpt>
      <trkpt lat="43.548983" lon="12.864731">
        <ele>446.792555</ele>
        <time>2022-02-14T16:12:16.389Z</time>
      </trkpt>
      <trkpt lat="43.548848" lon="12.864896">
        <ele>446.742769</ele>
        <time>2022-02-14T16:12:35.206Z</time>
      </trkpt>
      <trkpt lat="43.548494" lon="12.866034">
        <ele>446.495000</ele>
        <time>2022-02-14T16:14:10.095Z</time>
      </trkpt>
      <trkpt lat="43.547707" lon="12.866890">
        <ele>441.649478</ele>
        <time>2022-02-14T16:15:59.717Z</time>
      </trkpt>
      <trkpt lat="43.547509" lon="12.866909">
        <ele>440.604212</ele>
        <time>2022-02-14T16:16:22.421Z</time>
      </trkpt>
      <trkpt lat="43.547024" lon="12.866583">
        <ele>437.763010</ele>
        <time>2022-02-14T16:17:22.863Z</time>
      </trkpt>
      <trkpt lat="43.546939" lon="12.866417">
        <ele>436.985920</ele>
        <time>2022-02-14T16:17:40.050Z</time>
      </trkpt>
      <trkpt lat="43.546874" lon="12.866071">
        <ele>435.470700</ele>
        <time>2022-02-14T16:18:09.018Z</time>
      </trkpt>
      <trkpt lat="43.546729" lon="12.865682">
        <ele>433.616371</ele>
        <time>2022-02-14T16:18:44.583Z</time>
      </trkpt>
      <trkpt lat="43.546385" lon="12.865534">
        <ele>431.508877</ele>
        <time>2022-02-14T16:19:24.711Z</time>
      </trkpt>
      <trkpt lat="43.546126" lon="12.865566">
        <ele>429.988011</ele>
        <time>2022-02-14T16:19:53.224Z</time>
      </trkpt>
      <trkpt lat="43.545996" lon="12.865514">
        <ele>429.196374</ele>
        <time>2022-02-14T16:20:08.066Z</time>
      </trkpt>
      <trkpt lat="43.545874" lon="12.865383">
        <ele>428.292196</ele>
        <time>2022-02-14T16:20:25.189Z</time>
      </trkpt>
      <trkpt lat="43.545797" lon="12.865191">
        <ele>427.361979</ele>
        <time>2022-02-14T16:20:42.951Z</time>
      </trkpt>
      <trkpt lat="43.545779" lon="12.864866">
        <ele>425.731130</ele>
        <time>2022-02-14T16:21:09.337Z</time>
      </trkpt>
      <trkpt lat="43.545927" lon="12.864009">
        <ele>420.131706</ele>
        <time>2022-02-14T16:22:22.805Z</time>
      </trkpt>
      <trkpt lat="43.545906" lon="12.863900">
        <ele>419.414865</ele>
        <time>2022-02-14T16:22:32.599Z</time>
      </trkpt>
      <trkpt lat="43.545833" lon="12.863831">
        <ele>418.638923</ele>
        <time>2022-02-14T16:22:43.347Z</time>
      </trkpt>
      <trkpt lat="43.544814" lon="12.863542">
        <ele>409.729738</ele>
        <time>2022-02-14T16:24:48.417Z</time>
      </trkpt>
      <trkpt lat="43.544449" lon="12.863516">
        <ele>407.098509</ele>
        <time>2022-02-14T16:25:32.137Z</time>
      </trkpt>
      <trkpt lat="43.543807" lon="12.863782">
        <ele>402.272650</ele>
        <time>2022-02-14T16:26:50.135Z</time>
      </trkpt>
      <trkpt lat="43.543603" lon="12.863821">
        <ele>400.789968</ele>
        <time>2022-02-14T16:27:13.403Z</time>
      </trkpt>
      <trkpt lat="43.543354" lon="12.863746">
        <ele>398.955126</ele>
        <time>2022-02-14T16:27:41.715Z</time>
      </trkpt>
      <trkpt lat="43.542885" lon="12.863315">
        <ele>397.998712</ele>
        <time>2022-02-14T16:28:41.113Z</time>
      </trkpt>
      <trkpt lat="43.541909" lon="12.862704">
        <ele>398.647546</ele>
        <time>2022-02-14T16:30:36.391Z</time>
      </trkpt>
      <trkpt lat="43.541122" lon="12.861847">
        <ele>399.331294</ele>
        <time>2022-02-14T16:32:24.806Z</time>
      </trkpt>
      <trkpt lat="43.540632" lon="12.861056">
        <ele>399.873926</ele>
        <time>2022-02-14T16:33:40.577Z</time>
      </trkpt>
      <trkpt lat="43.540317" lon="12.859896">
        <ele>400.360028</ele>
        <time>2022-02-14T16:35:12.046Z</time>
      </trkpt>
      <trkpt lat="43.540329" lon="12.859342">
        <ele>400.527067</ele>
        <time>2022-02-14T16:35:52.906Z</time>
      </trkpt>
      <trkpt lat="43.540412" lon="12.858897">
        <ele>400.665549</ele>
        <time>2022-02-14T16:36:26.290Z</time>
      </trkpt>
      <trkpt lat="43.540417" lon="12.858598">
        <ele>400.755685</ele>
        <time>2022-02-14T16:36:48.902Z</time>
      </trkpt>
      <trkpt lat="43.540217" lon="12.857897">
        <ele>401.866861</ele>
        <time>2022-02-14T16:37:48.120Z</time>
      </trkpt>
      <trkpt lat="43.539952" lon="12.857263">
        <ele>404.165811</ele>
        <time>2022-02-14T16:38:49.686Z</time>
      </trkpt>
      <trkpt lat="43.539039" lon="12.856440">
        <ele>408.918805</ele>
        <time>2022-02-14T16:40:56.980Z</time>
      </trkpt>
      <trkpt lat="43.538723" lon="12.856298">
        <ele>410.543466</ele>
        <time>2022-02-14T16:41:37.392Z</time>
      </trkpt>
      <trkpt lat="43.538337" lon="12.856234">
        <ele>412.444009</ele>
        <time>2022-02-14T16:42:24.821Z</time>
      </trkpt>
      <trkpt lat="43.538228" lon="12.856149">
        <ele>413.056103</ele>
        <time>2022-02-14T16:42:39.537Z</time>
      </trkpt>
      <trkpt lat="43.537859" lon="12.855677">
        <ele>415.516118</ele>
        <time>2022-02-14T16:43:38.456Z</time>
      </trkpt>
      <trkpt lat="43.537747" lon="12.855072">
        <ele>417.546534</ele>
        <time>2022-02-14T16:44:30.150Z</time>
      </trkpt>
      <trkpt lat="43.537708" lon="12.854406">
        <ele>418.207257</ele>
        <time>2022-02-14T16:45:22.906Z</time>
      </trkpt>
      <trkpt lat="43.538207" lon="12.852794">
        <ele>419.902502</ele>
        <time>2022-02-14T16:47:34.852Z</time>
      </trkpt>
      <trkpt lat="43.538085" lon="12.852113">
        <ele>418.215015</ele>
        <time>2022-02-14T16:48:28.014Z</time>
      </trkpt>
      <trkpt lat="43.538089" lon="12.851906">
        <ele>417.716882</ele>
        <time>2022-02-14T16:48:43.898Z</time>
      </trkpt>
      <trkpt lat="43.538119" lon="12.851664">
        <ele>417.126279</ele>
        <time>2022-02-14T16:49:02.840Z</time>
      </trkpt>
      <trkpt lat="43.538353" lon="12.851030">
        <ele>415.414842</ele>
        <time>2022-02-14T16:49:58.747Z</time>
      </trkpt>
      <trkpt lat="43.538394" lon="12.850778">
        <ele>414.793556</ele>
        <time>2022-02-14T16:50:19.577Z</time>
      </trkpt>
      <trkpt lat="43.538402" lon="12.849448">
        <ele>410.753813</ele>
        <time>2022-02-14T16:52:06.948Z</time>
      </trkpt>
      <trkpt lat="43.538632" lon="12.848809">
        <ele>408.428325</ele>
        <time>2022-02-14T16:53:04.175Z</time>
      </trkpt>
      <trkpt lat="43.538343" lon="12.849024">
        <ele>406.951908</ele>
        <time>2022-02-14T16:53:39.866Z</time>
      </trkpt>
      <trkpt lat="43.536912" lon="12.850591">
        <ele>403.072934</ele>
        <time>2022-02-14T16:56:49.732Z</time>
      </trkpt>
      <trkpt lat="43.536621" lon="12.850682">
        <ele>402.481292</ele>
        <time>2022-02-14T16:57:19.692Z</time>
      </trkpt>
      <trkpt lat="43.536304" lon="12.850674">
        <ele>401.684014</ele>
        <time>2022-02-14T16:57:51.615Z</time>
      </trkpt>
      <trkpt lat="43.536507" lon="12.850404">
        <ele>400.974898</ele>
        <time>2022-02-14T16:58:20.189Z</time>
      </trkpt>
      <trkpt lat="43.536659" lon="12.850308">
        <ele>400.554513</ele>
        <time>2022-02-14T16:58:37.431Z</time>
      </trkpt>
      <trkpt lat="43.536717" lon="12.850068">
        <ele>400.093333</ele>
        <time>2022-02-14T16:58:56.609Z</time>
      </trkpt>
      <trkpt lat="43.536450" lon="12.848831">
        <ele>396.680978</ele>
        <time>2022-02-14T17:00:37.681Z</time>
      </trkpt>
      <trkpt lat="43.536481" lon="12.848175">
        <ele>392.572607</ele>
        <time>2022-02-14T17:01:32.042Z</time>
      </trkpt>
      <trkpt lat="43.536398" lon="12.847619">
        <ele>389.024979</ele>
        <time>2022-02-14T17:02:20.208Z</time>
      </trkpt>
      <trkpt lat="43.536072" lon="12.846059">
        <ele>376.381040</ele>
        <time>2022-02-14T17:04:43.684Z</time>
      </trkpt>
      <trkpt lat="43.536130" lon="12.844783">
        <ele>363.128700</ele>
        <time>2022-02-14T17:06:42.502Z</time>
      </trkpt>
      <trkpt lat="43.536362" lon="12.843899">
        <ele>352.492928</ele>
        <time>2022-02-14T17:08:12.092Z</time>
      </trkpt>
      <trkpt lat="43.536408" lon="12.843482">
        <ele>347.029856</ele>
        <time>2022-02-14T17:08:53.565Z</time>
      </trkpt>
      <trkpt lat="43.536805" lon="12.842042">
        <ele>327.076147</ele>
        <time>2022-02-14T17:11:31.137Z</time>
      </trkpt>
      <trkpt lat="43.536911" lon="12.841845">
        <ele>324.202332</ele>
        <time>2022-02-14T17:11:56.202Z</time>
      </trkpt>
      <trkpt lat="43.537224" lon="12.841603">
        <ele>319.907756</ele>
        <time>2022-02-14T17:12:43.216Z</time>
      </trkpt>
      <trkpt lat="43.537537" lon="12.841227">
        <ele>314.940097</ele>
        <time>2022-02-14T17:13:35.642Z</time>
      </trkpt>
      <trkpt lat="43.537582" lon="12.841202">
        <ele>314.359459</ele>
        <time>2022-02-14T17:13:41.541Z</time>
      </trkpt>
      <trkpt lat="43.537779" lon="12.841087">
        <ele>311.799154</ele>
        <time>2022-02-14T17:14:07.613Z</time>
      </trkpt>
      <trkpt lat="43.538321" lon="12.841218">
        <ele>305.213193</ele>
        <time>2022-02-14T17:15:12.776Z</time>
      </trkpt>
      <trkpt lat="43.538848" lon="12.841152">
        <ele>301.942352</ele>
        <time>2022-02-14T17:16:12.524Z</time>
      </trkpt>
      <trkpt lat="43.539210" lon="12.841185">
        <ele>300.614890</ele>
        <time>2022-02-14T17:16:51.199Z</time>
      </trkpt>
      <trkpt lat="43.539512" lon="12.840803">
        <ele>299.115645</ele>
        <time>2022-02-14T17:17:33.955Z</time>
      </trkpt>
      <trkpt lat="43.539518" lon="12.839848">
        <ele>296.574519</ele>
        <time>2022-02-14T17:18:46.196Z</time>
      </trkpt>
      <trkpt lat="43.539147" lon="12.839774">
        <ele>295.117111</ele>
        <time>2022-02-14T17:19:25.409Z</time>
      </trkpt>
      <trkpt lat="43.539126" lon="12.839555">
        <ele>294.494516</ele>
        <time>2022-02-14T17:19:42.552Z</time>
      </trkpt>
      <trkpt lat="43.539402" lon="12.839504">
        <ele>293.411873</ele>
        <time>2022-02-14T17:20:12.859Z</time>
      </trkpt>
      <trkpt lat="43.539507" lon="12.839365">
        <ele>292.846084</ele>
        <time>2022-02-14T17:20:29.076Z</time>
      </trkpt>
      <trkpt lat="43.539497" lon="12.839077">
        <ele>292.033474</ele>
        <time>2022-02-14T17:20:52.153Z</time>
      </trkpt>
      <trkpt lat="43.539316" lon="12.838573">
        <ele>290.448273</ele>
        <time>2022-02-14T17:21:36.931Z</time>
      </trkpt>
      <trkpt lat="43.539315" lon="12.838368">
        <ele>289.870500</ele>
        <time>2022-02-14T17:21:53.296Z</time>
      </trkpt>
      <trkpt lat="43.539359" lon="12.838173">
        <ele>289.456761</ele>
        <time>2022-02-14T17:22:09.190Z</time>
      </trkpt>
      <trkpt lat="43.539697" lon="12.837530">
        <ele>288.077214</ele>
        <time>2022-02-14T17:23:11.360Z</time>
      </trkpt>
      <trkpt lat="43.539815" lon="12.837378">
        <ele>287.690385</ele>
        <time>2022-02-14T17:23:28.142Z</time>
      </trkpt>
      <trkpt lat="43.539884" lon="12.837313">
        <ele>287.490189</ele>
        <time>2022-02-14T17:23:37.156Z</time>
      </trkpt>
      <trkpt lat="43.539608" lon="12.837108">
        <ele>286.739121</ele>
        <time>2022-02-14T17:24:09.473Z</time>
      </trkpt>
      <trkpt lat="43.539366" lon="12.837038">
        <ele>286.146671</ele>
        <time>2022-02-14T17:24:35.304Z</time>
      </trkpt>
      <trkpt lat="43.538819" lon="12.837113">
        <ele>285.707243</ele>
        <time>2022-02-14T17:25:31.261Z</time>
      </trkpt>
      <trkpt lat="43.538443" lon="12.836696">
        <ele>286.308048</ele>
        <time>2022-02-14T17:26:22.285Z</time>
      </trkpt>
      <trkpt lat="43.538284" lon="12.836627">
        <ele>286.515623</ele>
        <time>2022-02-14T17:26:41.237Z</time>
      </trkpt>
      <trkpt lat="43.537713" lon="12.836583">
        <ele>287.227816</ele>
        <time>2022-02-14T17:27:41.960Z</time>
      </trkpt>
      <trkpt lat="43.537411" lon="12.836573">
        <ele>287.604015</ele>
        <time>2022-02-14T17:28:13.761Z</time>
      </trkpt>
      <trkpt lat="43.537243" lon="12.836578">
        <ele>287.753269</ele>
        <time>2022-02-14T17:28:31.809Z</time>
      </trkpt>
      <trkpt lat="43.537021" lon="12.836585">
        <ele>287.930005</ele>
        <time>2022-02-14T17:28:54.726Z</time>
      </trkpt>
      <trkpt lat="43.536852" lon="12.836455">
        <ele>288.084013</ele>
        <time>2022-02-14T17:29:15.289Z</time>
      </trkpt>
      <trkpt lat="43.536683" lon="12.836276">
        <ele>288.253597</ele>
        <time>2022-02-14T17:29:37.253Z</time>
      </trkpt>
      <trkpt lat="43.536579" lon="12.836400">
        <ele>288.363005</ele>
        <time>2022-02-14T17:29:51.149Z</time>
      </trkpt>
      <trkpt lat="43.536471" lon="12.836398">
        <ele>288.448970</ele>
        <time>2022-02-14T17:30:02.097Z</time>
      </trkpt>
      <trkpt lat="43.536379" lon="12.836346">
        <ele>288.528101</ele>
        <time>2022-02-14T17:30:12.458Z</time>
      </trkpt>
      <trkpt lat="43.536024" lon="12.836167">
        <ele>288.828931</ele>
        <time>2022-02-14T17:30:50.665Z</time>
      </trkpt>
      <trkpt lat="43.535793" lon="12.835978">
        <ele>289.042692</ele>
        <time>2022-02-14T17:31:17.727Z</time>
      </trkpt>
      <trkpt lat="43.535790" lon="12.835978">
        <ele>289.045080</ele>
        <time>2022-02-14T17:31:18.037Z</time>
      </trkpt>
      <trkpt lat="43.535680" lon="12.836025">
        <ele>289.240094</ele>
        <time>2022-02-14T17:31:29.885Z</time>
      </trkpt>
      <trkpt lat="43.535494" lon="12.836602">
        <ele>290.251588</ele>
        <time>2022-02-14T17:32:16.379Z</time>
      </trkpt>
      <trkpt lat="43.535255" lon="12.837004">
        <ele>291.084362</ele>
        <time>2022-02-14T17:32:56.481Z</time>
      </trkpt>
      <trkpt lat="43.535091" lon="12.837186">
        <ele>291.549441</ele>
        <time>2022-02-14T17:33:19.607Z</time>
      </trkpt>
      <trkpt lat="43.534503" lon="12.837261">
        <ele>292.854196</ele>
        <time>2022-02-14T17:34:25.083Z</time>
      </trkpt>
      <trkpt lat="43.534102" lon="12.837450">
        <ele>294.881145</ele>
        <time>2022-02-14T17:35:13.811Z</time>
      </trkpt>
      <trkpt lat="43.534033" lon="12.837411">
        <ele>295.289461</ele>
        <time>2022-02-14T17:35:23.113Z</time>
      </trkpt>
      <trkpt lat="43.533573" lon="12.837156">
        <ele>298.004102</ele>
        <time>2022-02-14T17:36:21.839Z</time>
      </trkpt>
      <trkpt lat="43.533191" lon="12.837203">
        <ele>300.104140</ele>
        <time>2022-02-14T17:37:08.468Z</time>
      </trkpt>
      <trkpt lat="43.532709" lon="12.837004">
        <ele>302.859140</ele>
        <time>2022-02-14T17:38:10.245Z</time>
      </trkpt>
      <trkpt lat="43.532616" lon="12.837419">
        <ele>304.394458</ele>
        <time>2022-02-14T17:38:48.462Z</time>
      </trkpt>
      <trkpt lat="43.532472" lon="12.837751">
        <ele>305.757655</ele>
        <time>2022-02-14T17:39:21.910Z</time>
      </trkpt>
      <trkpt lat="43.532097" lon="12.837948">
        <ele>307.707944</ele>
        <time>2022-02-14T17:40:08.594Z</time>
      </trkpt>
      <trkpt lat="43.531983" lon="12.837911">
        <ele>308.277139</ele>
        <time>2022-02-14T17:40:22.450Z</time>
      </trkpt>
      <trkpt lat="43.531004" lon="12.838060">
        <ele>312.959065</ele>
        <time>2022-02-14T17:42:14.102Z</time>
      </trkpt>
      <trkpt lat="43.530471" lon="12.837952">
        <ele>315.383685</ele>
        <time>2022-02-14T17:43:15.159Z</time>
      </trkpt>
      <trkpt lat="43.530064" lon="12.837957">
        <ele>317.215542</ele>
        <time>2022-02-14T17:44:01.343Z</time>
      </trkpt>
      <trkpt lat="43.529827" lon="12.837874">
        <ele>318.316054</ele>
        <time>2022-02-14T17:44:29.580Z</time>
      </trkpt>
      <trkpt lat="43.529718" lon="12.837566">
        <ele>319.434423</ele>
        <time>2022-02-14T17:44:58.973Z</time>
      </trkpt>
      <trkpt lat="43.526121" lon="12.838544">
        <ele>344.863395</ele>
        <time>2022-02-14T17:52:35.232Z</time>
      </trkpt>
      <trkpt lat="43.525980" lon="12.838638">
        <ele>345.948916</ele>
        <time>2022-02-14T17:52:54.495Z</time>
      </trkpt>
      <trkpt lat="43.525904" lon="12.838801">
        <ele>346.922868</ele>
        <time>2022-02-14T17:53:11.676Z</time>
      </trkpt>
      <trkpt lat="43.525717" lon="12.839624">
        <ele>351.257385</ele>
        <time>2022-02-14T17:54:28.593Z</time>
      </trkpt>
      <trkpt lat="43.525675" lon="12.839661">
        <ele>351.602826</ele>
        <time>2022-02-14T17:54:34.817Z</time>
      </trkpt>
      <trkpt lat="43.525310" lon="12.839435">
        <ele>354.376064</ele>
        <time>2022-02-14T17:55:24.531Z</time>
      </trkpt>
      <trkpt lat="43.524633" lon="12.838769">
        <ele>360.414991</ele>
        <time>2022-02-14T17:57:07.523Z</time>
      </trkpt>
      <trkpt lat="43.524125" lon="12.838786">
        <ele>364.280678</ele>
        <time>2022-02-14T17:58:11.994Z</time>
      </trkpt>
      <trkpt lat="43.523038" lon="12.838039">
        <ele>372.890583</ele>
        <time>2022-02-14T18:00:46.505Z</time>
      </trkpt>
      <trkpt lat="43.522729" lon="12.837890">
        <ele>374.758090</ele>
        <time>2022-02-14T18:01:26.323Z</time>
      </trkpt>
      <trkpt lat="43.522408" lon="12.837844">
        <ele>376.599268</ele>
        <time>2022-02-14T18:02:04.889Z</time>
      </trkpt>
      <trkpt lat="43.522025" lon="12.837969">
        <ele>378.844652</ele>
        <time>2022-02-14T18:02:51.251Z</time>
      </trkpt>
      <trkpt lat="43.521777" lon="12.838093">
        <ele>380.349621</ele>
        <time>2022-02-14T18:03:21.022Z</time>
      </trkpt>
      <trkpt lat="43.521416" lon="12.838127">
        <ele>382.118082</ele>
        <time>2022-02-14T18:04:02.207Z</time>
      </trkpt>
      <trkpt lat="43.520972" lon="12.838220">
        <ele>384.020196</ele>
        <time>2022-02-14T18:04:53.434Z</time>
      </trkpt>
      <trkpt lat="43.520227" lon="12.838510">
        <ele>387.298909</ele>
        <time>2022-02-14T18:06:21.169Z</time>
      </trkpt>
      <trkpt lat="43.519713" lon="12.838515">
        <ele>389.628419</ele>
        <time>2022-02-14T18:07:21.487Z</time>
      </trkpt>
      <trkpt lat="43.518932" lon="12.838583">
        <ele>393.795585</ele>
        <time>2022-02-14T18:08:55.000Z</time>
      </trkpt>
      <trkpt lat="43.518785" lon="12.838479">
        <ele>394.675375</ele>
        <time>2022-02-14T18:09:13.693Z</time>
      </trkpt>
      <trkpt lat="43.518614" lon="12.838085">
        <ele>396.448479</ele>
        <time>2022-02-14T18:09:53.313Z</time>
      </trkpt>
      <trkpt lat="43.518268" lon="12.838189">
        <ele>398.334214</ele>
        <time>2022-02-14T18:10:35.081Z</time>
      </trkpt>
      <trkpt lat="43.518027" lon="12.838463">
        <ele>400.847938</ele>
        <time>2022-02-14T18:11:12.979Z</time>
      </trkpt>
      <trkpt lat="43.518014" lon="12.838747">
        <ele>402.555180</ele>
        <time>2022-02-14T18:11:38.570Z</time>
      </trkpt>
      <trkpt lat="43.518037" lon="12.839115">
        <ele>404.771171</ele>
        <time>2022-02-14T18:12:10.680Z</time>
      </trkpt>
      <trkpt lat="43.517861" lon="12.839105">
        <ele>406.228514</ele>
        <time>2022-02-14T18:12:33.411Z</time>
      </trkpt>
      <trkpt lat="43.517486" lon="12.839083">
        <ele>409.333821</ele>
        <time>2022-02-14T18:13:22.806Z</time>
      </trkpt>
      <trkpt lat="43.517313" lon="12.839014">
        <ele>410.823771</ele>
        <time>2022-02-14T18:13:47.361Z</time>
      </trkpt>
      <trkpt lat="43.517321" lon="12.838562">
        <ele>413.566546</ele>
        <time>2022-02-14T18:14:31.966Z</time>
      </trkpt>
      <trkpt lat="43.516759" lon="12.838686">
        <ele>419.006933</ele>
        <time>2022-02-14T18:15:48.996Z</time>
      </trkpt>
      <trkpt lat="43.516510" lon="12.838840">
        <ele>421.615506</ele>
        <time>2022-02-14T18:16:30.589Z</time>
      </trkpt>
      <trkpt lat="43.516189" lon="12.838901">
        <ele>424.712886</ele>
        <time>2022-02-14T18:17:14.416Z</time>
      </trkpt>
      <trkpt lat="43.515871" lon="12.838769">
        <ele>427.887322</ele>
        <time>2022-02-14T18:17:56.848Z</time>
      </trkpt>
      <trkpt lat="43.515303" lon="12.838497">
        <ele>431.518949</ele>
        <time>2022-02-14T18:19:09.555Z</time>
      </trkpt>
      <trkpt lat="43.515162" lon="12.838224">
        <ele>432.256380</ele>
        <time>2022-02-14T18:19:38.811Z</time>
      </trkpt>
      <trkpt lat="43.515305" lon="12.837523">
        <ele>433.858604</ele>
        <time>2022-02-14T18:20:34.075Z</time>
      </trkpt>
      <trkpt lat="43.515619" lon="12.837224">
        <ele>435.016354</ele>
        <time>2022-02-14T18:21:13.226Z</time>
      </trkpt>
      <trkpt lat="43.515564" lon="12.837127">
        <ele>435.287267</ele>
        <time>2022-02-14T18:21:22.995Z</time>
      </trkpt>
      <trkpt lat="43.515354" lon="12.837186">
        <ele>435.937498</ele>
        <time>2022-02-14T18:21:44.631Z</time>
      </trkpt>
      <trkpt lat="43.515137" lon="12.837340">
        <ele>437.365505</ele>
        <time>2022-02-14T18:22:11.714Z</time>
      </trkpt>
      <trkpt lat="43.514698" lon="12.837548">
        <ele>440.185875</ele>
        <time>2022-02-14T18:23:00.461Z</time>
      </trkpt>
      <trkpt lat="43.514592" lon="12.837520">
        <ele>440.841628</ele>
        <time>2022-02-14T18:23:13.415Z</time>
      </trkpt>
      <trkpt lat="43.514609" lon="12.837187">
        <ele>442.312530</ele>
        <time>2022-02-14T18:23:43.244Z</time>
      </trkpt>
      <trkpt lat="43.514547" lon="12.836885">
        <ele>443.695502</ele>
        <time>2022-02-14T18:24:12.821Z</time>
      </trkpt>
      <trkpt lat="43.514417" lon="12.836602">
        <ele>445.171577</ele>
        <time>2022-02-14T18:24:45.387Z</time>
      </trkpt>
      <trkpt lat="43.514248" lon="12.836448">
        <ele>446.402354</ele>
        <time>2022-02-14T18:25:13.110Z</time>
      </trkpt>
      <trkpt lat="43.514069" lon="12.836411">
        <ele>447.842586</ele>
        <time>2022-02-14T18:25:37.773Z</time>
      </trkpt>
      <trkpt lat="43.513921" lon="12.836146">
        <ele>450.179238</ele>
        <time>2022-02-14T18:26:10.381Z</time>
      </trkpt>
      <trkpt lat="43.513048" lon="12.835517">
        <ele>459.667820</ele>
        <time>2022-02-14T18:28:21.304Z</time>
      </trkpt>
      <trkpt lat="43.513393" lon="12.834692">
        <ele>466.066978</ele>
        <time>2022-02-14T18:29:51.185Z</time>
      </trkpt>
      <trkpt lat="43.513423" lon="12.834428">
        <ele>467.705217</ele>
        <time>2022-02-14T18:30:15.917Z</time>
      </trkpt>
      <trkpt lat="43.513396" lon="12.833977">
        <ele>470.479541</ele>
        <time>2022-02-14T18:30:58.286Z</time>
      </trkpt>
      <trkpt lat="43.513657" lon="12.833149">
        <ele>476.014479</ele>
        <time>2022-02-14T18:32:20.924Z</time>
      </trkpt>
      <trkpt lat="43.513901" lon="12.832565">
        <ele>480.269267</ele>
        <time>2022-02-14T18:33:23.730Z</time>
      </trkpt>
      <trkpt lat="43.513657" lon="12.832082">
        <ele>484.516397</ele>
        <time>2022-02-14T18:34:20.332Z</time>
      </trkpt>
      <trkpt lat="43.513559" lon="12.831713">
        <ele>487.351739</ele>
        <time>2022-02-14T18:34:57.768Z</time>
      </trkpt>
      <trkpt lat="43.513554" lon="12.831206">
        <ele>491.010208</ele>
        <time>2022-02-14T18:35:53.119Z</time>
      </trkpt>
      <trkpt lat="43.513733" lon="12.830696">
        <ele>495.098279</ele>
        <time>2022-02-14T18:36:50.248Z</time>
      </trkpt>
      <trkpt lat="43.513745" lon="12.830192">
        <ele>497.367836</ele>
        <time>2022-02-14T18:37:38.808Z</time>
      </trkpt>
      <trkpt lat="43.513690" lon="12.829966">
        <ele>497.393533</ele>
        <time>2022-02-14T18:38:02.332Z</time>
      </trkpt>
      <trkpt lat="43.513745" lon="12.829586">
        <ele>497.435304</ele>
        <time>2022-02-14T18:38:31.001Z</time>
      </trkpt>
      <trkpt lat="43.513694" lon="12.829510">
        <ele>497.446466</ele>
        <time>2022-02-14T18:38:44.293Z</time>
      </trkpt>
      <trkpt lat="43.513544" lon="12.829536">
        <ele>497.468937</ele>
        <time>2022-02-14T18:39:00.888Z</time>
      </trkpt>
      <trkpt lat="43.513472" lon="12.829548">
        <ele>497.479718</ele>
        <time>2022-02-14T18:39:08.887Z</time>
      </trkpt>
      <trkpt lat="43.513324" lon="12.829367">
        <ele>497.509123</ele>
        <time>2022-02-14T18:39:28.860Z</time>
      </trkpt>
      <trkpt lat="43.512980" lon="12.829170">
        <ele>497.564490</ele>
        <time>2022-02-14T18:40:09.210Z</time>
      </trkpt>
      <trkpt lat="43.512757" lon="12.828951">
        <ele>497.605185</ele>
        <time>2022-02-14T18:40:38.985Z</time>
      </trkpt>
      <trkpt lat="43.512162" lon="12.828277">
        <ele>491.091359</ele>
        <time>2022-02-14T18:42:08.263Z</time>
      </trkpt>
      <trkpt lat="43.511885" lon="12.827879">
        <ele>487.404696</ele>
        <time>2022-02-14T18:42:56.895Z</time>
      </trkpt>
      <trkpt lat="43.511850" lon="12.827749">
        <ele>486.477928</ele>
        <time>2022-02-14T18:43:09.293Z</time>
      </trkpt>
      <trkpt lat="43.512015" lon="12.826968">
        <ele>481.041296</ele>
        <time>2022-02-14T18:44:21.622Z</time>
      </trkpt>
      <trkpt lat="43.512024" lon="12.826098">
        <ele>473.487749</ele>
        <time>2022-02-14T18:45:35.513Z</time>
      </trkpt>
      <trkpt lat="43.512162" lon="12.825870">
        <ele>470.909418</ele>
        <time>2022-02-14T18:46:01.147Z</time>
      </trkpt>
      <trkpt lat="43.512611" lon="12.825487">
        <ele>464.588828</ele>
        <time>2022-02-14T18:47:06.136Z</time>
      </trkpt>
      <trkpt lat="43.512665" lon="12.825179">
        <ele>461.837741</ele>
        <time>2022-02-14T18:47:35.559Z</time>
      </trkpt>
      <trkpt lat="43.512661" lon="12.824951">
        <ele>459.857668</ele>
        <time>2022-02-14T18:47:57.287Z</time>
      </trkpt>
      <trkpt lat="43.512587" lon="12.824630">
        <ele>455.376068</ele>
        <time>2022-02-14T18:48:29.207Z</time>
      </trkpt>
      <trkpt lat="43.512638" lon="12.824331">
        <ele>451.095560</ele>
        <time>2022-02-14T18:48:59.583Z</time>
      </trkpt>
      <trkpt lat="43.512828" lon="12.823694">
        <ele>441.496968</ele>
        <time>2022-02-14T18:50:09.201Z</time>
      </trkpt>
      <trkpt lat="43.512900" lon="12.823262">
        <ele>435.319781</ele>
        <time>2022-02-14T18:50:56.735Z</time>
      </trkpt>
      <trkpt lat="43.512977" lon="12.823074">
        <ele>432.310914</ele>
        <time>2022-02-14T18:51:21.284Z</time>
      </trkpt>
      <trkpt lat="43.513275" lon="12.822664">
        <ele>424.243430</ele>
        <time>2022-02-14T18:52:25.371Z</time>
      </trkpt>
      <trkpt lat="43.513036" lon="12.822243">
        <ele>417.017666</ele>
        <time>2022-02-14T18:53:24.521Z</time>
      </trkpt>
      <trkpt lat="43.513132" lon="12.821903">
        <ele>412.086580</ele>
        <time>2022-02-14T18:54:02.715Z</time>
      </trkpt>
      <trkpt lat="43.513312" lon="12.821541">
        <ele>406.154626</ele>
        <time>2022-02-14T18:54:45.367Z</time>
      </trkpt>
      <trkpt lat="43.513311" lon="12.821442">
        <ele>404.816516</ele>
        <time>2022-02-14T18:54:54.729Z</time>
      </trkpt>
      <trkpt lat="43.513258" lon="12.821332">
        <ele>403.031674</ele>
        <time>2022-02-14T18:55:07.324Z</time>
      </trkpt>
      <trkpt lat="43.513180" lon="12.820602">
        <ele>393.059235</ele>
        <time>2022-02-14T18:56:24.562Z</time>
      </trkpt>
      <trkpt lat="43.513083" lon="12.820345">
        <ele>390.360272</ele>
        <time>2022-02-14T18:56:51.143Z</time>
      </trkpt>
      <trkpt lat="43.512949" lon="12.820275">
        <ele>389.113993</ele>
        <time>2022-02-14T18:57:10.715Z</time>
      </trkpt>
      <trkpt lat="43.512708" lon="12.819939">
        <ele>386.133217</ele>
        <time>2022-02-14T18:57:52.690Z</time>
      </trkpt>
      <trkpt lat="43.512523" lon="12.819930">
        <ele>384.523202</ele>
        <time>2022-02-14T18:58:13.115Z</time>
      </trkpt>
      <trkpt lat="43.512322" lon="12.819827">
        <ele>382.658213</ele>
        <time>2022-02-14T18:58:39.156Z</time>
      </trkpt>
      <trkpt lat="43.512355" lon="12.819671">
        <ele>381.633229</ele>
        <time>2022-02-14T18:58:51.178Z</time>
      </trkpt>
      <trkpt lat="43.512495" lon="12.819534">
        <ele>380.140126</ele>
        <time>2022-02-14T18:59:11.459Z</time>
      </trkpt>
      <trkpt lat="43.512553" lon="12.819607">
        <ele>379.457131</ele>
        <time>2022-02-14T18:59:19.845Z</time>
      </trkpt>
      <trkpt lat="43.512676" lon="12.819614">
        <ele>378.386443</ele>
        <time>2022-02-14T18:59:32.753Z</time>
      </trkpt>
      <trkpt lat="43.512799" lon="12.819515">
        <ele>377.147753</ele>
        <time>2022-02-14T18:59:49.263Z</time>
      </trkpt>
      <trkpt lat="43.512984" lon="12.819487">
        <ele>375.729740</ele>
        <time>2022-02-14T19:00:07.981Z</time>
      </trkpt>
      <trkpt lat="43.513174" lon="12.819536">
        <ele>375.384974</ele>
        <time>2022-02-14T19:00:29.658Z</time>
      </trkpt>
      <trkpt lat="43.513610" lon="12.820131">
        <ele>374.290853</ele>
        <time>2022-02-14T19:01:34.742Z</time>
      </trkpt>
      <trkpt lat="43.513815" lon="12.820279">
        <ele>373.878125</ele>
        <time>2022-02-14T19:01:59.619Z</time>
      </trkpt>
      <trkpt lat="43.513933" lon="12.820523">
        <ele>373.498772</ele>
        <time>2022-02-14T19:02:22.374Z</time>
      </trkpt>
      <trkpt lat="43.514119" lon="12.820754">
        <ele>373.052295</ele>
        <time>2022-02-14T19:02:47.674Z</time>
      </trkpt>
      <trkpt lat="43.514266" lon="12.820872">
        <ele>372.748911</ele>
        <time>2022-02-14T19:03:05.415Z</time>
      </trkpt>
      <trkpt lat="43.514430" lon="12.820873">
        <ele>372.141162</ele>
        <time>2022-02-14T19:03:23.227Z</time>
      </trkpt>
      <trkpt lat="43.515192" lon="12.822181">
        <ele>364.124148</ele>
        <time>2022-02-14T19:05:37.596Z</time>
      </trkpt>
      <trkpt lat="43.515620" lon="12.822563">
        <ele>360.764864</ele>
        <time>2022-02-14T19:06:40.965Z</time>
      </trkpt>
      <trkpt lat="43.516112" lon="12.822713">
        <ele>355.221691</ele>
        <time>2022-02-14T19:07:42.093Z</time>
      </trkpt>
      <trkpt lat="43.516440" lon="12.822905">
        <ele>351.281203</ele>
        <time>2022-02-14T19:08:26.285Z</time>
      </trkpt>
      <trkpt lat="43.516638" lon="12.822871">
        <ele>349.074695</ele>
        <time>2022-02-14T19:08:51.970Z</time>
      </trkpt>
      <trkpt lat="43.517065" lon="12.822745">
        <ele>344.245785</ele>
        <time>2022-02-14T19:09:45.244Z</time>
      </trkpt>
      <trkpt lat="43.517390" lon="12.823013">
        <ele>340.608600</ele>
        <time>2022-02-14T19:10:29.878Z</time>
      </trkpt>
      <trkpt lat="43.517551" lon="12.822985">
        <ele>340.091136</ele>
        <time>2022-02-14T19:10:48.715Z</time>
      </trkpt>
      <trkpt lat="43.517563" lon="12.822860">
        <ele>339.799563</ele>
        <time>2022-02-14T19:10:59.749Z</time>
      </trkpt>
      <trkpt lat="43.517516" lon="12.822761">
        <ele>339.525938</ele>
        <time>2022-02-14T19:11:09.419Z</time>
      </trkpt>
      <trkpt lat="43.517032" lon="12.822134">
        <ele>337.408345</ele>
        <time>2022-02-14T19:12:22.292Z</time>
      </trkpt>
      <trkpt lat="43.517249" lon="12.822010">
        <ele>336.659315</ele>
        <time>2022-02-14T19:12:45.872Z</time>
      </trkpt>
      <trkpt lat="43.517519" lon="12.822029">
        <ele>335.797217</ele>
        <time>2022-02-14T19:13:13.989Z</time>
      </trkpt>
      <trkpt lat="43.517065" lon="12.821658">
        <ele>337.005384</ele>
        <time>2022-02-14T19:14:11.289Z</time>
      </trkpt>
      <trkpt lat="43.516483" lon="12.820735">
        <ele>342.506236</ele>
        <time>2022-02-14T19:15:59.338Z</time>
      </trkpt>
      <trkpt lat="43.516265" lon="12.820510">
        <ele>344.194975</ele>
        <time>2022-02-14T19:16:33.069Z</time>
      </trkpt>
      <trkpt lat="43.516335" lon="12.820330">
        <ele>345.113564</ele>
        <time>2022-02-14T19:16:52.057Z</time>
      </trkpt>
      <trkpt lat="43.515815" lon="12.819393">
        <ele>355.481862</ele>
        <time>2022-02-14T19:18:46.683Z</time>
      </trkpt>
      <trkpt lat="43.515291" lon="12.819005">
        <ele>363.648878</ele>
        <time>2022-02-14T19:20:17.783Z</time>
      </trkpt>
      <trkpt lat="43.515131" lon="12.818749">
        <ele>367.014226</ele>
        <time>2022-02-14T19:21:03.816Z</time>
      </trkpt>
      <trkpt lat="43.514743" lon="12.818383">
        <ele>373.735427</ele>
        <time>2022-02-14T19:22:40.993Z</time>
      </trkpt>
      <trkpt lat="43.514378" lon="12.817256">
        <ele>387.323897</ele>
        <time>2022-02-14T19:25:06.773Z</time>
      </trkpt>
      <trkpt lat="43.514210" lon="12.817091">
        <ele>390.455082</ele>
        <time>2022-02-14T19:25:49.349Z</time>
      </trkpt>
      <trkpt lat="43.513787" lon="12.817223">
        <ele>397.039009</ele>
        <time>2022-02-14T19:26:48.040Z</time>
      </trkpt>
      <trkpt lat="43.513198" lon="12.817109">
        <ele>401.404583</ele>
        <time>2022-02-14T19:28:09.659Z</time>
      </trkpt>
      <trkpt lat="43.512859" lon="12.816952">
        <ele>403.593401</ele>
        <time>2022-02-14T19:28:55.132Z</time>
      </trkpt>
      <trkpt lat="43.512386" lon="12.816937">
        <ele>406.489251</ele>
        <time>2022-02-14T19:29:42.887Z</time>
      </trkpt>
      <trkpt lat="43.512275" lon="12.817022">
        <ele>407.266385</ele>
        <time>2022-02-14T19:29:59.590Z</time>
      </trkpt>
      <trkpt lat="43.512386" lon="12.816937">
        <ele>408.043519</ele>
        <time>2022-02-14T19:30:21.862Z</time>
      </trkpt>
      <trkpt lat="43.512859" lon="12.816952">
        <ele>412.165407</ele>
        <time>2022-02-14T19:31:14.814Z</time>
      </trkpt>
      <trkpt lat="43.513198" lon="12.817109">
        <ele>415.955018</ele>
        <time>2022-02-14T19:32:04.704Z</time>
      </trkpt>
      <trkpt lat="43.513787" lon="12.817223">
        <ele>422.257866</ele>
        <time>2022-02-14T19:33:29.397Z</time>
      </trkpt>
      <trkpt lat="43.514210" lon="12.817091">
        <ele>426.853769</ele>
        <time>2022-02-14T19:34:30.632Z</time>
      </trkpt>
      <trkpt lat="43.514266" lon="12.816804">
        <ele>429.933269</ele>
        <time>2022-02-14T19:35:12.498Z</time>
      </trkpt>
      <trkpt lat="43.514417" lon="12.816457">
        <ele>436.080337</ele>
        <time>2022-02-14T19:35:55.597Z</time>
      </trkpt>
      <trkpt lat="43.514645" lon="12.816277">
        <ele>441.583332</ele>
        <time>2022-02-14T19:36:35.547Z</time>
      </trkpt>
      <trkpt lat="43.514640" lon="12.816195">
        <ele>442.833306</ele>
        <time>2022-02-14T19:36:49.579Z</time>
      </trkpt>
      <trkpt lat="43.514499" lon="12.816012">
        <ele>446.889112</ele>
        <time>2022-02-14T19:37:41.068Z</time>
      </trkpt>
      <trkpt lat="43.514245" lon="12.815812">
        <ele>453.015678</ele>
        <time>2022-02-14T19:38:56.309Z</time>
      </trkpt>
      <trkpt lat="43.514071" lon="12.815538">
        <ele>458.547952</ele>
        <time>2022-02-14T19:39:48.924Z</time>
      </trkpt>
      <trkpt lat="43.514011" lon="12.815515">
        <ele>459.852368</ele>
        <time>2022-02-14T19:40:11.526Z</time>
      </trkpt>
      <trkpt lat="43.513731" lon="12.815644">
        <ele>466.038171</ele>
        <time>2022-02-14T19:40:55.434Z</time>
      </trkpt>
      <trkpt lat="43.513487" lon="12.815510">
        <ele>471.860838</ele>
        <time>2022-02-14T19:41:42.700Z</time>
      </trkpt>
      <trkpt lat="43.513474" lon="12.815400">
        <ele>473.652727</ele>
        <time>2022-02-14T19:41:56.676Z</time>
      </trkpt>
      <trkpt lat="43.513508" lon="12.815361">
        <ele>474.633209</ele>
        <time>2022-02-14T19:42:16.671Z</time>
      </trkpt>
      <trkpt lat="43.513575" lon="12.815433">
        <ele>476.516393</ele>
        <time>2022-02-14T19:42:33.112Z</time>
      </trkpt>
      <trkpt lat="43.513665" lon="12.815422">
        <ele>478.519497</ele>
        <time>2022-02-14T19:42:45.436Z</time>
      </trkpt>
      <trkpt lat="43.513819" lon="12.815138">
        <ele>484.220854</ele>
        <time>2022-02-14T19:43:48.042Z</time>
      </trkpt>
      <trkpt lat="43.514014" lon="12.814969">
        <ele>489.326936</ele>
        <time>2022-02-14T19:44:26.679Z</time>
      </trkpt>
      <trkpt lat="43.514271" lon="12.814855">
        <ele>495.312118</ele>
        <time>2022-02-14T19:45:30.045Z</time>
      </trkpt>
      <trkpt lat="43.515197" lon="12.814635">
        <ele>514.275889</ele>
        <time>2022-02-14T19:48:52.105Z</time>
      </trkpt>
      <trkpt lat="43.516796" lon="12.814615">
        <ele>540.452402</ele>
        <time>2022-02-14T19:53:32.200Z</time>
      </trkpt>
      <trkpt lat="43.517063" lon="12.814388">
        <ele>542.778939</ele>
        <time>2022-02-14T19:54:13.496Z</time>
      </trkpt>
      <trkpt lat="43.517211" lon="12.814190">
        <ele>544.308402</ele>
        <time>2022-02-14T19:54:41.242Z</time>
      </trkpt>
      <trkpt lat="43.517354" lon="12.813904">
        <ele>546.176937</ele>
        <time>2022-02-14T19:55:11.323Z</time>
      </trkpt>
      <trkpt lat="43.517515" lon="12.813070">
        <ele>550.819014</ele>
        <time>2022-02-14T19:56:21.477Z</time>
      </trkpt>
      <trkpt lat="43.517619" lon="12.812933">
        <ele>551.793132</ele>
        <time>2022-02-14T19:56:38.424Z</time>
      </trkpt>
      <trkpt lat="43.517800" lon="12.812599">
        <ele>549.737678</ele>
        <time>2022-02-14T19:57:09.106Z</time>
      </trkpt>
      <trkpt lat="43.517773" lon="12.812445">
        <ele>548.956646</ele>
        <time>2022-02-14T19:57:21.432Z</time>
      </trkpt>
      <trkpt lat="43.517527" lon="12.811927">
        <ele>545.904245</ele>
        <time>2022-02-14T19:58:11.188Z</time>
      </trkpt>
      <trkpt lat="43.517420" lon="12.811496">
        <ele>543.658513</ele>
        <time>2022-02-14T19:58:50.678Z</time>
      </trkpt>
      <trkpt lat="43.517224" lon="12.811114">
        <ele>541.351687</ele>
        <time>2022-02-14T19:59:32.846Z</time>
      </trkpt>
      <trkpt lat="43.517183" lon="12.810905">
        <ele>540.284356</ele>
        <time>2022-02-14T19:59:53.017Z</time>
      </trkpt>
      <trkpt lat="43.517183" lon="12.810695">
        <ele>538.893201</ele>
        <time>2022-02-14T20:00:11.889Z</time>
      </trkpt>
      <trkpt lat="43.517277" lon="12.810313">
        <ele>534.945215</ele>
        <time>2022-02-14T20:00:48.222Z</time>
      </trkpt>
      <trkpt lat="43.517255" lon="12.810042">
        <ele>532.276392</ele>
        <time>2022-02-14T20:01:14.135Z</time>
      </trkpt>
      <trkpt lat="43.517317" lon="12.809863">
        <ele>530.334958</ele>
        <time>2022-02-14T20:01:31.398Z</time>
      </trkpt>
      <trkpt lat="43.517528" lon="12.809725">
        <ele>527.183236</ele>
        <time>2022-02-14T20:02:01.937Z</time>
      </trkpt>
      <trkpt lat="43.518601" lon="12.810131">
        <ele>513.044476</ele>
        <time>2022-02-14T20:04:22.500Z</time>
      </trkpt>
      <trkpt lat="43.519465" lon="12.810163">
        <ele>504.610660</ele>
        <time>2022-02-14T20:06:07.614Z</time>
      </trkpt>
      <trkpt lat="43.519606" lon="12.810090">
        <ele>503.141040</ele>
        <time>2022-02-14T20:06:25.210Z</time>
      </trkpt>
      <trkpt lat="43.520954" lon="12.810410">
        <ele>493.423361</ele>
        <time>2022-02-14T20:08:58.945Z</time>
      </trkpt>
      <trkpt lat="43.521629" lon="12.811196">
        <ele>488.718239</ele>
        <time>2022-02-14T20:10:36.253Z</time>
      </trkpt>
      <trkpt lat="43.521875" lon="12.811738">
        <ele>487.736401</ele>
        <time>2022-02-14T20:11:26.456Z</time>
      </trkpt>
      <trkpt lat="43.522045" lon="12.812349">
        <ele>487.130588</ele>
        <time>2022-02-14T20:12:16.236Z</time>
      </trkpt>
      <trkpt lat="43.522663" lon="12.813353">
        <ele>485.911472</ele>
        <time>2022-02-14T20:13:52.630Z</time>
      </trkpt>
      <trkpt lat="43.523519" lon="12.815302">
        <ele>491.475633</ele>
        <time>2022-02-14T20:17:01.342Z</time>
      </trkpt>
      <trkpt lat="43.523717" lon="12.815409">
        <ele>492.146731</ele>
        <time>2022-02-14T20:17:25.606Z</time>
      </trkpt>
      <trkpt lat="43.523970" lon="12.815205">
        <ele>492.925392</ele>
        <time>2022-02-14T20:17:57.888Z</time>
      </trkpt>
      <trkpt lat="43.524172" lon="12.814808">
        <ele>493.859736</ele>
        <time>2022-02-14T20:18:36.104Z</time>
      </trkpt>
      <trkpt lat="43.524293" lon="12.814438">
        <ele>494.641685</ele>
        <time>2022-02-14T20:19:10.849Z</time>
      </trkpt>
      <trkpt lat="43.524828" lon="12.814588">
        <ele>496.092219</ele>
        <time>2022-02-14T20:20:09.733Z</time>
      </trkpt>
      <trkpt lat="43.524935" lon="12.814600">
        <ele>496.377450</ele>
        <time>2022-02-14T20:20:20.540Z</time>
      </trkpt>
      <trkpt lat="43.525254" lon="12.814448">
        <ele>496.532674</ele>
        <time>2022-02-14T20:20:55.496Z</time>
      </trkpt>
      <trkpt lat="43.525392" lon="12.814118">
        <ele>496.219712</ele>
        <time>2022-02-14T20:21:24.286Z</time>
      </trkpt>
      <trkpt lat="43.525476" lon="12.813638">
        <ele>495.814055</ele>
        <time>2022-02-14T20:22:02.019Z</time>
      </trkpt>
      <trkpt lat="43.525495" lon="12.813728">
        <ele>495.737048</ele>
        <time>2022-02-14T20:22:10.052Z</time>
      </trkpt>
      <trkpt lat="43.525614" lon="12.813322">
        <ele>495.377287</ele>
        <time>2022-02-14T20:22:43.312Z</time>
      </trkpt>
      <trkpt lat="43.525834" lon="12.812860">
        <ele>494.923208</ele>
        <time>2022-02-14T20:23:24.036Z</time>
      </trkpt>
      <trkpt lat="43.526007" lon="12.812614">
        <ele>494.283706</ele>
        <time>2022-02-14T20:23:50.248Z</time>
      </trkpt>
      <trkpt lat="43.526095" lon="12.812257">
        <ele>492.490636</ele>
        <time>2022-02-14T20:24:18.857Z</time>
      </trkpt>
      <trkpt lat="43.526009" lon="12.811385">
        <ele>488.305822</ele>
        <time>2022-02-14T20:25:32.962Z</time>
      </trkpt>
      <trkpt lat="43.525959" lon="12.811008">
        <ele>486.483324</ele>
        <time>2022-02-14T20:26:05.539Z</time>
      </trkpt>
      <trkpt lat="43.525948" lon="12.810754">
        <ele>485.273321</ele>
        <time>2022-02-14T20:26:27.287Z</time>
      </trkpt>
      <trkpt lat="43.526033" lon="12.810390">
        <ele>483.454830</ele>
        <time>2022-02-14T20:26:59.188Z</time>
      </trkpt>
      <trkpt lat="43.526581" lon="12.810305">
        <ele>478.001101</ele>
        <time>2022-02-14T20:28:04.204Z</time>
      </trkpt>
      <trkpt lat="43.526833" lon="12.810059">
        <ele>474.769332</ele>
        <time>2022-02-14T20:28:42.017Z</time>
      </trkpt>
      <trkpt lat="43.526862" lon="12.809604">
        <ele>471.302714</ele>
        <time>2022-02-14T20:29:23.289Z</time>
      </trkpt>
      <trkpt lat="43.526820" lon="12.809490">
        <ele>470.332198</ele>
        <time>2022-02-14T20:29:35.124Z</time>
      </trkpt>
      <trkpt lat="43.526866" lon="12.808894">
        <ele>465.783196</ele>
        <time>2022-02-14T20:30:27.907Z</time>
      </trkpt>
      <trkpt lat="43.526977" lon="12.808851">
        <ele>464.576311</ele>
        <time>2022-02-14T20:30:41.664Z</time>
      </trkpt>
      <trkpt lat="43.527024" lon="12.808647">
        <ele>463.183683</ele>
        <time>2022-02-14T20:31:00.269Z</time>
      </trkpt>
      <trkpt lat="43.527024" lon="12.808331">
        <ele>461.273102</ele>
        <time>2022-02-14T20:31:27.008Z</time>
      </trkpt>
      <trkpt lat="43.526921" lon="12.808196">
        <ele>460.088215</ele>
        <time>2022-02-14T20:31:43.370Z</time>
      </trkpt>
      <trkpt lat="43.526822" lon="12.807897">
        <ele>458.100835</ele>
        <time>2022-02-14T20:32:11.001Z</time>
      </trkpt>
      <trkpt lat="43.526736" lon="12.807360">
        <ele>454.775786</ele>
        <time>2022-02-14T20:32:57.039Z</time>
      </trkpt>
      <trkpt lat="43.526775" lon="12.806813">
        <ele>451.452581</ele>
        <time>2022-02-14T20:33:43.411Z</time>
      </trkpt>
      <trkpt lat="43.526876" lon="12.806454">
        <ele>449.124334</ele>
        <time>2022-02-14T20:34:16.383Z</time>
      </trkpt>
      <trkpt lat="43.526825" lon="12.805998">
        <ele>448.204688</ele>
        <time>2022-02-14T20:34:55.956Z</time>
      </trkpt>
      <trkpt lat="43.526574" lon="12.805685">
        <ele>447.295605</ele>
        <time>2022-02-14T20:35:31.959Z</time>
      </trkpt>
      <trkpt lat="43.526521" lon="12.805653">
        <ele>447.140172</ele>
        <time>2022-02-14T20:35:38.370Z</time>
      </trkpt>
      <trkpt lat="43.526228" lon="12.805471">
        <ele>446.276865</ele>
        <time>2022-02-14T20:36:12.123Z</time>
      </trkpt>
      <trkpt lat="43.525482" lon="12.805253">
        <ele>444.322882</ele>
        <time>2022-02-14T20:37:29.112Z</time>
      </trkpt>
      <trkpt lat="43.525154" lon="12.805313">
        <ele>445.972761</ele>
        <time>2022-02-14T20:38:07.278Z</time>
      </trkpt>
      <trkpt lat="43.524879" lon="12.805484">
        <ele>447.476966</ele>
        <time>2022-02-14T20:38:41.983Z</time>
      </trkpt>
      <trkpt lat="43.524554" lon="12.806112">
        <ele>450.266559</ele>
        <time>2022-02-14T20:39:49.055Z</time>
      </trkpt>
      <trkpt lat="43.524432" lon="12.806082">
        <ele>450.884500</ele>
        <time>2022-02-14T20:40:05.691Z</time>
      </trkpt>
      <trkpt lat="43.524367" lon="12.805939">
        <ele>451.494722</ele>
        <time>2022-02-14T20:40:21.081Z</time>
      </trkpt>
      <trkpt lat="43.524245" lon="12.805463">
        <ele>453.278217</ele>
        <time>2022-02-14T20:41:09.131Z</time>
      </trkpt>
      <trkpt lat="43.524178" lon="12.804783">
        <ele>454.603517</ele>
        <time>2022-02-14T20:42:03.416Z</time>
      </trkpt>
      <trkpt lat="43.524274" lon="12.804135">
        <ele>455.880802</ele>
        <time>2022-02-14T20:42:56.517Z</time>
      </trkpt>
      <trkpt lat="43.524300" lon="12.802729">
        <ele>457.820456</ele>
        <time>2022-02-14T20:44:42.448Z</time>
      </trkpt>
      <trkpt lat="43.524383" lon="12.801847">
        <ele>457.223257</ele>
        <time>2022-02-14T20:45:48.021Z</time>
      </trkpt>
      <trkpt lat="43.524335" lon="12.801595">
        <ele>457.048307</ele>
        <time>2022-02-14T20:46:07.879Z</time>
      </trkpt>
      <trkpt lat="43.524164" lon="12.801318">
        <ele>456.804030</ele>
        <time>2022-02-14T20:46:35.286Z</time>
      </trkpt>
      <trkpt lat="43.523928" lon="12.801158">
        <ele>456.560502</ele>
        <time>2022-02-14T20:47:02.293Z</time>
      </trkpt>
      <trkpt lat="43.523223" lon="12.800370">
        <ele>454.142800</ele>
        <time>2022-02-14T20:48:35.828Z</time>
      </trkpt>
      <trkpt lat="43.522289" lon="12.799531">
        <ele>450.539597</ele>
        <time>2022-02-14T20:50:36.176Z</time>
      </trkpt>
      <trkpt lat="43.521691" lon="12.798813">
        <ele>444.794569</ele>
        <time>2022-02-14T20:52:05.627Z</time>
      </trkpt>
      <trkpt lat="43.520930" lon="12.797757">
        <ele>436.833534</ele>
        <time>2022-02-14T20:54:11.500Z</time>
      </trkpt>
      <trkpt lat="43.520751" lon="12.797309">
        <ele>433.464527</ele>
        <time>2022-02-14T20:54:55.017Z</time>
      </trkpt>
      <trkpt lat="43.519917" lon="12.796453">
        <ele>424.021375</ele>
        <time>2022-02-14T20:57:01.942Z</time>
      </trkpt>
      <trkpt lat="43.519587" lon="12.795822">
        <ele>421.179236</ele>
        <time>2022-02-14T20:58:04.278Z</time>
      </trkpt>
      <trkpt lat="43.519553" lon="12.795526">
        <ele>421.176677</ele>
        <time>2022-02-14T20:58:28.642Z</time>
      </trkpt>
      <trkpt lat="43.519591" lon="12.795434">
        <ele>421.175774</ele>
        <time>2022-02-14T20:58:36.773Z</time>
      </trkpt>
      <trkpt lat="43.519851" lon="12.795223">
        <ele>421.172222</ele>
        <time>2022-02-14T20:59:09.082Z</time>
      </trkpt>
      <trkpt lat="43.520024" lon="12.794372">
        <ele>421.164678</ele>
        <time>2022-02-14T21:00:15.124Z</time>
      </trkpt>
      <trkpt lat="43.519924" lon="12.794063">
        <ele>421.161790</ele>
        <time>2022-02-14T21:00:45.359Z</time>
      </trkpt>
      <trkpt lat="43.519895" lon="12.793811">
        <ele>422.784602</ele>
        <time>2022-02-14T21:01:07.166Z</time>
      </trkpt>
      <trkpt lat="43.519989" lon="12.793478">
        <ele>426.291291</ele>
        <time>2022-02-14T21:01:47.738Z</time>
      </trkpt>
      <trkpt lat="43.520378" lon="12.793145">
        <ele>432.487407</ele>
        <time>2022-02-14T21:03:05.538Z</time>
      </trkpt>
      <trkpt lat="43.521027" lon="12.792974">
        <ele>441.429200</ele>
        <time>2022-02-14T21:04:55.700Z</time>
      </trkpt>
      <trkpt lat="43.521345" lon="12.792990">
        <ele>445.714428</ele>
        <time>2022-02-14T21:05:49.484Z</time>
      </trkpt>
      <trkpt lat="43.522536" lon="12.793421">
        <ele>460.869463</ele>
        <time>2022-02-14T21:09:06.968Z</time>
      </trkpt>
      <trkpt lat="43.522754" lon="12.793600">
        <ele>463.992150</ele>
        <time>2022-02-14T21:09:39.444Z</time>
      </trkpt>
      <trkpt lat="43.522736" lon="12.793982">
        <ele>467.408502</ele>
        <time>2022-02-14T21:10:15.177Z</time>
      </trkpt>
      <trkpt lat="43.522778" lon="12.794137">
        <ele>468.103781</ele>
        <time>2022-02-14T21:10:28.977Z</time>
      </trkpt>
      <trkpt lat="43.522916" lon="12.794258">
        <ele>468.853708</ele>
        <time>2022-02-14T21:10:50.563Z</time>
      </trkpt>
      <trkpt lat="43.522976" lon="12.794140">
        <ele>469.332946</ele>
        <time>2022-02-14T21:11:02.479Z</time>
      </trkpt>
      <trkpt lat="43.523016" lon="12.793971">
        <ele>469.924089</ele>
        <time>2022-02-14T21:11:17.103Z</time>
      </trkpt>
      <trkpt lat="43.523308" lon="12.793362">
        <ele>472.351841</ele>
        <time>2022-02-14T21:12:18.153Z</time>
      </trkpt>
      <trkpt lat="43.523610" lon="12.792735">
        <ele>474.854810</ele>
        <time>2022-02-14T21:13:17.160Z</time>
      </trkpt>
      <trkpt lat="43.523643" lon="12.792582">
        <ele>475.385595</ele>
        <time>2022-02-14T21:13:31.354Z</time>
      </trkpt>
      <trkpt lat="43.523619" lon="12.792287">
        <ele>476.455557</ele>
        <time>2022-02-14T21:13:54.566Z</time>
      </trkpt>
      <trkpt lat="43.523532" lon="12.792100">
        <ele>477.320710</ele>
        <time>2022-02-14T21:14:11.862Z</time>
      </trkpt>
      <trkpt lat="43.523138" lon="12.791710">
        <ele>479.925136</ele>
        <time>2022-02-14T21:15:07.891Z</time>
      </trkpt>
      <trkpt lat="43.522858" lon="12.791344">
        <ele>481.996870</ele>
        <time>2022-02-14T21:15:54.365Z</time>
      </trkpt>
      <trkpt lat="43.522584" lon="12.791114">
        <ele>483.719431</ele>
        <time>2022-02-14T21:16:33.322Z</time>
      </trkpt>
      <trkpt lat="43.522271" lon="12.790721">
        <ele>486.223379</ele>
        <time>2022-02-14T21:17:25.854Z</time>
      </trkpt>
      <trkpt lat="43.521989" lon="12.790111">
        <ele>490.499970</ele>
        <time>2022-02-14T21:18:32.722Z</time>
      </trkpt>
      <trkpt lat="43.521756" lon="12.789841">
        <ele>492.981095</ele>
        <time>2022-02-14T21:19:11.960Z</time>
      </trkpt>
      <trkpt lat="43.521630" lon="12.789612">
        <ele>494.680468</ele>
        <time>2022-02-14T21:19:39.162Z</time>
      </trkpt>
      <trkpt lat="43.520887" lon="12.788015">
        <ele>505.379781</ele>
        <time>2022-02-14T21:22:35.668Z</time>
      </trkpt>
      <trkpt lat="43.520726" lon="12.787821">
        <ele>506.964113</ele>
        <time>2022-02-14T21:23:03.090Z</time>
      </trkpt>
      <trkpt lat="43.520268" lon="12.787446">
        <ele>510.911175</ele>
        <time>2022-02-14T21:24:10.010Z</time>
      </trkpt>
      <trkpt lat="43.519681" lon="12.787069">
        <ele>514.696400</ele>
        <time>2022-02-14T21:25:27.536Z</time>
      </trkpt>
      <trkpt lat="43.519785" lon="12.787023">
        <ele>515.127868</ele>
        <time>2022-02-14T21:25:40.577Z</time>
      </trkpt>
      <trkpt lat="43.520330" lon="12.787151">
        <ele>517.311895</ele>
        <time>2022-02-14T21:26:43.327Z</time>
      </trkpt>
      <trkpt lat="43.521468" lon="12.787598">
        <ele>522.169235</ele>
        <time>2022-02-14T21:28:52.980Z</time>
      </trkpt>
      <trkpt lat="43.522043" lon="12.788656">
        <ele>526.473059</ele>
        <time>2022-02-14T21:30:43.990Z</time>
      </trkpt>
      <trkpt lat="43.522414" lon="12.788939">
        <ele>528.376285</ele>
        <time>2022-02-14T21:31:34.412Z</time>
      </trkpt>
      <trkpt lat="43.522607" lon="12.788934">
        <ele>529.504963</ele>
        <time>2022-02-14T21:31:57.373Z</time>
      </trkpt>
      <trkpt lat="43.522748" lon="12.788844">
        <ele>530.551608</ele>
        <time>2022-02-14T21:32:16.284Z</time>
      </trkpt>
      <trkpt lat="43.523325" lon="12.788403">
        <ele>534.995544</ele>
        <time>2022-02-14T21:33:36.951Z</time>
      </trkpt>
      <trkpt lat="43.523715" lon="12.788267">
        <ele>537.705455</ele>
        <time>2022-02-14T21:34:27.675Z</time>
      </trkpt>
      <trkpt lat="43.524435" lon="12.788310">
        <ele>542.631482</ele>
        <time>2022-02-14T21:35:57.811Z</time>
      </trkpt>
      <trkpt lat="43.525364" lon="12.788105">
        <ele>549.230998</ele>
        <time>2022-02-14T21:37:53.811Z</time>
      </trkpt>
      <trkpt lat="43.525816" lon="12.787769">
        <ele>552.832852</ele>
        <time>2022-02-14T21:38:57.955Z</time>
      </trkpt>
      <trkpt lat="43.525937" lon="12.787582">
        <ele>553.940169</ele>
        <time>2022-02-14T21:39:20.759Z</time>
      </trkpt>
      <trkpt lat="43.526415" lon="12.786478">
        <ele>558.808207</ele>
        <time>2022-02-14T21:41:14.849Z</time>
      </trkpt>
      <trkpt lat="43.526748" lon="12.785915">
        <ele>561.558852</ele>
        <time>2022-02-14T21:42:16.987Z</time>
      </trkpt>
      <trkpt lat="43.528184" lon="12.784173">
        <ele>565.337789</ele>
        <time>2022-02-14T21:45:36.800Z</time>
      </trkpt>
      <trkpt lat="43.528449" lon="12.784024">
        <ele>566.022245</ele>
        <time>2022-02-14T21:46:05.901Z</time>
      </trkpt>
      <trkpt lat="43.529083" lon="12.784163">
        <ele>568.052241</ele>
        <time>2022-02-14T21:47:14.391Z</time>
      </trkpt>
      <trkpt lat="43.529471" lon="12.784149">
        <ele>569.279589</ele>
        <time>2022-02-14T21:47:56.986Z</time>
      </trkpt>
      <trkpt lat="43.529514" lon="12.784032">
        <ele>569.580324</ele>
        <time>2022-02-14T21:48:09.344Z</time>
      </trkpt>
      <trkpt lat="43.529451" lon="12.783945">
        <ele>569.862232</ele>
        <time>2022-02-14T21:48:19.685Z</time>
      </trkpt>
      <trkpt lat="43.528681" lon="12.783639">
        <ele>573.681945</ele>
        <time>2022-02-14T21:49:53.183Z</time>
      </trkpt>
      <trkpt lat="43.528502" lon="12.783459">
        <ele>575.150533</ele>
        <time>2022-02-14T21:50:21.123Z</time>
      </trkpt>
      <trkpt lat="43.528289" lon="12.783397">
        <ele>576.593718</ele>
        <time>2022-02-14T21:50:47.054Z</time>
      </trkpt>
      <trkpt lat="43.528178" lon="12.783468">
        <ele>577.404874</ele>
        <time>2022-02-14T21:51:04.435Z</time>
      </trkpt>
      <trkpt lat="43.527778" lon="12.784097">
        <ele>581.426416</ele>
        <time>2022-02-14T21:52:19.192Z</time>
      </trkpt>
      <trkpt lat="43.527533" lon="12.784338">
        <ele>583.399168</ele>
        <time>2022-02-14T21:52:56.682Z</time>
      </trkpt>
      <trkpt lat="43.527458" lon="12.784306">
        <ele>583.877343</ele>
        <time>2022-02-14T21:53:06.135Z</time>
      </trkpt>
      <trkpt lat="43.527630" lon="12.783870">
        <ele>586.069340</ele>
        <time>2022-02-14T21:53:51.198Z</time>
      </trkpt>
      <trkpt lat="43.527926" lon="12.782856">
        <ele>590.896611</ele>
        <time>2022-02-14T21:55:26.741Z</time>
      </trkpt>
      <trkpt lat="43.528026" lon="12.781631">
        <ele>595.944757</ele>
        <time>2022-02-14T21:57:12.877Z</time>
      </trkpt>
      <trkpt lat="43.528070" lon="12.781453">
        <ele>596.628359</ele>
        <time>2022-02-14T21:57:28.288Z</time>
      </trkpt>
      <trkpt lat="43.528150" lon="12.781351">
        <ele>597.174563</ele>
        <time>2022-02-14T21:57:41.817Z</time>
      </trkpt>
      <trkpt lat="43.528392" lon="12.781334">
        <ele>598.389413</ele>
        <time>2022-02-14T21:58:09.999Z</time>
      </trkpt>
      <trkpt lat="43.529883" lon="12.781947">
        <ele>606.114011</ele>
        <time>2022-02-14T22:01:11.733Z</time>
      </trkpt>
      <trkpt lat="43.530017" lon="12.781917">
        <ele>606.777848</ele>
        <time>2022-02-14T22:01:29.170Z</time>
      </trkpt>
      <trkpt lat="43.530062" lon="12.781972">
        <ele>607.071862</ele>
        <time>2022-02-14T22:01:36.278Z</time>
      </trkpt>
      <trkpt lat="43.530166" lon="12.781954">
        <ele>607.584411</ele>
        <time>2022-02-14T22:01:49.113Z</time>
      </trkpt>
      <trkpt lat="43.530384" lon="12.781614">
        <ele>609.193573</ele>
        <time>2022-02-14T22:02:28.372Z</time>
      </trkpt>
      <trkpt lat="43.530490" lon="12.781626">
        <ele>609.713657</ele>
        <time>2022-02-14T22:02:39.270Z</time>
      </trkpt>
      <trkpt lat="43.530642" lon="12.781793">
        <ele>610.663923</ele>
        <time>2022-02-14T22:03:03.433Z</time>
      </trkpt>
      <trkpt lat="43.530490" lon="12.781626">
        <ele>611.614189</ele>
        <time>2022-02-14T22:03:24.052Z</time>
      </trkpt>
      <trkpt lat="43.530384" lon="12.781614">
        <ele>611.995686</ele>
        <time>2022-02-14T22:03:37.901Z</time>
      </trkpt>
      <trkpt lat="43.530354" lon="12.781099">
        <ele>612.664980</ele>
        <time>2022-02-14T22:04:19.896Z</time>
      </trkpt>
      <trkpt lat="43.530168" lon="12.780207">
        <ele>613.867343</ele>
        <time>2022-02-14T22:05:30.681Z</time>
      </trkpt>
      <trkpt lat="43.529908" lon="12.779444">
        <ele>614.959487</ele>
        <time>2022-02-14T22:06:35.411Z</time>
      </trkpt>
      <trkpt lat="43.529631" lon="12.779128">
        <ele>613.977431</ele>
        <time>2022-02-14T22:07:11.756Z</time>
      </trkpt>
      <trkpt lat="43.529274" lon="12.778921">
        <ele>612.288726</ele>
        <time>2022-02-14T22:07:52.388Z</time>
      </trkpt>
      <trkpt lat="43.529036" lon="12.778683">
        <ele>611.006828</ele>
        <time>2022-02-14T22:08:24.944Z</time>
      </trkpt>
      <trkpt lat="43.529002" lon="12.778553">
        <ele>610.569902</ele>
        <time>2022-02-14T22:08:36.102Z</time>
      </trkpt>
      <trkpt lat="43.529034" lon="12.778398">
        <ele>610.060381</ele>
        <time>2022-02-14T22:08:49.460Z</time>
      </trkpt>
      <trkpt lat="43.529159" lon="12.778252">
        <ele>609.346118</ele>
        <time>2022-02-14T22:09:07.772Z</time>
      </trkpt>
      <trkpt lat="43.529557" lon="12.778009">
        <ele>607.448157</ele>
        <time>2022-02-14T22:09:57.069Z</time>
      </trkpt>
      <trkpt lat="43.529823" lon="12.777708">
        <ele>604.206170</ele>
        <time>2022-02-14T22:10:36.940Z</time>
      </trkpt>
      <trkpt lat="43.530158" lon="12.777279">
        <ele>599.619336</ele>
        <time>2022-02-14T22:11:30.919Z</time>
      </trkpt>
      <trkpt lat="43.530626" lon="12.777123">
        <ele>594.788218</ele>
        <time>2022-02-14T22:12:29.366Z</time>
      </trkpt>
      <trkpt lat="43.531060" lon="12.776805">
        <ele>589.857123</ele>
        <time>2022-02-14T22:13:30.369Z</time>
      </trkpt>
      <trkpt lat="43.531176" lon="12.776866">
        <ele>588.613767</ele>
        <time>2022-02-14T22:13:45.727Z</time>
      </trkpt>
      <trkpt lat="43.531238" lon="12.776835">
        <ele>587.954486</ele>
        <time>2022-02-14T22:13:53.919Z</time>
      </trkpt>
      <trkpt lat="43.531586" lon="12.776546">
        <ele>583.893629</ele>
        <time>2022-02-14T22:14:43.440Z</time>
      </trkpt>
      <trkpt lat="43.531729" lon="12.776355">
        <ele>581.903647</ele>
        <time>2022-02-14T22:15:07.267Z</time>
      </trkpt>
      <trkpt lat="43.531903" lon="12.776276">
        <ele>580.072356</ele>
        <time>2022-02-14T22:15:29.172Z</time>
      </trkpt>
      <trkpt lat="43.532175" lon="12.776319">
        <ele>577.335370</ele>
        <time>2022-02-14T22:16:01.914Z</time>
      </trkpt>
      <trkpt lat="43.532795" lon="12.776644">
        <ele>570.830104</ele>
        <time>2022-02-14T22:17:20.180Z</time>
      </trkpt>
      <trkpt lat="43.533123" lon="12.776703">
        <ele>568.272978</ele>
        <time>2022-02-14T22:17:58.418Z</time>
      </trkpt>
      <trkpt lat="43.533780" lon="12.776177">
        <ele>562.400395</ele>
        <time>2022-02-14T22:19:24.330Z</time>
      </trkpt>
      <trkpt lat="43.533852" lon="12.776048">
        <ele>561.487976</ele>
        <time>2022-02-14T22:19:37.600Z</time>
      </trkpt>
      <trkpt lat="43.533776" lon="12.775651">
        <ele>559.186732</ele>
        <time>2022-02-14T22:20:13.056Z</time>
      </trkpt>
      <trkpt lat="43.533652" lon="12.775394">
        <ele>557.456548</ele>
        <time>2022-02-14T22:20:39.212Z</time>
      </trkpt>
      <trkpt lat="43.533253" lon="12.774853">
        <ele>552.816561</ele>
        <time>2022-02-14T22:21:44.476Z</time>
      </trkpt>
      <trkpt lat="43.533102" lon="12.774740">
        <ele>551.389485</ele>
        <time>2022-02-14T22:22:04.998Z</time>
      </trkpt>
      <trkpt lat="43.532979" lon="12.774508">
        <ele>549.658542</ele>
        <time>2022-02-14T22:22:28.949Z</time>
      </trkpt>
      <trkpt lat="43.532999" lon="12.774321">
        <ele>548.520162</ele>
        <time>2022-02-14T22:22:45.298Z</time>
      </trkpt>
      <trkpt lat="43.533134" lon="12.774278">
        <ele>547.369202</ele>
        <time>2022-02-14T22:23:01.463Z</time>
      </trkpt>
      <trkpt lat="43.534083" lon="12.774353">
        <ele>540.253146</ele>
        <time>2022-02-14T22:24:51.335Z</time>
      </trkpt>
      <trkpt lat="43.534189" lon="12.774452">
        <ele>539.472077</ele>
        <time>2022-02-14T22:25:06.286Z</time>
      </trkpt>
      <trkpt lat="43.534428" lon="12.774927">
        <ele>536.914510</ele>
        <time>2022-02-14T22:25:54.141Z</time>
      </trkpt>
      <trkpt lat="43.534642" lon="12.775593">
        <ele>533.692158</ele>
        <time>2022-02-14T22:26:51.539Z</time>
      </trkpt>
      <trkpt lat="43.534642" lon="12.775841">
        <ele>532.595168</ele>
        <time>2022-02-14T22:27:11.520Z</time>
      </trkpt>
      <trkpt lat="43.534529" lon="12.776601">
        <ele>528.509422</ele>
        <time>2022-02-14T22:28:12.980Z</time>
      </trkpt>
      <trkpt lat="43.534539" lon="12.777494">
        <ele>523.422572</ele>
        <time>2022-02-14T22:29:25.653Z</time>
      </trkpt>
      <trkpt lat="43.534465" lon="12.777772">
        <ele>521.735811</ele>
        <time>2022-02-14T22:29:50.454Z</time>
      </trkpt>
      <trkpt lat="43.534389" lon="12.777889">
        <ele>520.841043</ele>
        <time>2022-02-14T22:30:04.436Z</time>
      </trkpt>
      <trkpt lat="43.534046" lon="12.778240">
        <ele>517.485642</ele>
        <time>2022-02-14T22:30:56.778Z</time>
      </trkpt>
      <trkpt lat="43.533676" lon="12.778731">
        <ele>510.457559</ele>
        <time>2022-02-14T22:32:00.798Z</time>
      </trkpt>
      <trkpt lat="43.533331" lon="12.779003">
        <ele>504.910042</ele>
        <time>2022-02-14T22:32:51.179Z</time>
      </trkpt>
      <trkpt lat="43.533511" lon="12.779157">
        <ele>501.953072</ele>
        <time>2022-02-14T22:33:18.832Z</time>
      </trkpt>
      <trkpt lat="43.533718" lon="12.779163">
        <ele>499.062656</ele>
        <time>2022-02-14T22:33:44.845Z</time>
      </trkpt>
      <trkpt lat="43.534653" lon="12.778434">
        <ele>482.442576</ele>
        <time>2022-02-14T22:36:03.238Z</time>
      </trkpt>
      <trkpt lat="43.534873" lon="12.778336">
        <ele>478.569321</ele>
        <time>2022-02-14T22:36:36.997Z</time>
      </trkpt>
      <trkpt lat="43.535702" lon="12.778409">
        <ele>464.652177</ele>
        <time>2022-02-14T22:38:28.790Z</time>
      </trkpt>
      <trkpt lat="43.535801" lon="12.778244">
        <ele>462.051483</ele>
        <time>2022-02-14T22:38:49.243Z</time>
      </trkpt>
      <trkpt lat="43.535841" lon="12.778058">
        <ele>459.831133</ele>
        <time>2022-02-14T22:39:07.707Z</time>
      </trkpt>
      <trkpt lat="43.535925" lon="12.777993">
        <ele>458.310656</ele>
        <time>2022-02-14T22:39:20.063Z</time>
      </trkpt>
      <trkpt lat="43.536243" lon="12.778287">
        <ele>452.267250</ele>
        <time>2022-02-14T22:40:10.900Z</time>
      </trkpt>
      <trkpt lat="43.536370" lon="12.778557">
        <ele>448.583835</ele>
        <time>2022-02-14T22:40:41.645Z</time>
      </trkpt>
      <trkpt lat="43.536552" lon="12.778559">
        <ele>445.710576</ele>
        <time>2022-02-14T22:41:05.115Z</time>
      </trkpt>
      <trkpt lat="43.537016" lon="12.778335">
        <ele>437.949957</ele>
        <time>2022-02-14T22:42:08.947Z</time>
      </trkpt>
      <trkpt lat="43.537344" lon="12.777981">
        <ele>432.090536</ele>
        <time>2022-02-14T22:43:02.885Z</time>
      </trkpt>
      <trkpt lat="43.537622" lon="12.777529">
        <ele>427.422911</ele>
        <time>2022-02-14T22:43:55.832Z</time>
      </trkpt>
      <trkpt lat="43.537704" lon="12.777446">
        <ele>426.318140</ele>
        <time>2022-02-14T22:44:07.987Z</time>
      </trkpt>
      <trkpt lat="43.537798" lon="12.777336">
        <ele>424.979178</ele>
        <time>2022-02-14T22:44:22.853Z</time>
      </trkpt>
      <trkpt lat="43.537894" lon="12.777067">
        <ele>422.618219</ele>
        <time>2022-02-14T22:44:48.785Z</time>
      </trkpt>
      <trkpt lat="43.537922" lon="12.776257">
        <ele>416.232786</ele>
        <time>2022-02-14T22:45:58.773Z</time>
      </trkpt>
      <trkpt lat="43.537933" lon="12.776052">
        <ele>414.614138</ele>
        <time>2022-02-14T22:46:16.405Z</time>
      </trkpt>
      <trkpt lat="43.537984" lon="12.775346">
        <ele>410.165374</ele>
        <time>2022-02-14T22:47:16.522Z</time>
      </trkpt>
      <trkpt lat="43.538131" lon="12.774294">
        <ele>403.610451</ele>
        <time>2022-02-14T22:48:46.178Z</time>
      </trkpt>
      <trkpt lat="43.538191" lon="12.774216">
        <ele>402.914618</ele>
        <time>2022-02-14T22:48:55.866Z</time>
      </trkpt>
      <trkpt lat="43.538353" lon="12.774232">
        <ele>401.543841</ele>
        <time>2022-02-14T22:49:14.702Z</time>
      </trkpt>
      <trkpt lat="43.539251" lon="12.775054">
        <ele>391.017144</ele>
        <time>2022-02-14T22:51:22.163Z</time>
      </trkpt>
      <trkpt lat="43.539389" lon="12.775043">
        <ele>389.593756</ele>
        <time>2022-02-14T22:51:39.217Z</time>
      </trkpt>
      <trkpt lat="43.539502" lon="12.774472">
        <ele>385.175569</ele>
        <time>2022-02-14T22:52:31.672Z</time>
      </trkpt>
      <trkpt lat="43.539654" lon="12.773995">
        <ele>381.286193</ele>
        <time>2022-02-14T22:53:17.600Z</time>
      </trkpt>
      <trkpt lat="43.539756" lon="12.773342">
        <ele>376.653174</ele>
        <time>2022-02-14T22:54:17.053Z</time>
      </trkpt>
      <trkpt lat="43.540006" lon="12.771198">
        <ele>362.653062</ele>
        <time>2022-02-14T22:57:23.400Z</time>
      </trkpt>
      <trkpt lat="43.539973" lon="12.770867">
        <ele>361.501795</ele>
        <time>2022-02-14T22:57:49.699Z</time>
      </trkpt>
      <trkpt lat="43.540016" lon="12.770216">
        <ele>359.249343</ele>
        <time>2022-02-14T22:58:40.953Z</time>
      </trkpt>
      <trkpt lat="43.539805" lon="12.768366">
        <ele>352.359712</ele>
        <time>2022-02-14T23:01:06.537Z</time>
      </trkpt>
      <trkpt lat="43.540002" lon="12.767221">
        <ele>347.479695</ele>
        <time>2022-02-14T23:02:41.481Z</time>
      </trkpt>
      <trkpt lat="43.540122" lon="12.766615">
        <ele>344.874653</ele>
        <time>2022-02-14T23:03:34.044Z</time>
      </trkpt>
      <trkpt lat="43.540470" lon="12.766693">
        <ele>342.039209</ele>
        <time>2022-02-14T23:04:15.362Z</time>
      </trkpt>
      <trkpt lat="43.540681" lon="12.766851">
        <ele>340.039567</ele>
        <time>2022-02-14T23:04:43.175Z</time>
      </trkpt>
      <trkpt lat="43.541315" lon="12.767283">
        <ele>334.149933</ele>
        <time>2022-02-14T23:06:06.444Z</time>
      </trkpt>
      <trkpt lat="43.541396" lon="12.767289">
        <ele>333.474308</ele>
        <time>2022-02-14T23:06:16.953Z</time>
      </trkpt>
      <trkpt lat="43.542186" lon="12.767976">
        <ele>327.478049</ele>
        <time>2022-02-14T23:08:04.255Z</time>
      </trkpt>
      <trkpt lat="43.542758" lon="12.768327">
        <ele>324.600713</ele>
        <time>2022-02-14T23:09:13.654Z</time>
      </trkpt>
      <trkpt lat="43.542958" lon="12.768439">
        <ele>323.608640</ele>
        <time>2022-02-14T23:09:36.363Z</time>
      </trkpt>
      <trkpt lat="43.543068" lon="12.768501">
        <ele>323.062497</ele>
        <time>2022-02-14T23:09:48.704Z</time>
      </trkpt>
      <trkpt lat="43.543445" lon="12.768754">
        <ele>321.438235</ele>
        <time>2022-02-14T23:10:32.093Z</time>
      </trkpt>
      <trkpt lat="43.543515" lon="12.768861">
        <ele>321.497110</ele>
        <time>2022-02-14T23:10:42.956Z</time>
      </trkpt>
      <trkpt lat="43.543529" lon="12.769127">
        <ele>321.606049</ele>
        <time>2022-02-14T23:11:02.611Z</time>
      </trkpt>
      <trkpt lat="43.543328" lon="12.769723">
        <ele>321.874557</ele>
        <time>2022-02-14T23:11:50.727Z</time>
      </trkpt>
      <trkpt lat="43.543285" lon="12.769993">
        <ele>321.987475</ele>
        <time>2022-02-14T23:12:11.603Z</time>
      </trkpt>
      <trkpt lat="43.543394" lon="12.770512">
        <ele>322.208190</ele>
        <time>2022-02-14T23:12:53.208Z</time>
      </trkpt>
      <trkpt lat="43.543448" lon="12.770646">
        <ele>322.270815</ele>
        <time>2022-02-14T23:13:04.949Z</time>
      </trkpt>
      <trkpt lat="43.543589" lon="12.770762">
        <ele>322.363327</ele>
        <time>2022-02-14T23:13:21.759Z</time>
      </trkpt>
      <trkpt lat="43.543704" lon="12.770713">
        <ele>322.503446</ele>
        <time>2022-02-14T23:13:34.607Z</time>
      </trkpt>
      <trkpt lat="43.543835" lon="12.770755">
        <ele>323.021317</ele>
        <time>2022-02-14T23:13:48.809Z</time>
      </trkpt>
      <trkpt lat="43.543868" lon="12.770857">
        <ele>323.333080</ele>
        <time>2022-02-14T23:13:57.088Z</time>
      </trkpt>
      <trkpt lat="43.543835" lon="12.770755">
        <ele>323.644843</ele>
        <time>2022-02-14T23:14:05.703Z</time>
      </trkpt>
      <trkpt lat="43.543767" lon="12.770546">
        <ele>324.284253</ele>
        <time>2022-02-14T23:14:24.186Z</time>
      </trkpt>
      <trkpt lat="43.543609" lon="12.770063">
        <ele>325.763282</ele>
        <time>2022-02-14T23:15:07.983Z</time>
      </trkpt>
      <trkpt lat="43.543564" lon="12.769736">
        <ele>326.692277</ele>
        <time>2022-02-14T23:15:35.614Z</time>
      </trkpt>
      <trkpt lat="43.543621" lon="12.769451">
        <ele>327.517467</ele>
        <time>2022-02-14T23:16:00.604Z</time>
      </trkpt>
      <trkpt lat="43.543946" lon="12.768904">
        <ele>329.626044</ele>
        <time>2022-02-14T23:17:00.607Z</time>
      </trkpt>
      <trkpt lat="43.544199" lon="12.769085">
        <ele>331.727826</ele>
        <time>2022-02-14T23:17:34.969Z</time>
      </trkpt>
      <trkpt lat="43.544638" lon="12.769563">
        <ele>335.852228</ele>
        <time>2022-02-14T23:18:43.168Z</time>
      </trkpt>
      <trkpt lat="43.544951" lon="12.769740">
        <ele>338.346936</ele>
        <time>2022-02-14T23:19:25.631Z</time>
      </trkpt>
      <trkpt lat="43.545361" lon="12.770106">
        <ele>341.948374</ele>
        <time>2022-02-14T23:20:29.493Z</time>
      </trkpt>
      <trkpt lat="43.545653" lon="12.770257">
        <ele>345.368837</ele>
        <time>2022-02-14T23:21:10.514Z</time>
      </trkpt>
      <trkpt lat="43.545872" lon="12.770235">
        <ele>348.095596</ele>
        <time>2022-02-14T23:21:39.458Z</time>
      </trkpt>
      <trkpt lat="43.546551" lon="12.769891">
        <ele>357.078000</ele>
        <time>2022-02-14T23:23:23.497Z</time>
      </trkpt>
      <trkpt lat="43.547975" lon="12.769731">
        <ele>376.990062</ele>
        <time>2022-02-14T23:27:18.715Z</time>
      </trkpt>
      <trkpt lat="43.548361" lon="12.769554">
        <ele>383.151326</ele>
        <time>2022-02-14T23:28:33.689Z</time>
      </trkpt>
      <trkpt lat="43.548844" lon="12.769489">
        <ele>390.502123</ele>
        <time>2022-02-14T23:29:52.392Z</time>
      </trkpt>
      <trkpt lat="43.549325" lon="12.769348">
        <ele>396.339213</ele>
        <time>2022-02-14T23:31:03.855Z</time>
      </trkpt>
      <trkpt lat="43.549363" lon="12.769514">
        <ele>397.715842</ele>
        <time>2022-02-14T23:31:20.542Z</time>
      </trkpt>
      <trkpt lat="43.549262" lon="12.769791">
        <ele>400.167904</ele>
        <time>2022-02-14T23:31:50.784Z</time>
      </trkpt>
      <trkpt lat="43.548617" lon="12.771000">
        <ele>412.029571</ele>
        <time>2022-02-14T23:34:16.247Z</time>
      </trkpt>
      <trkpt lat="43.548613" lon="12.771153">
        <ele>413.187494</ele>
        <time>2022-02-14T23:34:31.239Z</time>
      </trkpt>
      <trkpt lat="43.548653" lon="12.771207">
        <ele>413.771468</ele>
        <time>2022-02-14T23:34:38.639Z</time>
      </trkpt>
      <trkpt lat="43.549935" lon="12.771146">
        <ele>427.157137</ele>
        <time>2022-02-14T23:37:29.995Z</time>
      </trkpt>
      <trkpt lat="43.550392" lon="12.770917">
        <ele>432.233513</ele>
        <time>2022-02-14T23:38:39.472Z</time>
      </trkpt>
      <trkpt lat="43.550424" lon="12.770947">
        <ele>432.637910</ele>
        <time>2022-02-14T23:38:44.768Z</time>
      </trkpt>
      <trkpt lat="43.550413" lon="12.771056">
        <ele>433.471644</ele>
        <time>2022-02-14T23:38:55.513Z</time>
      </trkpt>
      <trkpt lat="43.550164" lon="12.771381">
        <ele>437.054448</ele>
        <time>2022-02-14T23:39:43.746Z</time>
      </trkpt>
      <trkpt lat="43.550161" lon="12.771491">
        <ele>437.888384</ele>
        <time>2022-02-14T23:39:54.434Z</time>
      </trkpt>
      <trkpt lat="43.551252" lon="12.771858">
        <ele>449.558103</ele>
        <time>2022-02-14T23:42:25.726Z</time>
      </trkpt>
      <trkpt lat="43.551656" lon="12.771858">
        <ele>452.593234</ele>
        <time>2022-02-14T23:43:16.674Z</time>
      </trkpt>
      <trkpt lat="43.552262" lon="12.771752">
        <ele>457.182367</ele>
        <time>2022-02-14T23:44:34.349Z</time>
      </trkpt>
      <trkpt lat="43.552485" lon="12.771779">
        <ele>458.864137</ele>
        <time>2022-02-14T23:45:02.882Z</time>
      </trkpt>
      <trkpt lat="43.553138" lon="12.771856">
        <ele>463.248969</ele>
        <time>2022-02-14T23:46:24.484Z</time>
      </trkpt>
      <trkpt lat="43.554864" lon="12.770176">
        <ele>467.866673</ele>
        <time>2022-02-14T23:50:12.952Z</time>
      </trkpt>
      <trkpt lat="43.555968" lon="12.769303">
        <ele>466.761267</ele>
        <time>2022-02-14T23:52:25.299Z</time>
      </trkpt>
      <trkpt lat="43.556260" lon="12.769293">
        <ele>466.308845</ele>
        <time>2022-02-14T23:52:56.273Z</time>
      </trkpt>
      <trkpt lat="43.556657" lon="12.769488">
        <ele>465.520208</ele>
        <time>2022-02-14T23:53:40.815Z</time>
      </trkpt>
      <trkpt lat="43.557574" lon="12.770254">
        <ele>463.514129</ele>
        <time>2022-02-14T23:55:31.898Z</time>
      </trkpt>
      <trkpt lat="43.558154" lon="12.770347">
        <ele>462.898574</ele>
        <time>2022-02-14T23:56:31.415Z</time>
      </trkpt>
      <trkpt lat="43.558365" lon="12.770473">
        <ele>462.698444</ele>
        <time>2022-02-14T23:56:54.889Z</time>
      </trkpt>
      <trkpt lat="43.559101" lon="12.771531">
        <ele>461.773314</ele>
        <time>2022-02-14T23:58:42.796Z</time>
      </trkpt>
      <trkpt lat="43.559522" lon="12.771942">
        <ele>461.316998</ele>
        <time>2022-02-14T23:59:35.022Z</time>
      </trkpt>
      <trkpt lat="43.560068" lon="12.772166">
        <ele>460.812481</ele>
        <time>2022-02-15T00:00:33.164Z</time>
      </trkpt>
      <trkpt lat="43.560177" lon="12.772270">
        <ele>460.695109</ele>
        <time>2022-02-15T00:00:46.730Z</time>
      </trkpt>
      <trkpt lat="43.560259" lon="12.772565">
        <ele>460.492317</ele>
        <time>2022-02-15T00:01:10.247Z</time>
      </trkpt>
      <trkpt lat="43.560249" lon="12.772730">
        <ele>460.386045</ele>
        <time>2022-02-15T00:01:22.582Z</time>
      </trkpt>
      <trkpt lat="43.559943" lon="12.773545">
        <ele>460.346143</ele>
        <time>2022-02-15T00:02:30.646Z</time>
      </trkpt>
      <trkpt lat="43.559759" lon="12.774562">
        <ele>460.705834</ele>
        <time>2022-02-15T00:03:47.652Z</time>
      </trkpt>
      <trkpt lat="43.559858" lon="12.774742">
        <ele>460.783375</ele>
        <time>2022-02-15T00:04:04.498Z</time>
      </trkpt>
      <trkpt lat="43.560341" lon="12.775017">
        <ele>461.150716</ele>
        <time>2022-02-15T00:04:59.626Z</time>
      </trkpt>
      <trkpt lat="43.560754" lon="12.775518">
        <ele>462.697153</ele>
        <time>2022-02-15T00:05:59.606Z</time>
      </trkpt>
      <trkpt lat="43.560903" lon="12.775902">
        <ele>463.584837</ele>
        <time>2022-02-15T00:06:35.449Z</time>
      </trkpt>
      <trkpt lat="43.561003" lon="12.776507">
        <ele>464.849438</ele>
        <time>2022-02-15T00:07:26.711Z</time>
      </trkpt>
      <trkpt lat="43.561366" lon="12.776810">
        <ele>466.042521</ele>
        <time>2022-02-15T00:08:14.017Z</time>
      </trkpt>
      <trkpt lat="43.561389" lon="12.776968">
        <ele>465.880950</ele>
        <time>2022-02-15T00:08:27.096Z</time>
      </trkpt>
      <trkpt lat="43.561267" lon="12.777127">
        <ele>465.597476</ele>
        <time>2022-02-15T00:08:44.690Z</time>
      </trkpt>
      <trkpt lat="43.560826" lon="12.777431">
        <ele>464.764727</ele>
        <time>2022-02-15T00:09:34.200Z</time>
      </trkpt>
      <trkpt lat="43.560408" lon="12.777446">
        <ele>464.058367</ele>
        <time>2022-02-15T00:10:17.971Z</time>
      </trkpt>
      <trkpt lat="43.559730" lon="12.777868">
        <ele>462.229920</ele>
        <time>2022-02-15T00:11:39.172Z</time>
      </trkpt>
      <trkpt lat="43.559484" lon="12.777918">
        <ele>460.739559</ele>
        <time>2022-02-15T00:12:07.448Z</time>
      </trkpt>
      <trkpt lat="43.559122" lon="12.778323">
        <ele>457.946340</ele>
        <time>2022-02-15T00:13:00.711Z</time>
      </trkpt>
      <trkpt lat="43.558545" lon="12.778405">
        <ele>454.469676</ele>
        <time>2022-02-15T00:14:07.444Z</time>
      </trkpt>
      <trkpt lat="43.558343" lon="12.778529">
        <ele>453.144555</ele>
        <time>2022-02-15T00:14:32.407Z</time>
      </trkpt>
      <trkpt lat="43.557775" lon="12.779929">
        <ele>450.591109</ele>
        <time>2022-02-15T00:16:36.757Z</time>
      </trkpt>
      <trkpt lat="43.557689" lon="12.780601">
        <ele>449.783133</ele>
        <time>2022-02-15T00:17:26.951Z</time>
      </trkpt>
      <trkpt lat="43.557690" lon="12.780981">
        <ele>449.333200</ele>
        <time>2022-02-15T00:17:56.359Z</time>
      </trkpt>
      <trkpt lat="43.557604" lon="12.781352">
        <ele>449.832965</ele>
        <time>2022-02-15T00:18:27.527Z</time>
      </trkpt>
      <trkpt lat="43.556865" lon="12.782774">
        <ele>452.336770</ele>
        <time>2022-02-15T00:20:43.515Z</time>
      </trkpt>
      <trkpt lat="43.556699" lon="12.783021">
        <ele>452.818784</ele>
        <time>2022-02-15T00:21:09.394Z</time>
      </trkpt>
      <trkpt lat="43.556149" lon="12.783621">
        <ele>455.995411</ele>
        <time>2022-02-15T00:22:24.814Z</time>
      </trkpt>
      <trkpt lat="43.556182" lon="12.783661">
        <ele>456.197737</ele>
        <time>2022-02-15T00:22:29.500Z</time>
      </trkpt>
      <trkpt lat="43.556172" lon="12.783797">
        <ele>456.654058</ele>
        <time>2022-02-15T00:22:40.601Z</time>
      </trkpt>
      <trkpt lat="43.555797" lon="12.784289">
        <ele>459.037580</ele>
        <time>2022-02-15T00:23:42.116Z</time>
      </trkpt>
      <trkpt lat="43.555787" lon="12.784367">
        <ele>459.302002</ele>
        <time>2022-02-15T00:23:48.991Z</time>
      </trkpt>
      <trkpt lat="43.555878" lon="12.784382">
        <ele>459.724154</ele>
        <time>2022-02-15T00:24:00.037Z</time>
      </trkpt>
      <trkpt lat="43.556070" lon="12.784131">
        <ele>460.942440</ele>
        <time>2022-02-15T00:24:32.868Z</time>
      </trkpt>
      <trkpt lat="43.556754" lon="12.783724">
        <ele>468.545444</ele>
        <time>2022-02-15T00:26:09.626Z</time>
      </trkpt>
      <trkpt lat="43.556920" lon="12.783558">
        <ele>470.709426</ele>
        <time>2022-02-15T00:26:39.665Z</time>
      </trkpt>
      <trkpt lat="43.557159" lon="12.783449">
        <ele>473.366446</ele>
        <time>2022-02-15T00:27:14.844Z</time>
      </trkpt>
      <trkpt lat="43.557346" lon="12.783439">
        <ele>475.341836</ele>
        <time>2022-02-15T00:27:42.729Z</time>
      </trkpt>
      <trkpt lat="43.558054" lon="12.783635">
        <ele>483.105090</ele>
        <time>2022-02-15T00:29:27.125Z</time>
      </trkpt>
      <trkpt lat="43.558299" lon="12.783570">
        <ele>485.869524</ele>
        <time>2022-02-15T00:30:02.692Z</time>
      </trkpt>
      <trkpt lat="43.558566" lon="12.783012">
        <ele>491.238713</ele>
        <time>2022-02-15T00:31:07.852Z</time>
      </trkpt>
      <trkpt lat="43.558830" lon="12.782633">
        <ele>495.459897</ele>
        <time>2022-02-15T00:31:59.230Z</time>
      </trkpt>
      <trkpt lat="43.559397" lon="12.782141">
        <ele>502.696204</ele>
        <time>2022-02-15T00:33:30.810Z</time>
      </trkpt>
      <trkpt lat="43.559922" lon="12.781425">
        <ele>510.338376</ele>
        <time>2022-02-15T00:35:11.488Z</time>
      </trkpt>
      <trkpt lat="43.560828" lon="12.780586">
        <ele>520.460392</ele>
        <time>2022-02-15T00:37:37.462Z</time>
      </trkpt>
      <trkpt lat="43.561323" lon="12.779762">
        <ele>525.297289</ele>
        <time>2022-02-15T00:39:13.007Z</time>
      </trkpt>
      <trkpt lat="43.561702" lon="12.779003">
        <ele>529.462752</ele>
        <time>2022-02-15T00:40:30.284Z</time>
      </trkpt>
      <trkpt lat="43.562208" lon="12.778723">
        <ele>531.171114</ele>
        <time>2022-02-15T00:41:29.442Z</time>
      </trkpt>
      <trkpt lat="43.562853" lon="12.778128">
        <ele>533.248676</ele>
        <time>2022-02-15T00:42:51.177Z</time>
      </trkpt>
      <trkpt lat="43.563314" lon="12.777623">
        <ele>534.998800</ele>
        <time>2022-02-15T00:43:56.308Z</time>
      </trkpt>
      <trkpt lat="43.563727" lon="12.777336">
        <ele>538.194623</ele>
        <time>2022-02-15T00:44:49.988Z</time>
      </trkpt>
      <trkpt lat="43.564277" lon="12.776838">
        <ele>542.740962</ele>
        <time>2022-02-15T00:46:10.084Z</time>
      </trkpt>
      <trkpt lat="43.564326" lon="12.776630">
        <ele>543.836284</ele>
        <time>2022-02-15T00:46:31.203Z</time>
      </trkpt>
      <trkpt lat="43.564304" lon="12.776317">
        <ele>545.411129</ele>
        <time>2022-02-15T00:47:01.642Z</time>
      </trkpt>
      <trkpt lat="43.564210" lon="12.775473">
        <ele>551.184133</ele>
        <time>2022-02-15T00:48:24.678Z</time>
      </trkpt>
      <trkpt lat="43.564332" lon="12.775173">
        <ele>553.921407</ele>
        <time>2022-02-15T00:48:57.574Z</time>
      </trkpt>
      <trkpt lat="43.564511" lon="12.775082">
        <ele>556.016112</ele>
        <time>2022-02-15T00:49:22.549Z</time>
      </trkpt>
      <trkpt lat="43.564696" lon="12.775072">
        <ele>558.049139</ele>
        <time>2022-02-15T00:49:47.934Z</time>
      </trkpt>
      <trkpt lat="43.564870" lon="12.775156">
        <ele>560.073345</ele>
        <time>2022-02-15T00:50:12.797Z</time>
      </trkpt>
      <trkpt lat="43.565253" lon="12.776259">
        <ele>570.122800</ele>
        <time>2022-02-15T00:52:25.979Z</time>
      </trkpt>
      <trkpt lat="43.565387" lon="12.776231">
        <ele>571.773482</ele>
        <time>2022-02-15T00:52:44.810Z</time>
      </trkpt>
      <trkpt lat="43.566008" lon="12.775545">
        <ele>581.461630</ele>
        <time>2022-02-15T00:54:33.841Z</time>
      </trkpt>
      <trkpt lat="43.566310" lon="12.775214">
        <ele>586.158722</ele>
        <time>2022-02-15T00:55:28.013Z</time>
      </trkpt>
      <trkpt lat="43.566504" lon="12.775078">
        <ele>588.806536</ele>
        <time>2022-02-15T00:56:04.071Z</time>
      </trkpt>
      <trkpt lat="43.566973" lon="12.774872">
        <ele>592.182779</ele>
        <time>2022-02-15T00:57:21.877Z</time>
      </trkpt>
      <trkpt lat="43.567336" lon="12.774460">
        <ele>595.406763</ele>
        <time>2022-02-15T00:58:25.431Z</time>
      </trkpt>
      <trkpt lat="43.567524" lon="12.774136">
        <ele>597.469902</ele>
        <time>2022-02-15T00:59:01.029Z</time>
      </trkpt>
      <trkpt lat="43.567573" lon="12.774052">
        <ele>598.005902</ele>
        <time>2022-02-15T00:59:11.237Z</time>
      </trkpt>
      <trkpt lat="43.567581" lon="12.774012">
        <ele>598.212151</ele>
        <time>2022-02-15T00:59:14.627Z</time>
      </trkpt>
      <trkpt lat="43.567981" lon="12.773731">
        <ele>600.889287</ele>
        <time>2022-02-15T00:59:59.657Z</time>
      </trkpt>
      <trkpt lat="43.568769" lon="12.772779">
        <ele>588.743207</ele>
        <time>2022-02-15T01:01:59.775Z</time>
      </trkpt>
      <trkpt lat="43.569672" lon="12.772333">
        <ele>574.847671</ele>
        <time>2022-02-15T01:04:17.817Z</time>
      </trkpt>
      <trkpt lat="43.570584" lon="12.772403">
        <ele>553.218790</ele>
        <time>2022-02-15T01:06:48.246Z</time>
      </trkpt>
      <trkpt lat="43.570726" lon="12.772293">
        <ele>549.362937</ele>
        <time>2022-02-15T01:07:13.907Z</time>
      </trkpt>
      <trkpt lat="43.570977" lon="12.772278">
        <ele>543.413867</ele>
        <time>2022-02-15T01:08:00.584Z</time>
      </trkpt>
      <trkpt lat="43.571212" lon="12.771966">
        <ele>536.315710</ele>
        <time>2022-02-15T01:08:54.620Z</time>
      </trkpt>
      <trkpt lat="43.571411" lon="12.771904">
        <ele>532.991557</ele>
        <time>2022-02-15T01:09:21.185Z</time>
      </trkpt>
      <trkpt lat="43.571461" lon="12.771757">
        <ele>531.074425</ele>
        <time>2022-02-15T01:09:40.775Z</time>
      </trkpt>
      <trkpt lat="43.571461" lon="12.771757">
        <ele>531.074425</ele>
        <time>2022-02-15T01:09:41.401Z</time>
      </trkpt>
      <trkpt lat="43.571461" lon="12.771757">
        <ele>531.074425</ele>
        <time>2022-02-15T01:09:41.401Z</time>
      </trkpt>
      <trkpt lat="43.572176" lon="12.772148">
        <ele>518.542893</ele>
        <time>2022-02-15T01:10:59.249Z</time>
      </trkpt>
      <trkpt lat="43.572147" lon="12.772483">
        <ele>514.559973</ele>
        <time>2022-02-15T01:11:27.956Z</time>
      </trkpt>
      <trkpt lat="43.571959" lon="12.772959">
        <ele>508.334842</ele>
        <time>2022-02-15T01:12:16.593Z</time>
      </trkpt>
      <trkpt lat="43.571851" lon="12.773476">
        <ele>506.970544</ele>
        <time>2022-02-15T01:13:02.901Z</time>
      </trkpt>
      <trkpt lat="43.571903" lon="12.773949">
        <ele>505.757484</ele>
        <time>2022-02-15T01:13:39.548Z</time>
      </trkpt>
      <trkpt lat="43.572104" lon="12.774492">
        <ele>504.211372</ele>
        <time>2022-02-15T01:14:25.711Z</time>
      </trkpt>
      <trkpt lat="43.572172" lon="12.774860">
        <ele>503.248412</ele>
        <time>2022-02-15T01:14:53.628Z</time>
      </trkpt>
      <trkpt lat="43.572501" lon="12.775949">
        <ele>500.419810</ele>
        <time>2022-02-15T01:16:22.891Z</time>
      </trkpt>
      <trkpt lat="43.572529" lon="12.776475">
        <ele>499.201603</ele>
        <time>2022-02-15T01:17:03.474Z</time>
      </trkpt>
      <trkpt lat="43.572481" lon="12.776703">
        <ele>498.653195</ele>
        <time>2022-02-15T01:17:21.395Z</time>
      </trkpt>
      <trkpt lat="43.572431" lon="12.776743">
        <ele>498.468953</ele>
        <time>2022-02-15T01:17:28.668Z</time>
      </trkpt>
      <trkpt lat="43.572881" lon="12.777218">
        <ele>496.662893</ele>
        <time>2022-02-15T01:18:29.523Z</time>
      </trkpt>
      <trkpt lat="43.573225" lon="12.778210">
        <ele>493.813078</ele>
        <time>2022-02-15T01:19:56.520Z</time>
      </trkpt>
      <trkpt lat="43.574241" lon="12.779947">
        <ele>487.456660</ele>
        <time>2022-02-15T01:22:48.722Z</time>
      </trkpt>
      <trkpt lat="43.574573" lon="12.781717">
        <ele>481.327632</ele>
        <time>2022-02-15T01:25:14.694Z</time>
      </trkpt>
      <trkpt lat="43.574585" lon="12.782554">
        <ele>477.437704</ele>
        <time>2022-02-15T01:26:22.860Z</time>
      </trkpt>
      <trkpt lat="43.574616" lon="12.782753">
        <ele>476.491906</ele>
        <time>2022-02-15T01:26:39.965Z</time>
      </trkpt>
      <trkpt lat="43.574826" lon="12.784095">
        <ele>470.112444</ele>
        <time>2022-02-15T01:28:32.994Z</time>
      </trkpt>
      <trkpt lat="43.574933" lon="12.784439">
        <ele>468.573547</ele>
        <time>2022-02-15T01:29:03.919Z</time>
      </trkpt>
      <trkpt lat="43.575123" lon="12.784611">
        <ele>467.287778</ele>
        <time>2022-02-15T01:29:29.841Z</time>
      </trkpt>
      <trkpt lat="43.576016" lon="12.784934">
        <ele>462.063875</ele>
        <time>2022-02-15T01:31:12.095Z</time>
      </trkpt>
      <trkpt lat="43.576201" lon="12.785108">
        <ele>460.797078</ele>
        <time>2022-02-15T01:31:37.099Z</time>
      </trkpt>
      <trkpt lat="43.576366" lon="12.785541">
        <ele>459.399110</ele>
        <time>2022-02-15T01:32:15.960Z</time>
      </trkpt>
      <trkpt lat="43.576581" lon="12.786432">
        <ele>457.661171</ele>
        <time>2022-02-15T01:33:29.651Z</time>
      </trkpt>
      <trkpt lat="43.577568" lon="12.788265">
        <ele>456.565587</ele>
        <time>2022-02-15T01:36:17.916Z</time>
      </trkpt>
      <trkpt lat="43.577662" lon="12.788455">
        <ele>456.852705</ele>
        <time>2022-02-15T01:36:36.476Z</time>
      </trkpt>
      <trkpt lat="43.578056" lon="12.789751">
        <ele>458.925747</ele>
        <time>2022-02-15T01:38:30.083Z</time>
      </trkpt>
      <trkpt lat="43.578673" lon="12.791061">
        <ele>463.930401</ele>
        <time>2022-02-15T01:40:41.363Z</time>
      </trkpt>
      <trkpt lat="43.578879" lon="12.791230">
        <ele>464.989893</ele>
        <time>2022-02-15T01:41:09.587Z</time>
      </trkpt>
      <trkpt lat="43.579126" lon="12.791332">
        <ele>466.129769</ele>
        <time>2022-02-15T01:41:39.685Z</time>
      </trkpt>
      <trkpt lat="43.579405" lon="12.791363">
        <ele>467.371156</ele>
        <time>2022-02-15T01:42:11.957Z</time>
      </trkpt>
      <trkpt lat="43.579652" lon="12.791309">
        <ele>468.481039</ele>
        <time>2022-02-15T01:42:40.836Z</time>
      </trkpt>
      <trkpt lat="43.579894" lon="12.791360">
        <ele>469.567514</ele>
        <time>2022-02-15T01:43:09.827Z</time>
      </trkpt>
      <trkpt lat="43.580176" lon="12.791627">
        <ele>471.085167</ele>
        <time>2022-02-15T01:43:49.406Z</time>
      </trkpt>
      <trkpt lat="43.580780" lon="12.792333">
        <ele>474.481066</ele>
        <time>2022-02-15T01:45:20.725Z</time>
      </trkpt>
      <trkpt lat="43.581266" lon="12.793031">
        <ele>476.196521</ele>
        <time>2022-02-15T01:46:38.867Z</time>
      </trkpt>
      <trkpt lat="43.581466" lon="12.793575">
        <ele>477.277461</ele>
        <time>2022-02-15T01:47:25.893Z</time>
      </trkpt>
      <trkpt lat="43.581711" lon="12.794615">
        <ele>478.929858</ele>
        <time>2022-02-15T01:48:48.973Z</time>
      </trkpt>
      <trkpt lat="43.581931" lon="12.795029">
        <ele>479.296332</ele>
        <time>2022-02-15T01:49:28.236Z</time>
      </trkpt>
      <trkpt lat="43.582232" lon="12.795403">
        <ele>479.695350</ele>
        <time>2022-02-15T01:50:10.725Z</time>
      </trkpt>
      <trkpt lat="43.582500" lon="12.795864">
        <ele>480.117242</ele>
        <time>2022-02-15T01:50:55.163Z</time>
      </trkpt>
      <trkpt lat="43.582816" lon="12.796762">
        <ele>480.362114</ele>
        <time>2022-02-15T01:52:08.236Z</time>
      </trkpt>
      <trkpt lat="43.582753" lon="12.797636">
        <ele>480.073386</ele>
        <time>2022-02-15T01:53:12.424Z</time>
      </trkpt>
      <trkpt lat="43.582559" lon="12.798009">
        <ele>479.922437</ele>
        <time>2022-02-15T01:53:45.969Z</time>
      </trkpt>
      <trkpt lat="43.582596" lon="12.798843">
        <ele>479.725373</ele>
        <time>2022-02-15T01:54:48.085Z</time>
      </trkpt>
      <trkpt lat="43.582509" lon="12.799406">
        <ele>479.858265</ele>
        <time>2022-02-15T01:55:31.267Z</time>
      </trkpt>
      <trkpt lat="43.582626" lon="12.800010">
        <ele>480.002597</ele>
        <time>2022-02-15T01:56:16.719Z</time>
      </trkpt>
      <trkpt lat="43.582651" lon="12.800722">
        <ele>480.167155</ele>
        <time>2022-02-15T01:57:09.340Z</time>
      </trkpt>
      <trkpt lat="43.582418" lon="12.801159">
        <ele>480.834636</ele>
        <time>2022-02-15T01:57:51.376Z</time>
      </trkpt>
      <trkpt lat="43.582245" lon="12.801733">
        <ele>483.987172</ele>
        <time>2022-02-15T01:58:40.574Z</time>
      </trkpt>
      <trkpt lat="43.582246" lon="12.801821">
        <ele>484.433459</ele>
        <time>2022-02-15T01:58:49.006Z</time>
      </trkpt>
      <trkpt lat="43.582029" lon="12.802162">
        <ele>486.735079</ele>
        <time>2022-02-15T01:59:30.390Z</time>
      </trkpt>
      <trkpt lat="43.581929" lon="12.802719">
        <ele>489.644996</ele>
        <time>2022-02-15T02:00:25.018Z</time>
      </trkpt>
      <trkpt lat="43.581897" lon="12.803583">
        <ele>494.551010</ele>
        <time>2022-02-15T02:01:47.625Z</time>
      </trkpt>
      <trkpt lat="43.581937" lon="12.803664">
        <ele>495.267796</ele>
        <time>2022-02-15T02:01:57.688Z</time>
      </trkpt>
      <trkpt lat="43.582070" lon="12.803713">
        <ele>496.657252</ele>
        <time>2022-02-15T02:02:20.810Z</time>
      </trkpt>
      <trkpt lat="43.582751" lon="12.803209">
        <ele>504.456605</ele>
        <time>2022-02-15T02:04:04.360Z</time>
      </trkpt>
      <trkpt lat="43.582899" lon="12.803151">
        <ele>506.009509</ele>
        <time>2022-02-15T02:04:23.387Z</time>
      </trkpt>
      <trkpt lat="43.583243" lon="12.803179">
        <ele>509.487791</ele>
        <time>2022-02-15T02:05:11.482Z</time>
      </trkpt>
      <trkpt lat="43.583758" lon="12.803465">
        <ele>513.777219</ele>
        <time>2022-02-15T02:06:25.039Z</time>
      </trkpt>
      <trkpt lat="43.584142" lon="12.804354">
        <ele>518.907470</ele>
        <time>2022-02-15T02:07:55.889Z</time>
      </trkpt>
      <trkpt lat="43.584283" lon="12.804472">
        <ele>520.035695</ele>
        <time>2022-02-15T02:08:15.681Z</time>
      </trkpt>
      <trkpt lat="43.584442" lon="12.804399">
        <ele>521.182243</ele>
        <time>2022-02-15T02:08:36.050Z</time>
      </trkpt>
      <trkpt lat="43.584767" lon="12.803863">
        <ele>524.049064</ele>
        <time>2022-02-15T02:09:36.111Z</time>
      </trkpt>
      <trkpt lat="43.584912" lon="12.803806">
        <ele>524.616032</ele>
        <time>2022-02-15T02:09:53.526Z</time>
      </trkpt>
      <trkpt lat="43.585226" lon="12.804327">
        <ele>526.462260</ele>
        <time>2022-02-15T02:10:48.966Z</time>
      </trkpt>
      <trkpt lat="43.585266" lon="12.804482">
        <ele>526.910479</ele>
        <time>2022-02-15T02:11:02.370Z</time>
      </trkpt>
      <trkpt lat="43.585331" lon="12.804739">
        <ele>527.651999</ele>
        <time>2022-02-15T02:11:24.099Z</time>
      </trkpt>
      <trkpt lat="43.585519" lon="12.805192">
        <ele>529.074160</ele>
        <time>2022-02-15T02:12:06.080Z</time>
      </trkpt>
      <trkpt lat="43.585631" lon="12.805390">
        <ele>529.758487</ele>
        <time>2022-02-15T02:12:26.521Z</time>
      </trkpt>
      <trkpt lat="43.585869" lon="12.805520">
        <ele>530.494289</ele>
        <time>2022-02-15T02:12:54.801Z</time>
      </trkpt>
      <trkpt lat="43.586055" lon="12.805458">
        <ele>530.957853</ele>
        <time>2022-02-15T02:13:16.043Z</time>
      </trkpt>
      <trkpt lat="43.586160" lon="12.805306">
        <ele>531.326441</ele>
        <time>2022-02-15T02:13:32.578Z</time>
      </trkpt>
      <trkpt lat="43.586290" lon="12.805229">
        <ele>531.669150</ele>
        <time>2022-02-15T02:13:48.155Z</time>
      </trkpt>
      <trkpt lat="43.586769" lon="12.805443">
        <ele>532.888857</ele>
        <time>2022-02-15T02:14:41.989Z</time>
      </trkpt>
      <trkpt lat="43.587309" lon="12.805471">
        <ele>534.198020</ele>
        <time>2022-02-15T02:15:40.338Z</time>
      </trkpt>
      <trkpt lat="43.587708" lon="12.805600">
        <ele>534.618847</ele>
        <time>2022-02-15T02:16:24.934Z</time>
      </trkpt>
      <trkpt lat="43.587912" lon="12.805504">
        <ele>534.742562</ele>
        <time>2022-02-15T02:16:48.116Z</time>
      </trkpt>
      <trkpt lat="43.588202" lon="12.805224">
        <ele>534.945695</ele>
        <time>2022-02-15T02:17:25.367Z</time>
      </trkpt>
      <trkpt lat="43.588493" lon="12.805249">
        <ele>535.113057</ele>
        <time>2022-02-15T02:17:55.305Z</time>
      </trkpt>
      <trkpt lat="43.588894" lon="12.805498">
        <ele>535.365447</ele>
        <time>2022-02-15T02:18:40.108Z</time>
      </trkpt>
      <trkpt lat="43.589064" lon="12.805774">
        <ele>535.326255</ele>
        <time>2022-02-15T02:19:07.233Z</time>
      </trkpt>
      <trkpt lat="43.589596" lon="12.806975">
        <ele>533.289950</ele>
        <time>2022-02-15T02:20:53.918Z</time>
      </trkpt>
      <trkpt lat="43.589875" lon="12.807465">
        <ele>532.388411</ele>
        <time>2022-02-15T02:21:41.004Z</time>
      </trkpt>
      <trkpt lat="43.590282" lon="12.807678">
        <ele>531.543218</ele>
        <time>2022-02-15T02:22:26.812Z</time>
      </trkpt>
      <trkpt lat="43.590493" lon="12.807041">
        <ele>530.597210</ele>
        <time>2022-02-15T02:23:19.378Z</time>
      </trkpt>
      <trkpt lat="43.590903" lon="12.806694">
        <ele>529.700485</ele>
        <time>2022-02-15T02:24:09.107Z</time>
      </trkpt>
      <trkpt lat="43.591107" lon="12.806321">
        <ele>529.069242</ele>
        <time>2022-02-15T02:24:43.705Z</time>
      </trkpt>
      <trkpt lat="43.591291" lon="12.805767">
        <ele>527.876620</ele>
        <time>2022-02-15T02:25:29.098Z</time>
      </trkpt>
      <trkpt lat="43.592210" lon="12.804535">
        <ele>522.355641</ele>
        <time>2022-02-15T02:27:48.418Z</time>
      </trkpt>
      <trkpt lat="43.592387" lon="12.804220">
        <ele>521.111070</ele>
        <time>2022-02-15T02:28:20.429Z</time>
      </trkpt>
      <trkpt lat="43.593212" lon="12.803467">
        <ele>513.017907</ele>
        <time>2022-02-15T02:30:13.985Z</time>
      </trkpt>
      <trkpt lat="43.593628" lon="12.802385">
        <ele>505.463708</ele>
        <time>2022-02-15T02:32:00.628Z</time>
      </trkpt>
      <trkpt lat="43.593680" lon="12.801661">
        <ele>500.276211</ele>
        <time>2022-02-15T02:33:03.736Z</time>
      </trkpt>
      <trkpt lat="43.593651" lon="12.801404">
        <ele>498.421513</ele>
        <time>2022-02-15T02:33:26.427Z</time>
      </trkpt>
      <trkpt lat="43.593781" lon="12.801125">
        <ele>496.055887</ele>
        <time>2022-02-15T02:33:55.183Z</time>
      </trkpt>
      <trkpt lat="43.594742" lon="12.799869">
        <ele>482.013467</ele>
        <time>2022-02-15T02:36:32.651Z</time>
      </trkpt>
      <trkpt lat="43.594828" lon="12.799504">
        <ele>478.688988</ele>
        <time>2022-02-15T02:37:04.908Z</time>
      </trkpt>
      <trkpt lat="43.594817" lon="12.799005">
        <ele>474.364985</ele>
        <time>2022-02-15T02:37:50.960Z</time>
      </trkpt>
      <trkpt lat="43.594894" lon="12.798341">
        <ele>468.540611</ele>
        <time>2022-02-15T02:38:52.287Z</time>
      </trkpt>
      <trkpt lat="43.595042" lon="12.798034">
        <ele>464.807449</ele>
        <time>2022-02-15T02:39:25.948Z</time>
      </trkpt>
      <trkpt lat="43.595042" lon="12.797864">
        <ele>462.448594</ele>
        <time>2022-02-15T02:39:41.751Z</time>
      </trkpt>
      <trkpt lat="43.595148" lon="12.797585">
        <ele>458.076945</ele>
        <time>2022-02-15T02:40:10.723Z</time>
      </trkpt>
      <trkpt lat="43.595180" lon="12.797166">
        <ele>452.230838</ele>
        <time>2022-02-15T02:40:52.317Z</time>
      </trkpt>
      <trkpt lat="43.594996" lon="12.796860">
        <ele>446.712187</ele>
        <time>2022-02-15T02:41:32.776Z</time>
      </trkpt>
      <trkpt lat="43.595250" lon="12.796517">
        <ele>439.905342</ele>
        <time>2022-02-15T02:42:26.925Z</time>
      </trkpt>
      <trkpt lat="43.595176" lon="12.796425">
        <ele>437.997551</ele>
        <time>2022-02-15T02:42:42.314Z</time>
      </trkpt>
      <trkpt lat="43.595026" lon="12.795872">
        <ele>429.459072</ele>
        <time>2022-02-15T02:43:50.735Z</time>
      </trkpt>
      <trkpt lat="43.595034" lon="12.795215">
        <ele>418.751868</ele>
        <time>2022-02-15T02:45:09.874Z</time>
      </trkpt>
      <trkpt lat="43.594879" lon="12.794876">
        <ele>412.219177</ele>
        <time>2022-02-15T02:45:51.671Z</time>
      </trkpt>
      <trkpt lat="43.594807" lon="12.794578">
        <ele>407.100218</ele>
        <time>2022-02-15T02:46:27.232Z</time>
      </trkpt>
      <trkpt lat="43.594635" lon="12.794232">
        <ele>400.261828</ele>
        <time>2022-02-15T02:47:14.929Z</time>
      </trkpt>
      <trkpt lat="43.594660" lon="12.794020">
        <ele>396.761811</ele>
        <time>2022-02-15T02:47:37.807Z</time>
      </trkpt>
      <trkpt lat="43.594602" lon="12.793844">
        <ele>393.610966</ele>
        <time>2022-02-15T02:48:01.436Z</time>
      </trkpt>
      <trkpt lat="43.594490" lon="12.793768">
        <ele>390.961447</ele>
        <time>2022-02-15T02:48:20.908Z</time>
      </trkpt>
      <trkpt lat="43.594232" lon="12.793826">
        <ele>386.907118</ele>
        <time>2022-02-15T02:49:00.910Z</time>
      </trkpt>
      <trkpt lat="43.594188" lon="12.793780">
        <ele>386.051114</ele>
        <time>2022-02-15T02:49:08.590Z</time>
      </trkpt>
      <trkpt lat="43.594286" lon="12.793171">
        <ele>379.043299</ele>
        <time>2022-02-15T02:50:08.884Z</time>
      </trkpt>
      <trkpt lat="43.594248" lon="12.792653">
        <ele>373.194760</ele>
        <time>2022-02-15T02:50:55.520Z</time>
      </trkpt>
      <trkpt lat="43.594340" lon="12.792508">
        <ele>371.029313</ele>
        <time>2022-02-15T02:51:13.675Z</time>
      </trkpt>
      <trkpt lat="43.594187" lon="12.792338">
        <ele>367.983310</ele>
        <time>2022-02-15T02:51:38.587Z</time>
      </trkpt>
      <trkpt lat="43.594325" lon="12.792158">
        <ele>365.038874</ele>
        <time>2022-02-15T02:52:01.889Z</time>
      </trkpt>
      <trkpt lat="43.594587" lon="12.792190">
        <ele>362.371733</ele>
        <time>2022-02-15T02:52:33.004Z</time>
      </trkpt>
      <trkpt lat="43.594782" lon="12.792321">
        <ele>360.942521</ele>
        <time>2022-02-15T02:53:00.144Z</time>
      </trkpt>
      <trkpt lat="43.595091" lon="12.792706">
        <ele>358.199469</ele>
        <time>2022-02-15T02:53:47.793Z</time>
      </trkpt>
      <trkpt lat="43.595180" lon="12.792756">
        <ele>357.566211</ele>
        <time>2022-02-15T02:53:57.880Z</time>
      </trkpt>
      <trkpt lat="43.595365" lon="12.792724">
        <ele>356.337416</ele>
        <time>2022-02-15T02:54:20.678Z</time>
      </trkpt>
      <trkpt lat="43.595088" lon="12.792463">
        <ele>354.127257</ele>
        <time>2022-02-15T02:54:57.452Z</time>
      </trkpt>
      <trkpt lat="43.595365" lon="12.792724">
        <ele>351.917098</ele>
        <time>2022-02-15T02:55:32.744Z</time>
      </trkpt>
      <trkpt lat="43.596473" lon="12.793631">
        <ele>352.502695</ele>
        <time>2022-02-15T02:57:42.213Z</time>
      </trkpt>
      <trkpt lat="43.596801" lon="12.794090">
        <ele>352.858983</ele>
        <time>2022-02-15T02:58:36.022Z</time>
      </trkpt>
      <trkpt lat="43.596995" lon="12.794714">
        <ele>353.474331</ele>
        <time>2022-02-15T02:59:31.413Z</time>
      </trkpt>
      <trkpt lat="43.597227" lon="12.796003">
        <ele>354.794168</ele>
        <time>2022-02-15T03:01:17.502Z</time>
      </trkpt>
      <trkpt lat="43.598070" lon="12.798073">
        <ele>350.715506</ele>
        <time>2022-02-15T03:04:21.123Z</time>
      </trkpt>
      <trkpt lat="43.598248" lon="12.798654">
        <ele>349.039523</ele>
        <time>2022-02-15T03:05:12.892Z</time>
      </trkpt>
      <trkpt lat="43.598997" lon="12.800017">
        <ele>344.701338</ele>
        <time>2022-02-15T03:07:26.212Z</time>
      </trkpt>
      <trkpt lat="43.599210" lon="12.800411">
        <ele>343.457977</ele>
        <time>2022-02-15T03:08:04.333Z</time>
      </trkpt>
      <trkpt lat="43.599576" lon="12.801350">
        <ele>341.866969</ele>
        <time>2022-02-15T03:09:24.973Z</time>
      </trkpt>
      <trkpt lat="43.599798" lon="12.801674">
        <ele>341.447227</ele>
        <time>2022-02-15T03:09:57.629Z</time>
      </trkpt>
      <trkpt lat="43.600406" lon="12.802265">
        <ele>340.481037</ele>
        <time>2022-02-15T03:11:12.141Z</time>
      </trkpt>
      <trkpt lat="43.600816" lon="12.802542">
        <ele>339.039880</ele>
        <time>2022-02-15T03:12:00.403Z</time>
      </trkpt>
      <trkpt lat="43.601005" lon="12.802802">
        <ele>337.703647</ele>
        <time>2022-02-15T03:12:28.947Z</time>
      </trkpt>
      <trkpt lat="43.601277" lon="12.803774">
        <ele>333.923993</ele>
        <time>2022-02-15T03:13:52.777Z</time>
      </trkpt>
      <trkpt lat="43.601556" lon="12.804486">
        <ele>330.863175</ele>
        <time>2022-02-15T03:14:58.819Z</time>
      </trkpt>
      <trkpt lat="43.601937" lon="12.805041">
        <ele>326.256790</ele>
        <time>2022-02-15T03:16:03.325Z</time>
      </trkpt>
      <trkpt lat="43.602244" lon="12.805366">
        <ele>323.039188</ele>
        <time>2022-02-15T03:16:49.098Z</time>
      </trkpt>
      <trkpt lat="43.602909" lon="12.805755">
        <ele>317.032012</ele>
        <time>2022-02-15T03:18:15.742Z</time>
      </trkpt>
      <trkpt lat="43.602966" lon="12.805838">
        <ele>316.343012</ele>
        <time>2022-02-15T03:18:25.886Z</time>
      </trkpt>
      <trkpt lat="43.602987" lon="12.806059">
        <ele>315.486931</ele>
        <time>2022-02-15T03:18:44.078Z</time>
      </trkpt>
      <trkpt lat="43.602913" lon="12.806621">
        <ele>313.424285</ele>
        <time>2022-02-15T03:19:29.039Z</time>
      </trkpt>
      <trkpt lat="43.602948" lon="12.807272">
        <ele>311.067066</ele>
        <time>2022-02-15T03:20:18.517Z</time>
      </trkpt>
      <trkpt lat="43.603027" lon="12.807545">
        <ele>310.005471</ele>
        <time>2022-02-15T03:20:39.848Z</time>
      </trkpt>
      <trkpt lat="43.603180" lon="12.807789">
        <ele>308.839971</ele>
        <time>2022-02-15T03:21:07.365Z</time>
      </trkpt>
      <trkpt lat="43.603442" lon="12.808136">
        <ele>306.945561</ele>
        <time>2022-02-15T03:21:48.160Z</time>
      </trkpt>
      <trkpt lat="43.603748" lon="12.808839">
        <ele>302.830933</ele>
        <time>2022-02-15T03:22:54.052Z</time>
      </trkpt>
      <trkpt lat="43.603799" lon="12.808913">
        <ele>302.318465</ele>
        <time>2022-02-15T03:23:03.114Z</time>
      </trkpt>
      <trkpt lat="43.603889" lon="12.808931">
        <ele>301.688483</ele>
        <time>2022-02-15T03:23:12.868Z</time>
      </trkpt>
      <trkpt lat="43.604052" lon="12.808775">
        <ele>300.314635</ele>
        <time>2022-02-15T03:23:35.392Z</time>
      </trkpt>
      <trkpt lat="43.604191" lon="12.808715">
        <ele>299.305765</ele>
        <time>2022-02-15T03:23:53.602Z</time>
      </trkpt>
      <trkpt lat="43.604264" lon="12.808748">
        <ele>298.773651</ele>
        <time>2022-02-15T03:24:01.454Z</time>
      </trkpt>
      <trkpt lat="43.604691" lon="12.809256">
        <ele>294.869302</ele>
        <time>2022-02-15T03:25:07.203Z</time>
      </trkpt>
      <trkpt lat="43.605241" lon="12.809661">
        <ele>293.474706</ele>
        <time>2022-02-15T03:26:17.768Z</time>
      </trkpt>
      <trkpt lat="43.605328" lon="12.809666">
        <ele>293.287927</ele>
        <time>2022-02-15T03:26:29.776Z</time>
      </trkpt>
      <trkpt lat="43.604600" lon="12.808697">
        <ele>291.119098</ele>
        <time>2022-02-15T03:28:14.360Z</time>
      </trkpt>
      <trkpt lat="43.604476" lon="12.808404">
        <ele>291.998333</ele>
        <time>2022-02-15T03:28:40.831Z</time>
      </trkpt>
      <trkpt lat="43.604481" lon="12.808191">
        <ele>293.053792</ele>
        <time>2022-02-15T03:28:58.235Z</time>
      </trkpt>
      <trkpt lat="43.604588" lon="12.808003">
        <ele>294.238062</ele>
        <time>2022-02-15T03:29:19.007Z</time>
      </trkpt>
      <trkpt lat="43.605105" lon="12.807565">
        <ele>298.386435</ele>
        <time>2022-02-15T03:30:39.502Z</time>
      </trkpt>
      <trkpt lat="43.605604" lon="12.807339">
        <ele>301.978193</ele>
        <time>2022-02-15T03:31:46.868Z</time>
      </trkpt>
      <trkpt lat="43.605841" lon="12.807146">
        <ele>303.601083</ele>
        <time>2022-02-15T03:32:21.101Z</time>
      </trkpt>
      <trkpt lat="43.606170" lon="12.806696">
        <ele>305.467510</ele>
        <time>2022-02-15T03:33:18.284Z</time>
      </trkpt>
      <trkpt lat="43.606114" lon="12.806545">
        <ele>305.962665</ele>
        <time>2022-02-15T03:33:32.117Z</time>
      </trkpt>
      <trkpt lat="43.606048" lon="12.806508">
        <ele>306.249775</ele>
        <time>2022-02-15T03:33:40.623Z</time>
      </trkpt>
      <trkpt lat="43.605826" lon="12.806616">
        <ele>307.198491</ele>
        <time>2022-02-15T03:34:08.460Z</time>
      </trkpt>
      <trkpt lat="43.605265" lon="12.806726">
        <ele>309.482402</ele>
        <time>2022-02-15T03:35:13.170Z</time>
      </trkpt>
      <trkpt lat="43.605120" lon="12.806721">
        <ele>310.067038</ele>
        <time>2022-02-15T03:35:28.715Z</time>
      </trkpt>
      <trkpt lat="43.605265" lon="12.806726">
        <ele>310.270805</ele>
        <time>2022-02-15T03:35:43.849Z</time>
      </trkpt>
      <trkpt lat="43.605826" lon="12.806616">
        <ele>307.506059</ele>
        <time>2022-02-15T03:36:45.241Z</time>
      </trkpt>
      <trkpt lat="43.606048" lon="12.806508">
        <ele>306.357608</ele>
        <time>2022-02-15T03:37:11.266Z</time>
      </trkpt>
      <trkpt lat="43.606114" lon="12.806545">
        <ele>306.010052</ele>
        <time>2022-02-15T03:37:19.211Z</time>
      </trkpt>
      <trkpt lat="43.606170" lon="12.806696">
        <ele>305.410652</ele>
        <time>2022-02-15T03:37:32.425Z</time>
      </trkpt>
      <trkpt lat="43.605841" lon="12.807146">
        <ele>303.151284</ele>
        <time>2022-02-15T03:38:25.132Z</time>
      </trkpt>
      <trkpt lat="43.605604" lon="12.807339">
        <ele>301.808811</ele>
        <time>2022-02-15T03:38:56.573Z</time>
      </trkpt>
      <trkpt lat="43.605105" lon="12.807565">
        <ele>297.713397</ele>
        <time>2022-02-15T03:39:57.829Z</time>
      </trkpt>
      <trkpt lat="43.604588" lon="12.808003">
        <ele>292.907228</ele>
        <time>2022-02-15T03:41:10.170Z</time>
      </trkpt>
      <trkpt lat="43.604481" lon="12.808191">
        <ele>291.535171</ele>
        <time>2022-02-15T03:41:30.168Z</time>
      </trkpt>
      <trkpt lat="43.604476" lon="12.808404">
        <ele>290.312351</ele>
        <time>2022-02-15T03:41:48.259Z</time>
      </trkpt>
      <trkpt lat="43.604600" lon="12.808697">
        <ele>288.365063</ele>
        <time>2022-02-15T03:42:15.905Z</time>
      </trkpt>
      <trkpt lat="43.605328" lon="12.809666">
        <ele>283.265537</ele>
        <time>2022-02-15T03:44:08.437Z</time>
      </trkpt>
      <trkpt lat="43.605792" lon="12.810236">
        <ele>280.363881</ele>
        <time>2022-02-15T03:45:15.421Z</time>
      </trkpt>
      <trkpt lat="43.605976" lon="12.810609">
        <ele>278.898651</ele>
        <time>2022-02-15T03:45:50.231Z</time>
      </trkpt>
      <trkpt lat="43.606114" lon="12.811029">
        <ele>277.797909</ele>
        <time>2022-02-15T03:46:25.587Z</time>
      </trkpt>
      <trkpt lat="43.606234" lon="12.811173">
        <ele>277.273942</ele>
        <time>2022-02-15T03:46:42.508Z</time>
      </trkpt>
      <trkpt lat="43.607290" lon="12.811806">
        <ele>273.479694</ele>
        <time>2022-02-15T03:48:45.261Z</time>
      </trkpt>
      <trkpt lat="43.608039" lon="12.812345">
        <ele>270.400233</ele>
        <time>2022-02-15T03:50:16.639Z</time>
      </trkpt>
      <trkpt lat="43.608692" lon="12.812603">
        <ele>267.888313</ele>
        <time>2022-02-15T03:51:30.162Z</time>
      </trkpt>
      <trkpt lat="43.608867" lon="12.812728">
        <ele>267.159660</ele>
        <time>2022-02-15T03:51:51.318Z</time>
      </trkpt>
      <trkpt lat="43.609263" lon="12.813221">
        <ele>265.862395</ele>
        <time>2022-02-15T03:52:48.207Z</time>
      </trkpt>
      <trkpt lat="43.609568" lon="12.813751">
        <ele>265.005995</ele>
        <time>2022-02-15T03:53:39.476Z</time>
      </trkpt>
      <trkpt lat="43.610059" lon="12.814178">
        <ele>263.992295</ele>
        <time>2022-02-15T03:54:39.032Z</time>
      </trkpt>
      <trkpt lat="43.610570" lon="12.814758">
        <ele>263.340703</ele>
        <time>2022-02-15T03:55:45.930Z</time>
      </trkpt>
      <trkpt lat="43.611813" lon="12.815644">
        <ele>263.424796</ele>
        <time>2022-02-15T03:58:08.030Z</time>
      </trkpt>
      <trkpt lat="43.612087" lon="12.815617">
        <ele>263.114483</ele>
        <time>2022-02-15T03:58:35.762Z</time>
      </trkpt>
      <trkpt lat="43.612206" lon="12.815432">
        <ele>262.744232</ele>
        <time>2022-02-15T03:58:54.369Z</time>
      </trkpt>
      <trkpt lat="43.612342" lon="12.815395">
        <ele>262.457793</ele>
        <time>2022-02-15T03:59:09.112Z</time>
      </trkpt>
      <trkpt lat="43.612523" lon="12.815879">
        <ele>261.642756</ele>
        <time>2022-02-15T03:59:50.055Z</time>
      </trkpt>
      <trkpt lat="43.612974" lon="12.816416">
        <ele>260.412272</ele>
        <time>2022-02-15T04:00:52.993Z</time>
      </trkpt>
      <trkpt lat="43.614317" lon="12.817777">
        <ele>254.437241</ele>
        <time>2022-02-15T04:03:53.689Z</time>
      </trkpt>
      <trkpt lat="43.614806" lon="12.818110">
        <ele>252.384082</ele>
        <time>2022-02-15T04:04:52.886Z</time>
      </trkpt>
      <trkpt lat="43.615181" lon="12.818509">
        <ele>251.216993</ele>
        <time>2022-02-15T04:05:43.642Z</time>
      </trkpt>
      <trkpt lat="43.615423" lon="12.819079">
        <ele>250.037493</ele>
        <time>2022-02-15T04:06:34.684Z</time>
      </trkpt>
      <trkpt lat="43.616234" lon="12.820436">
        <ele>248.904865</ele>
        <time>2022-02-15T04:08:45.207Z</time>
      </trkpt>
      <trkpt lat="43.616325" lon="12.820619">
        <ele>249.151570</ele>
        <time>2022-02-15T04:09:01.522Z</time>
      </trkpt>
      <trkpt lat="43.616325" lon="12.820619">
        <ele>249.151570</ele>
        <time>2022-02-15T04:09:01.756Z</time>
      </trkpt>
      <trkpt lat="43.616168" lon="12.820598">
        <ele>249.393677</ele>
        <time>2022-02-15T04:09:18.665Z</time>
      </trkpt>
      <trkpt lat="43.615957" lon="12.820694">
        <ele>249.734659</ele>
        <time>2022-02-15T04:09:42.234Z</time>
      </trkpt>
      <trkpt lat="43.615710" lon="12.821172">
        <ele>250.387253</ele>
        <time>2022-02-15T04:10:29.206Z</time>
      </trkpt>
      <trkpt lat="43.615521" lon="12.821623">
        <ele>251.128928</ele>
        <time>2022-02-15T04:11:11.828Z</time>
      </trkpt>
      <trkpt lat="43.615488" lon="12.821704">
        <ele>251.467841</ele>
        <time>2022-02-15T04:11:19.688Z</time>
      </trkpt>
      <trkpt lat="43.615859" lon="12.821982">
        <ele>253.593674</ele>
        <time>2022-02-15T04:12:08.448Z</time>
      </trkpt>
      <trkpt lat="43.615925" lon="12.822117">
        <ele>254.187663</ele>
        <time>2022-02-15T04:12:22.501Z</time>
      </trkpt>
      <trkpt lat="43.615932" lon="12.822361">
        <ele>255.078081</ele>
        <time>2022-02-15T04:12:43.684Z</time>
      </trkpt>
      <trkpt lat="43.615878" lon="12.822475">
        <ele>255.574839</ele>
        <time>2022-02-15T04:12:55.632Z</time>
      </trkpt>
      <trkpt lat="43.615629" lon="12.822707">
        <ele>257.087602</ele>
        <time>2022-02-15T04:13:31.706Z</time>
      </trkpt>
      <trkpt lat="43.615289" lon="12.823249">
        <ele>259.702646</ele>
        <time>2022-02-15T04:14:33.471Z</time>
      </trkpt>
      <trkpt lat="43.615225" lon="12.823452">
        <ele>260.514037</ele>
        <time>2022-02-15T04:14:52.251Z</time>
      </trkpt>
      <trkpt lat="43.615167" lon="12.823965">
        <ele>262.421041</ele>
        <time>2022-02-15T04:15:36.434Z</time>
      </trkpt>
      <trkpt lat="43.614918" lon="12.824368">
        <ele>264.366942</ele>
        <time>2022-02-15T04:16:21.158Z</time>
      </trkpt>
      <trkpt lat="43.614786" lon="12.824775">
        <ele>266.004933</ele>
        <time>2022-02-15T04:16:58.064Z</time>
      </trkpt>
      <trkpt lat="43.614468" lon="12.826345">
        <ele>271.680076</ele>
        <time>2022-02-15T04:19:18.930Z</time>
      </trkpt>
      <trkpt lat="43.614473" lon="12.826642">
        <ele>272.654135</ele>
        <time>2022-02-15T04:19:43.799Z</time>
      </trkpt>
      <trkpt lat="43.614556" lon="12.826844">
        <ele>273.415676</ele>
        <time>2022-02-15T04:20:03.407Z</time>
      </trkpt>
      <trkpt lat="43.614761" lon="12.827416">
        <ele>275.508334</ele>
        <time>2022-02-15T04:20:56.628Z</time>
      </trkpt>
      <trkpt lat="43.615075" lon="12.827944">
        <ele>277.491058</ele>
        <time>2022-02-15T04:21:52.094Z</time>
      </trkpt>
      <trkpt lat="43.615597" lon="12.828451">
        <ele>278.961362</ele>
        <time>2022-02-15T04:23:03.465Z</time>
      </trkpt>
      <trkpt lat="43.616200" lon="12.828799">
        <ele>280.467104</ele>
        <time>2022-02-15T04:24:12.111Z</time>
      </trkpt>
      <trkpt lat="43.616518" lon="12.829071">
        <ele>281.328902</ele>
        <time>2022-02-15T04:24:50.872Z</time>
      </trkpt>
      <trkpt lat="43.616748" lon="12.829169">
        <ele>282.149210</ele>
        <time>2022-02-15T04:25:15.937Z</time>
      </trkpt>
      <trkpt lat="43.616824" lon="12.829102">
        <ele>282.464123</ele>
        <time>2022-02-15T04:25:25.352Z</time>
      </trkpt>
      <trkpt lat="43.616795" lon="12.828970">
        <ele>282.812942</ele>
        <time>2022-02-15T04:25:35.717Z</time>
      </trkpt>
      <trkpt lat="43.615249" lon="12.826934">
        <ele>292.707235</ele>
        <time>2022-02-15T04:29:41.812Z</time>
      </trkpt>
      <trkpt lat="43.615232" lon="12.826684">
        <ele>293.931237</ele>
        <time>2022-02-15T04:30:04.757Z</time>
      </trkpt>
      <trkpt lat="43.615380" lon="12.826360">
        <ele>295.798671</ele>
        <time>2022-02-15T04:30:40.763Z</time>
      </trkpt>
      <trkpt lat="43.615527" lon="12.825596">
        <ele>299.652090</ele>
        <time>2022-02-15T04:31:53.218Z</time>
      </trkpt>
      <trkpt lat="43.615603" lon="12.825485">
        <ele>300.616184</ele>
        <time>2022-02-15T04:32:07.427Z</time>
      </trkpt>
      <trkpt lat="43.616048" lon="12.825265">
        <ele>304.896293</ele>
        <time>2022-02-15T04:33:09.886Z</time>
      </trkpt>
      <trkpt lat="43.616175" lon="12.825282">
        <ele>306.051747</ele>
        <time>2022-02-15T04:33:28.286Z</time>
      </trkpt>
      <trkpt lat="43.616259" lon="12.825388">
        <ele>307.082073</ele>
        <time>2022-02-15T04:33:43.525Z</time>
      </trkpt>
      <trkpt lat="43.616380" lon="12.825811">
        <ele>310.063908</ele>
        <time>2022-02-15T04:34:26.693Z</time>
      </trkpt>
      <trkpt lat="43.616786" lon="12.826215">
        <ele>314.595199</ele>
        <time>2022-02-15T04:35:31.941Z</time>
      </trkpt>
      <trkpt lat="43.617182" lon="12.826340">
        <ele>317.862030</ele>
        <time>2022-02-15T04:36:24.381Z</time>
      </trkpt>
      <trkpt lat="43.617892" lon="12.826447">
        <ele>323.133067</ele>
        <time>2022-02-15T04:37:53.247Z</time>
      </trkpt>
      <trkpt lat="43.618498" lon="12.826686">
        <ele>327.784195</ele>
        <time>2022-02-15T04:39:12.475Z</time>
      </trkpt>
      <trkpt lat="43.618645" lon="12.826854">
        <ele>329.192271</ele>
        <time>2022-02-15T04:39:35.976Z</time>
      </trkpt>
      <trkpt lat="43.618699" lon="12.827303">
        <ele>330.844934</ele>
        <time>2022-02-15T04:40:15.813Z</time>
      </trkpt>
      <trkpt lat="43.618787" lon="12.827551">
        <ele>331.820890</ele>
        <time>2022-02-15T04:40:39.592Z</time>
      </trkpt>
      <trkpt lat="43.620021" lon="12.828412">
        <ele>338.386936</ele>
        <time>2022-02-15T04:43:19.142Z</time>
      </trkpt>
      <trkpt lat="43.620792" lon="12.829579">
        <ele>341.791140</ele>
        <time>2022-02-15T04:45:26.835Z</time>
      </trkpt>
      <trkpt lat="43.621586" lon="12.830329">
        <ele>345.204130</ele>
        <time>2022-02-15T04:47:08.791Z</time>
      </trkpt>
      <trkpt lat="43.621739" lon="12.830646">
        <ele>346.401918</ele>
        <time>2022-02-15T04:47:38.818Z</time>
      </trkpt>
      <trkpt lat="43.621788" lon="12.830847">
        <ele>347.068694</ele>
        <time>2022-02-15T04:47:56.137Z</time>
      </trkpt>
      <trkpt lat="43.621906" lon="12.831328">
        <ele>348.665342</ele>
        <time>2022-02-15T04:48:38.467Z</time>
      </trkpt>
      <trkpt lat="43.622098" lon="12.831753">
        <ele>350.240293</ele>
        <time>2022-02-15T04:49:22.339Z</time>
      </trkpt>
      <trkpt lat="43.622247" lon="12.832022">
        <ele>351.344185</ele>
        <time>2022-02-15T04:49:52.815Z</time>
      </trkpt>
      <trkpt lat="43.622540" lon="12.832344">
        <ele>354.638720</ele>
        <time>2022-02-15T04:50:40.288Z</time>
      </trkpt>
      <trkpt lat="43.622808" lon="12.833711">
        <ele>363.659890</ele>
        <time>2022-02-15T04:52:55.153Z</time>
      </trkpt>
      <trkpt lat="43.622283" lon="12.835161">
        <ele>374.718912</ele>
        <time>2022-02-15T04:55:29.650Z</time>
      </trkpt>
      <trkpt lat="43.622293" lon="12.835374">
        <ele>376.222908</ele>
        <time>2022-02-15T04:55:49.634Z</time>
      </trkpt>
      <trkpt lat="43.622432" lon="12.835513">
        <ele>377.893180</ele>
        <time>2022-02-15T04:56:11.701Z</time>
      </trkpt>
      <trkpt lat="43.622661" lon="12.835598">
        <ele>380.201244</ele>
        <time>2022-02-15T04:56:42.705Z</time>
      </trkpt>
      <trkpt lat="43.622699" lon="12.835681">
        <ele>380.893225</ele>
        <time>2022-02-15T04:56:51.922Z</time>
      </trkpt>
      <trkpt lat="43.622754" lon="12.836246">
        <ele>385.052260</ele>
        <time>2022-02-15T04:57:47.363Z</time>
      </trkpt>
      <trkpt lat="43.623062" lon="12.837164">
        <ele>395.460837</ele>
        <time>2022-02-15T04:59:35.357Z</time>
      </trkpt>
      <trkpt lat="43.623858" lon="12.838505">
        <ele>414.222895</ele>
        <time>2022-02-15T05:03:07.716Z</time>
      </trkpt>
      <trkpt lat="43.623946" lon="12.838528">
        <ele>415.869565</ele>
        <time>2022-02-15T05:03:23.863Z</time>
      </trkpt>
      <trkpt lat="43.624146" lon="12.838445">
        <ele>419.709107</ele>
        <time>2022-02-15T05:04:01.312Z</time>
      </trkpt>
      <trkpt lat="43.624371" lon="12.838659">
        <ele>424.731619</ele>
        <time>2022-02-15T05:04:51.243Z</time>
      </trkpt>
      <trkpt lat="43.624670" lon="12.839296">
        <ele>434.835934</ele>
        <time>2022-02-15T05:06:42.516Z</time>
      </trkpt>
      <trkpt lat="43.624803" lon="12.839774">
        <ele>441.651488</ele>
        <time>2022-02-15T05:07:52.568Z</time>
      </trkpt>
      <trkpt lat="43.625300" lon="12.840476">
        <ele>454.705958</ele>
        <time>2022-02-15T05:10:02.405Z</time>
      </trkpt>
      <trkpt lat="43.625409" lon="12.840729">
        <ele>458.619545</ele>
        <time>2022-02-15T05:10:32.835Z</time>
      </trkpt>
      <trkpt lat="43.625408" lon="12.840848">
        <ele>460.201460</ele>
        <time>2022-02-15T05:11:00.290Z</time>
      </trkpt>
      <trkpt lat="43.625052" lon="12.840925">
        <ele>466.818401</ele>
        <time>2022-02-15T05:12:11.067Z</time>
      </trkpt>
      <trkpt lat="43.624631" lon="12.841222">
        <ele>475.499009</ele>
        <time>2022-02-15T05:13:34.303Z</time>
      </trkpt>
      <trkpt lat="43.624378" lon="12.841581">
        <ele>479.688090</ele>
        <time>2022-02-15T05:14:37.189Z</time>
      </trkpt>
      <trkpt lat="43.623913" lon="12.842069">
        <ele>485.919728</ele>
        <time>2022-02-15T05:16:02.537Z</time>
      </trkpt>
      <trkpt lat="43.622828" lon="12.841607">
        <ele>495.800090</ele>
        <time>2022-02-15T05:18:25.452Z</time>
      </trkpt>
      <trkpt lat="43.622279" lon="12.841248">
        <ele>496.669531</ele>
        <time>2022-02-15T05:19:29.600Z</time>
      </trkpt>
      <trkpt lat="43.621732" lon="12.841170">
        <ele>497.456670</ele>
        <time>2022-02-15T05:20:24.970Z</time>
      </trkpt>
      <trkpt lat="43.621194" lon="12.841155">
        <ele>497.609259</ele>
        <time>2022-02-15T05:21:20.621Z</time>
      </trkpt>
      <trkpt lat="43.621033" lon="12.841207">
        <ele>497.109729</ele>
        <time>2022-02-15T05:21:37.751Z</time>
      </trkpt>
      <trkpt lat="43.620644" lon="12.841521">
        <ele>495.748544</ele>
        <time>2022-02-15T05:22:24.895Z</time>
      </trkpt>
      <trkpt lat="43.620330" lon="12.841456">
        <ele>494.789297</ele>
        <time>2022-02-15T05:22:58.949Z</time>
      </trkpt>
      <trkpt lat="43.619265" lon="12.841891">
        <ele>491.878384</ele>
        <time>2022-02-15T05:24:58.836Z</time>
      </trkpt>
      <trkpt lat="43.619170" lon="12.841856">
        <ele>491.695100</ele>
        <time>2022-02-15T05:25:09.856Z</time>
      </trkpt>
      <trkpt lat="43.619068" lon="12.841672">
        <ele>491.382349</ele>
        <time>2022-02-15T05:25:29.637Z</time>
      </trkpt>
      <trkpt lat="43.618730" lon="12.841345">
        <ele>490.613102</ele>
        <time>2022-02-15T05:26:13.112Z</time>
      </trkpt>
      <trkpt lat="43.617893" lon="12.841519">
        <ele>489.885725</ele>
        <time>2022-02-15T05:27:40.660Z</time>
      </trkpt>
      <trkpt lat="43.617765" lon="12.841487">
        <ele>490.643636</ele>
        <time>2022-02-15T05:27:54.641Z</time>
      </trkpt>
      <trkpt lat="43.617541" lon="12.842117">
        <ele>493.604275</ele>
        <time>2022-02-15T05:28:55.794Z</time>
      </trkpt>
      <trkpt lat="43.617193" lon="12.842510">
        <ele>496.223320</ele>
        <time>2022-02-15T05:29:50.079Z</time>
      </trkpt>
      <trkpt lat="43.617066" lon="12.843180">
        <ele>499.144778</ele>
        <time>2022-02-15T05:30:51.320Z</time>
      </trkpt>
      <trkpt lat="43.616841" lon="12.843480">
        <ele>501.743994</ele>
        <time>2022-02-15T05:31:38.421Z</time>
      </trkpt>
      <trkpt lat="43.616860" lon="12.843613">
        <ele>502.672587</ele>
        <time>2022-02-15T05:31:53.471Z</time>
      </trkpt>
      <trkpt lat="43.616940" lon="12.843741">
        <ele>503.830889</ele>
        <time>2022-02-15T05:32:10.992Z</time>
      </trkpt>
      <trkpt lat="43.617407" lon="12.844197">
        <ele>509.241946</ele>
        <time>2022-02-15T05:33:28.405Z</time>
      </trkpt>
      <trkpt lat="43.617804" lon="12.845379">
        <ele>517.290182</ele>
        <time>2022-02-15T05:35:30.181Z</time>
      </trkpt>
      <trkpt lat="43.618057" lon="12.845994">
        <ele>519.159912</ele>
        <time>2022-02-15T05:36:32.581Z</time>
      </trkpt>
      <trkpt lat="43.617968" lon="12.846495">
        <ele>520.523471</ele>
        <time>2022-02-15T05:37:16.160Z</time>
      </trkpt>
      <trkpt lat="43.617981" lon="12.846868">
        <ele>521.510550</ele>
        <time>2022-02-15T05:37:46.243Z</time>
      </trkpt>
      <trkpt lat="43.618022" lon="12.846897">
        <ele>521.678731</ele>
        <time>2022-02-15T05:37:50.970Z</time>
      </trkpt>
      <trkpt lat="43.618100" lon="12.847097">
        <ele>522.279212</ele>
        <time>2022-02-15T05:38:07.455Z</time>
      </trkpt>
      <trkpt lat="43.618191" lon="12.847784">
        <ele>522.555827</ele>
        <time>2022-02-15T05:38:59.534Z</time>
      </trkpt>
      <trkpt lat="43.618246" lon="12.848197">
        <ele>521.539064</ele>
        <time>2022-02-15T05:39:32.281Z</time>
      </trkpt>
      <trkpt lat="43.618268" lon="12.848340">
        <ele>521.185090</ele>
        <time>2022-02-15T05:39:43.837Z</time>
      </trkpt>
      <trkpt lat="43.618409" lon="12.848548">
        <ele>520.495148</ele>
        <time>2022-02-15T05:40:06.333Z</time>
      </trkpt>
      <trkpt lat="43.618385" lon="12.848631">
        <ele>520.278745</ele>
        <time>2022-02-15T05:40:13.200Z</time>
      </trkpt>
      <trkpt lat="43.618314" lon="12.848628">
        <ele>520.041174</ele>
        <time>2022-02-15T05:40:20.989Z</time>
      </trkpt>
      <trkpt lat="43.618305" lon="12.848693">
        <ele>519.880939</ele>
        <time>2022-02-15T05:40:26.465Z</time>
      </trkpt>
      <trkpt lat="43.618366" lon="12.848789">
        <ele>519.571663</ele>
        <time>2022-02-15T05:40:36.610Z</time>
      </trkpt>
      <trkpt lat="43.618322" lon="12.849005">
        <ele>519.028360</ele>
        <time>2022-02-15T05:40:53.775Z</time>
      </trkpt>
      <trkpt lat="43.618340" lon="12.849186">
        <ele>518.585996</ele>
        <time>2022-02-15T05:41:08.576Z</time>
      </trkpt>
      <trkpt lat="43.618937" lon="12.849721">
        <ele>516.361595</ele>
        <time>2022-02-15T05:42:25.238Z</time>
      </trkpt>
      <trkpt lat="43.619277" lon="12.849896">
        <ele>515.322241</ele>
        <time>2022-02-15T05:43:03.679Z</time>
      </trkpt>
      <trkpt lat="43.619456" lon="12.849735">
        <ele>514.710373</ele>
        <time>2022-02-15T05:43:26.056Z</time>
      </trkpt>
      <trkpt lat="43.619826" lon="12.850115">
        <ele>513.389652</ele>
        <time>2022-02-15T05:44:14.455Z</time>
      </trkpt>
      <trkpt lat="43.620365" lon="12.850531">
        <ele>511.038734</ele>
        <time>2022-02-15T05:45:18.557Z</time>
      </trkpt>
      <trkpt lat="43.621077" lon="12.850920">
        <ele>506.376610</ele>
        <time>2022-02-15T05:46:42.469Z</time>
      </trkpt>
      <trkpt lat="43.621395" lon="12.851234">
        <ele>503.996501</ele>
        <time>2022-02-15T05:47:27.210Z</time>
      </trkpt>
      <trkpt lat="43.621629" lon="12.851307">
        <ele>502.535799</ele>
        <time>2022-02-15T05:47:55.855Z</time>
      </trkpt>
      <trkpt lat="43.621557" lon="12.851499">
        <ele>501.582675</ele>
        <time>2022-02-15T05:48:13.607Z</time>
      </trkpt>
      <trkpt lat="43.621683" lon="12.851561">
        <ele>500.283734</ele>
        <time>2022-02-15T05:48:30.180Z</time>
      </trkpt>
      <trkpt lat="43.621953" lon="12.851691">
        <ele>496.525510</ele>
        <time>2022-02-15T05:49:03.987Z</time>
      </trkpt>
      <trkpt lat="43.622470" lon="12.852193">
        <ele>488.219394</ele>
        <time>2022-02-15T05:50:21.588Z</time>
      </trkpt>
      <trkpt lat="43.622658" lon="12.852256">
        <ele>485.676688</ele>
        <time>2022-02-15T05:50:48.718Z</time>
      </trkpt>
      <trkpt lat="43.622759" lon="12.852359">
        <ele>484.026604</ele>
        <time>2022-02-15T05:51:04.271Z</time>
      </trkpt>
      <trkpt lat="43.623123" lon="12.853010">
        <ele>475.848780</ele>
        <time>2022-02-15T05:52:22.021Z</time>
      </trkpt>
      <trkpt lat="43.623127" lon="12.853355">
        <ele>471.708968</ele>
        <time>2022-02-15T05:52:54.157Z</time>
      </trkpt>
      <trkpt lat="43.623217" lon="12.853943">
        <ele>464.498223</ele>
        <time>2022-02-15T05:53:54.101Z</time>
      </trkpt>
      <trkpt lat="43.623374" lon="12.853908">
        <ele>461.862417</ele>
        <time>2022-02-15T05:54:14.668Z</time>
      </trkpt>
      <trkpt lat="43.623504" lon="12.854381">
        <ele>455.792169</ele>
        <time>2022-02-15T05:55:02.683Z</time>
      </trkpt>
      <trkpt lat="43.623636" lon="12.854752">
        <ele>450.832377</ele>
        <time>2022-02-15T05:55:42.444Z</time>
      </trkpt>
      <trkpt lat="43.623600" lon="12.855271">
        <ele>445.356626</ele>
        <time>2022-02-15T05:56:33.420Z</time>
      </trkpt>
      <trkpt lat="43.623501" lon="12.855590">
        <ele>442.220660</ele>
        <time>2022-02-15T05:57:06.905Z</time>
      </trkpt>
      <trkpt lat="43.623234" lon="12.855899">
        <ele>437.873145</ele>
        <time>2022-02-15T05:57:50.386Z</time>
      </trkpt>
      <trkpt lat="43.622982" lon="12.856097">
        <ele>434.254608</ele>
        <time>2022-02-15T05:58:26.460Z</time>
      </trkpt>
      <trkpt lat="43.622710" lon="12.856207">
        <ele>430.717123</ele>
        <time>2022-02-15T05:59:01.465Z</time>
      </trkpt>
      <trkpt lat="43.622344" lon="12.856244">
        <ele>426.136644</ele>
        <time>2022-02-15T05:59:45.548Z</time>
      </trkpt>
      <trkpt lat="43.621780" lon="12.855965">
        <ele>423.564857</ele>
        <time>2022-02-15T06:00:52.424Z</time>
      </trkpt>
      <trkpt lat="43.621468" lon="12.855904">
        <ele>422.544010</ele>
        <time>2022-02-15T06:01:26.467Z</time>
      </trkpt>
      <trkpt lat="43.621187" lon="12.856078">
        <ele>421.546388</ele>
        <time>2022-02-15T06:01:58.915Z</time>
      </trkpt>
      <trkpt lat="43.620857" lon="12.856141">
        <ele>420.467139</ele>
        <time>2022-02-15T06:02:32.930Z</time>
      </trkpt>
      <trkpt lat="43.620584" lon="12.856408">
        <ele>419.540705</ele>
        <time>2022-02-15T06:03:06.807Z</time>
      </trkpt>
      <trkpt lat="43.620190" lon="12.856574">
        <ele>421.041986</ele>
        <time>2022-02-15T06:03:50.359Z</time>
      </trkpt>
      <trkpt lat="43.619726" lon="12.857292">
        <ele>423.581389</ele>
        <time>2022-02-15T06:05:08.105Z</time>
      </trkpt>
      <trkpt lat="43.619666" lon="12.857573">
        <ele>424.354372</ele>
        <time>2022-02-15T06:05:32.898Z</time>
      </trkpt>
      <trkpt lat="43.619703" lon="12.858019">
        <ele>425.538824</ele>
        <time>2022-02-15T06:06:11.334Z</time>
      </trkpt>
      <trkpt lat="43.619394" lon="12.858775">
        <ele>431.204859</ele>
        <time>2022-02-15T06:07:28.468Z</time>
      </trkpt>
      <trkpt lat="43.620525" lon="12.859227">
        <ele>443.468942</ele>
        <time>2022-02-15T06:10:20.654Z</time>
      </trkpt>
      <trkpt lat="43.620780" lon="12.859849">
        <ele>449.522509</ele>
        <time>2022-02-15T06:11:33.967Z</time>
      </trkpt>
      <trkpt lat="43.620888" lon="12.860292">
        <ele>453.616151</ele>
        <time>2022-02-15T06:12:21.099Z</time>
      </trkpt>
      <trkpt lat="43.620858" lon="12.860447">
        <ele>455.021235</ele>
        <time>2022-02-15T06:12:36.728Z</time>
      </trkpt>
      <trkpt lat="43.620730" lon="12.860489">
        <ele>456.612770</ele>
        <time>2022-02-15T06:13:02.667Z</time>
      </trkpt>
      <trkpt lat="43.620544" lon="12.860331">
        <ele>459.254263</ele>
        <time>2022-02-15T06:13:29.766Z</time>
      </trkpt>
      <trkpt lat="43.620359" lon="12.860276">
        <ele>461.543502</ele>
        <time>2022-02-15T06:14:01.993Z</time>
      </trkpt>
      <trkpt lat="43.619643" lon="12.860472">
        <ele>469.045995</ele>
        <time>2022-02-15T06:15:45.908Z</time>
      </trkpt>
      <trkpt lat="43.619561" lon="12.860508">
        <ele>469.729500</ele>
        <time>2022-02-15T06:15:56.073Z</time>
      </trkpt>
      <trkpt lat="43.619520" lon="12.860621">
        <ele>470.456397</ele>
        <time>2022-02-15T06:16:08.941Z</time>
      </trkpt>
      <trkpt lat="43.619580" lon="12.860780">
        <ele>471.487551</ele>
        <time>2022-02-15T06:16:33.882Z</time>
      </trkpt>
      <trkpt lat="43.619783" lon="12.860960">
        <ele>473.403804</ele>
        <time>2022-02-15T06:17:00.300Z</time>
      </trkpt>
      <trkpt lat="43.620706" lon="12.861543">
        <ele>481.058965</ele>
        <time>2022-02-15T06:19:02.519Z</time>
      </trkpt>
      <trkpt lat="43.620874" lon="12.861852">
        <ele>481.932997</ele>
        <time>2022-02-15T06:19:37.516Z</time>
      </trkpt>
      <trkpt lat="43.620879" lon="12.862085">
        <ele>482.460214</ele>
        <time>2022-02-15T06:19:57.059Z</time>
      </trkpt>
      <trkpt lat="43.620825" lon="12.862190">
        <ele>482.751524</ele>
        <time>2022-02-15T06:20:08.521Z</time>
      </trkpt>
      <trkpt lat="43.620694" lon="12.862212">
        <ele>483.163820</ele>
        <time>2022-02-15T06:20:24.210Z</time>
      </trkpt>
      <trkpt lat="43.620480" lon="12.862111">
        <ele>483.870366</ele>
        <time>2022-02-15T06:20:49.338Z</time>
      </trkpt>
      <trkpt lat="43.620419" lon="12.862149">
        <ele>484.079432</ele>
        <time>2022-02-15T06:20:57.139Z</time>
      </trkpt>
      <trkpt lat="43.620221" lon="12.862525">
        <ele>485.131048</ele>
        <time>2022-02-15T06:21:33.291Z</time>
      </trkpt>
      <trkpt lat="43.620133" lon="12.862530">
        <ele>485.406218</ele>
        <time>2022-02-15T06:21:42.694Z</time>
      </trkpt>
      <trkpt lat="43.620038" lon="12.862389">
        <ele>485.841876</ele>
        <time>2022-02-15T06:21:57.034Z</time>
      </trkpt>
      <trkpt lat="43.620133" lon="12.862530">
        <ele>486.277535</ele>
        <time>2022-02-15T06:22:11.666Z</time>
      </trkpt>
      <trkpt lat="43.620221" lon="12.862525">
        <ele>486.223808</ele>
        <time>2022-02-15T06:22:20.845Z</time>
      </trkpt>
      <trkpt lat="43.620419" lon="12.862149">
        <ele>484.772995</ele>
        <time>2022-02-15T06:22:55.961Z</time>
      </trkpt>
      <trkpt lat="43.620480" lon="12.862111">
        <ele>484.484567</ele>
        <time>2022-02-15T06:23:03.307Z</time>
      </trkpt>
      <trkpt lat="43.620694" lon="12.862212">
        <ele>483.509814</ele>
        <time>2022-02-15T06:23:27.396Z</time>
      </trkpt>
      <trkpt lat="43.620825" lon="12.862190">
        <ele>482.941009</ele>
        <time>2022-02-15T06:23:42.057Z</time>
      </trkpt>
      <trkpt lat="43.620879" lon="12.862085">
        <ele>482.539116</ele>
        <time>2022-02-15T06:23:52.638Z</time>
      </trkpt>
      <trkpt lat="43.620874" lon="12.861852">
        <ele>481.811765</ele>
        <time>2022-02-15T06:24:11.080Z</time>
      </trkpt>
      <trkpt lat="43.620706" lon="12.861543">
        <ele>480.605948</ele>
        <time>2022-02-15T06:24:43.186Z</time>
      </trkpt>
      <trkpt lat="43.619783" lon="12.860960">
        <ele>473.483177</ele>
        <time>2022-02-15T06:26:36.860Z</time>
      </trkpt>
      <trkpt lat="43.619580" lon="12.860780">
        <ele>471.267757</ele>
        <time>2022-02-15T06:27:02.332Z</time>
      </trkpt>
      <trkpt lat="43.619520" lon="12.860621">
        <ele>470.075619</ele>
        <time>2022-02-15T06:27:20.840Z</time>
      </trkpt>
      <trkpt lat="43.619561" lon="12.860508">
        <ele>469.235238</ele>
        <time>2022-02-15T06:27:32.062Z</time>
      </trkpt>
      <trkpt lat="43.619643" lon="12.860472">
        <ele>468.445024</ele>
        <time>2022-02-15T06:27:41.585Z</time>
      </trkpt>
      <trkpt lat="43.620359" lon="12.860276">
        <ele>461.607235</ele>
        <time>2022-02-15T06:29:11.551Z</time>
      </trkpt>
      <trkpt lat="43.620544" lon="12.860331">
        <ele>459.288868</ele>
        <time>2022-02-15T06:29:36.250Z</time>
      </trkpt>
      <trkpt lat="43.620730" lon="12.860489">
        <ele>456.613764</ele>
        <time>2022-02-15T06:30:01.181Z</time>
      </trkpt>
      <trkpt lat="43.620858" lon="12.860447">
        <ele>455.001979</ele>
        <time>2022-02-15T06:30:20.359Z</time>
      </trkpt>
      <trkpt lat="43.620888" lon="12.860292">
        <ele>453.579017</ele>
        <time>2022-02-15T06:30:34.350Z</time>
      </trkpt>
      <trkpt lat="43.620780" lon="12.859849">
        <ele>449.433288</ele>
        <time>2022-02-15T06:31:15.777Z</time>
      </trkpt>
      <trkpt lat="43.620525" lon="12.859227">
        <ele>443.093642</ele>
        <time>2022-02-15T06:32:19.579Z</time>
      </trkpt>
      <trkpt lat="43.619394" lon="12.858775">
        <ele>432.092247</ele>
        <time>2022-02-15T06:34:46.944Z</time>
      </trkpt>
      <trkpt lat="43.618460" lon="12.858394">
        <ele>424.775999</ele>
        <time>2022-02-15T06:36:34.304Z</time>
      </trkpt>
      <trkpt lat="43.617273" lon="12.857886">
        <ele>426.028920</ele>
        <time>2022-02-15T06:38:39.867Z</time>
      </trkpt>
      <trkpt lat="43.616688" lon="12.857498">
        <ele>428.212744</ele>
        <time>2022-02-15T06:39:57.077Z</time>
      </trkpt>
      <trkpt lat="43.616376" lon="12.856850">
        <ele>433.050275</ele>
        <time>2022-02-15T06:41:06.740Z</time>
      </trkpt>
      <trkpt lat="43.616192" lon="12.856669">
        <ele>434.989824</ele>
        <time>2022-02-15T06:41:36.589Z</time>
      </trkpt>
      <trkpt lat="43.615429" lon="12.855920">
        <ele>443.720789</ele>
        <time>2022-02-15T06:43:42.951Z</time>
      </trkpt>
      <trkpt lat="43.614873" lon="12.854973">
        <ele>456.063433</ele>
        <time>2022-02-15T06:45:52.968Z</time>
      </trkpt>
      <trkpt lat="43.614310" lon="12.854282">
        <ele>466.594417</ele>
        <time>2022-02-15T06:48:06.095Z</time>
      </trkpt>
      <trkpt lat="43.614042" lon="12.853680">
        <ele>473.670582</ele>
        <time>2022-02-15T06:49:31.731Z</time>
      </trkpt>
      <trkpt lat="43.613914" lon="12.853510">
        <ele>476.124510</ele>
        <time>2022-02-15T06:50:00.717Z</time>
      </trkpt>
      <trkpt lat="43.613774" lon="12.853448">
        <ele>478.156200</ele>
        <time>2022-02-15T06:50:21.281Z</time>
      </trkpt>
      <trkpt lat="43.613736" lon="12.853307">
        <ele>479.661490</ele>
        <time>2022-02-15T06:50:43.863Z</time>
      </trkpt>
      <trkpt lat="43.613292" lon="12.852707">
        <ele>488.245421</ele>
        <time>2022-02-15T06:52:11.365Z</time>
      </trkpt>
      <trkpt lat="43.613067" lon="12.851952">
        <ele>494.590147</ele>
        <time>2022-02-15T06:53:37.611Z</time>
      </trkpt>
      <trkpt lat="43.613166" lon="12.851333">
        <ele>498.353735</ele>
        <time>2022-02-15T06:54:38.923Z</time>
      </trkpt>
      <trkpt lat="43.613821" lon="12.848372">
        <ele>512.820834</ele>
        <time>2022-02-15T06:59:08.452Z</time>
      </trkpt>
      <trkpt lat="43.612932" lon="12.848075">
        <ele>516.695570</ele>
        <time>2022-02-15T07:00:50.870Z</time>
      </trkpt>
      <trkpt lat="43.612100" lon="12.848292">
        <ele>519.190402</ele>
        <time>2022-02-15T07:02:22.897Z</time>
      </trkpt>
      <trkpt lat="43.611195" lon="12.848363">
        <ele>521.976673</ele>
        <time>2022-02-15T07:04:03.125Z</time>
      </trkpt>
      <trkpt lat="43.610522" lon="12.848348">
        <ele>524.221321</ele>
        <time>2022-02-15T07:05:19.166Z</time>
      </trkpt>
      <trkpt lat="43.609393" lon="12.848817">
        <ele>527.640937</ele>
        <time>2022-02-15T07:07:31.471Z</time>
      </trkpt>
      <trkpt lat="43.608758" lon="12.848983">
        <ele>528.852004</ele>
        <time>2022-02-15T07:08:41.533Z</time>
      </trkpt>
      <trkpt lat="43.607639" lon="12.849515">
        <ele>529.967459</ele>
        <time>2022-02-15T07:10:43.392Z</time>
      </trkpt>
      <trkpt lat="43.607369" lon="12.849776">
        <ele>529.633050</ele>
        <time>2022-02-15T07:11:16.772Z</time>
      </trkpt>
      <trkpt lat="43.606556" lon="12.851455">
        <ele>526.521353</ele>
        <time>2022-02-15T07:13:48.375Z</time>
      </trkpt>
      <trkpt lat="43.606201" lon="12.851839">
        <ele>524.106727</ele>
        <time>2022-02-15T07:14:37.562Z</time>
      </trkpt>
      <trkpt lat="43.605948" lon="12.851983">
        <ele>522.641426</ele>
        <time>2022-02-15T07:15:08.473Z</time>
      </trkpt>
      <trkpt lat="43.605838" lon="12.852151">
        <ele>521.763204</ele>
        <time>2022-02-15T07:15:27.206Z</time>
      </trkpt>
      <trkpt lat="43.605411" lon="12.852022">
        <ele>519.422649</ele>
        <time>2022-02-15T07:16:17.356Z</time>
      </trkpt>
      <trkpt lat="43.605100" lon="12.852104">
        <ele>516.929821</ele>
        <time>2022-02-15T07:16:54.194Z</time>
      </trkpt>
      <trkpt lat="43.604513" lon="12.852305">
        <ele>511.486184</ele>
        <time>2022-02-15T07:18:05.566Z</time>
      </trkpt>
      <trkpt lat="43.603171" lon="12.852416">
        <ele>499.808455</ele>
        <time>2022-02-15T07:20:45.594Z</time>
      </trkpt>
      <trkpt lat="43.602615" lon="12.852149">
        <ele>495.184894</ele>
        <time>2022-02-15T07:21:53.295Z</time>
      </trkpt>
      <trkpt lat="43.601251" lon="12.852316">
        <ele>484.978119</ele>
        <time>2022-02-15T07:24:30.131Z</time>
      </trkpt>
      <trkpt lat="43.600721" lon="12.851930">
        <ele>480.893746</ele>
        <time>2022-02-15T07:25:36.876Z</time>
      </trkpt>
      <trkpt lat="43.600592" lon="12.851987">
        <ele>479.970507</ele>
        <time>2022-02-15T07:25:52.865Z</time>
      </trkpt>
      <trkpt lat="43.600519" lon="12.852091">
        <ele>479.255558</ele>
        <time>2022-02-15T07:26:04.151Z</time>
      </trkpt>
      <trkpt lat="43.600381" lon="12.852457">
        <ele>477.218678</ele>
        <time>2022-02-15T07:26:38.117Z</time>
      </trkpt>
      <trkpt lat="43.600449" lon="12.852666">
        <ele>476.021511</ele>
        <time>2022-02-15T07:26:56.542Z</time>
      </trkpt>
      <trkpt lat="43.600605" lon="12.852823">
        <ele>474.332512</ele>
        <time>2022-02-15T07:27:19.601Z</time>
      </trkpt>
      <trkpt lat="43.600627" lon="12.852946">
        <ele>473.529735</ele>
        <time>2022-02-15T07:27:29.943Z</time>
      </trkpt>
      <trkpt lat="43.600547" lon="12.853124">
        <ele>472.202325</ele>
        <time>2022-02-15T07:27:48.325Z</time>
      </trkpt>
      <trkpt lat="43.600081" lon="12.853461">
        <ele>467.599657</ele>
        <time>2022-02-15T07:28:50.905Z</time>
      </trkpt>
      <trkpt lat="43.599774" lon="12.853833">
        <ele>464.025942</ele>
        <time>2022-02-15T07:29:38.125Z</time>
      </trkpt>
      <trkpt lat="43.599097" lon="12.854070">
        <ele>457.939092</ele>
        <time>2022-02-15T07:31:01.224Z</time>
      </trkpt>
      <trkpt lat="43.599056" lon="12.854229">
        <ele>456.879301</ele>
        <time>2022-02-15T07:31:15.850Z</time>
      </trkpt>
      <trkpt lat="43.598807" lon="12.854382">
        <ele>454.516198</ele>
        <time>2022-02-15T07:31:47.883Z</time>
      </trkpt>
      <trkpt lat="43.599056" lon="12.854229">
        <ele>452.153095</ele>
        <time>2022-02-15T07:32:20.691Z</time>
      </trkpt>
      <trkpt lat="43.599097" lon="12.854070">
        <ele>451.093305</ele>
        <time>2022-02-15T07:32:34.699Z</time>
      </trkpt>
      <trkpt lat="43.599194" lon="12.854123">
        <ele>450.188800</ele>
        <time>2022-02-15T07:32:47.776Z</time>
      </trkpt>
      <trkpt lat="43.599430" lon="12.854072">
        <ele>448.117612</ele>
        <time>2022-02-15T07:33:15.069Z</time>
      </trkpt>
      <trkpt lat="43.599829" lon="12.854216">
        <ele>444.683775</ele>
        <time>2022-02-15T07:34:02.126Z</time>
      </trkpt>
      <trkpt lat="43.600762" lon="12.854148">
        <ele>439.161556</ele>
        <time>2022-02-15T07:35:47.744Z</time>
      </trkpt>
      <trkpt lat="43.601152" lon="12.854305">
        <ele>436.760488</ele>
        <time>2022-02-15T07:36:32.761Z</time>
      </trkpt>
      <trkpt lat="43.601258" lon="12.854443">
        <ele>435.899438</ele>
        <time>2022-02-15T07:36:48.995Z</time>
      </trkpt>
      <trkpt lat="43.601317" lon="12.854846">
        <ele>434.221575</ele>
        <time>2022-02-15T07:37:21.725Z</time>
      </trkpt>
      <trkpt lat="43.601812" lon="12.856273">
        <ele>430.004254</ele>
        <time>2022-02-15T07:39:26.611Z</time>
      </trkpt>
      <trkpt lat="43.601937" lon="12.856860">
        <ele>428.373450</ele>
        <time>2022-02-15T07:40:13.588Z</time>
      </trkpt>
      <trkpt lat="43.601844" lon="12.857873">
        <ele>425.421177</ele>
        <time>2022-02-15T07:41:29.011Z</time>
      </trkpt>
      <trkpt lat="43.601928" lon="12.858676">
        <ele>423.019426</ele>
        <time>2022-02-15T07:42:33.821Z</time>
      </trkpt>
      <trkpt lat="43.602035" lon="12.859303">
        <ele>421.112511</ele>
        <time>2022-02-15T07:43:24.570Z</time>
      </trkpt>
      <trkpt lat="43.602315" lon="12.859670">
        <ele>418.168425</ele>
        <time>2022-02-15T07:44:07.430Z</time>
      </trkpt>
      <trkpt lat="43.602224" lon="12.859670">
        <ele>417.198301</ele>
        <time>2022-02-15T07:44:19.344Z</time>
      </trkpt>
      <trkpt lat="43.602066" lon="12.859493">
        <ele>415.029363</ele>
        <time>2022-02-15T07:44:41.362Z</time>
      </trkpt>
      <trkpt lat="43.601904" lon="12.859504">
        <ele>413.300242</ele>
        <time>2022-02-15T07:45:01.740Z</time>
      </trkpt>
      <trkpt lat="43.601581" lon="12.859835">
        <ele>409.012275</ele>
        <time>2022-02-15T07:45:50.784Z</time>
      </trkpt>
      <trkpt lat="43.600825" lon="12.860114">
        <ele>400.624364</ele>
        <time>2022-02-15T07:47:29.959Z</time>
      </trkpt>
      <trkpt lat="43.600306" lon="12.860584">
        <ele>393.448683</ele>
        <time>2022-02-15T07:48:47.016Z</time>
      </trkpt>
      <trkpt lat="43.599603" lon="12.861039">
        <ele>384.472405</ele>
        <time>2022-02-15T07:50:21.137Z</time>
      </trkpt>
      <trkpt lat="43.599579" lon="12.861242">
        <ele>382.750259</ele>
        <time>2022-02-15T07:50:39.241Z</time>
      </trkpt>
      <trkpt lat="43.599617" lon="12.861390">
        <ele>381.435530</ele>
        <time>2022-02-15T07:50:53.497Z</time>
      </trkpt>
      <trkpt lat="43.599813" lon="12.861700">
        <ele>378.326123</ele>
        <time>2022-02-15T07:51:29.637Z</time>
      </trkpt>
      <trkpt lat="43.600400" lon="12.862099">
        <ele>371.810763</ele>
        <time>2022-02-15T07:52:46.790Z</time>
      </trkpt>
      <trkpt lat="43.600826" lon="12.862301">
        <ele>367.325369</ele>
        <time>2022-02-15T07:53:40.077Z</time>
      </trkpt>
      <trkpt lat="43.600886" lon="12.862392">
        <ele>366.437866</ele>
        <time>2022-02-15T07:53:51.350Z</time>
      </trkpt>
      <trkpt lat="43.601459" lon="12.862663">
        <ele>360.294155</ele>
        <time>2022-02-15T07:55:02.721Z</time>
      </trkpt>
      <trkpt lat="43.601644" lon="12.862853">
        <ele>357.875316</ele>
        <time>2022-02-15T07:55:31.743Z</time>
      </trkpt>
      <trkpt lat="43.601666" lon="12.862955">
        <ele>357.066745</ele>
        <time>2022-02-15T07:55:41.109Z</time>
      </trkpt>
      <trkpt lat="43.601614" lon="12.863166">
        <ele>355.373417</ele>
        <time>2022-02-15T07:56:02.402Z</time>
      </trkpt>
      <trkpt lat="43.601071" lon="12.864227">
        <ele>345.502734</ele>
        <time>2022-02-15T07:57:56.682Z</time>
      </trkpt>
      <trkpt lat="43.600980" lon="12.864694">
        <ele>343.268795</ele>
        <time>2022-02-15T07:58:36.864Z</time>
      </trkpt>
      <trkpt lat="43.601044" lon="12.864893">
        <ele>342.935446</ele>
        <time>2022-02-15T07:58:55.255Z</time>
      </trkpt>
      <trkpt lat="43.601559" lon="12.865377">
        <ele>341.618473</ele>
        <time>2022-02-15T08:00:02.949Z</time>
      </trkpt>
      <trkpt lat="43.601772" lon="12.865811">
        <ele>340.815840</ele>
        <time>2022-02-15T08:00:41.989Z</time>
      </trkpt>
      <trkpt lat="43.602052" lon="12.866210">
        <ele>339.965243</ele>
        <time>2022-02-15T08:01:24.301Z</time>
      </trkpt>
      <trkpt lat="43.601859" lon="12.866906">
        <ele>344.370218</ele>
        <time>2022-02-15T08:02:33.810Z</time>
      </trkpt>
      <trkpt lat="43.601867" lon="12.867280">
        <ele>346.956814</ele>
        <time>2022-02-15T08:03:09.043Z</time>
      </trkpt>
      <trkpt lat="43.601554" lon="12.867510">
        <ele>350.341538</ele>
        <time>2022-02-15T08:03:59.457Z</time>
      </trkpt>
      <trkpt lat="43.601949" lon="12.867659">
        <ele>354.250516</ele>
        <time>2022-02-15T08:04:58.644Z</time>
      </trkpt>
      <trkpt lat="43.601762" lon="12.868011">
        <ele>357.206309</ele>
        <time>2022-02-15T08:05:41.340Z</time>
      </trkpt>
      <trkpt lat="43.601769" lon="12.868135">
        <ele>357.866738</ele>
        <time>2022-02-15T08:05:59.049Z</time>
      </trkpt>
      <trkpt lat="43.601623" lon="12.868310">
        <ele>359.284339</ele>
        <time>2022-02-15T08:06:23.994Z</time>
      </trkpt>
      <trkpt lat="43.601179" lon="12.868378">
        <ele>362.559989</ele>
        <time>2022-02-15T08:07:23.666Z</time>
      </trkpt>
      <trkpt lat="43.600877" lon="12.868790">
        <ele>365.672853</ele>
        <time>2022-02-15T08:08:19.905Z</time>
      </trkpt>
      <trkpt lat="43.600571" lon="12.869036">
        <ele>368.269177</ele>
        <time>2022-02-15T08:09:03.954Z</time>
      </trkpt>
      <trkpt lat="43.599881" lon="12.869131">
        <ele>367.992872</ele>
        <time>2022-02-15T08:10:15.866Z</time>
      </trkpt>
      <trkpt lat="43.599367" lon="12.869600">
        <ele>364.857790</ele>
        <time>2022-02-15T08:11:23.299Z</time>
      </trkpt>
      <trkpt lat="43.599181" lon="12.869887">
        <ele>363.438454</ele>
        <time>2022-02-15T08:11:55.077Z</time>
      </trkpt>
      <trkpt lat="43.598971" lon="12.869808">
        <ele>362.330862</ele>
        <time>2022-02-15T08:12:21.193Z</time>
      </trkpt>
      <trkpt lat="43.598873" lon="12.869834">
        <ele>361.823040</ele>
        <time>2022-02-15T08:12:32.549Z</time>
      </trkpt>
      <trkpt lat="43.598691" lon="12.870332">
        <ele>358.543613</ele>
        <time>2022-02-15T08:13:20.923Z</time>
      </trkpt>
      <trkpt lat="43.598524" lon="12.870623">
        <ele>355.855680</ele>
        <time>2022-02-15T08:13:54.034Z</time>
      </trkpt>
      <trkpt lat="43.597538" lon="12.871723">
        <ele>343.184137</ele>
        <time>2022-02-15T08:16:26.120Z</time>
      </trkpt>
      <trkpt lat="43.597304" lon="12.871808">
        <ele>340.902482</ele>
        <time>2022-02-15T08:16:54.722Z</time>
      </trkpt>
      <trkpt lat="43.596885" lon="12.871659">
        <ele>336.836177</ele>
        <time>2022-02-15T08:17:45.571Z</time>
      </trkpt>
      <trkpt lat="43.596726" lon="12.871733">
        <ele>335.259277</ele>
        <time>2022-02-15T08:18:05.428Z</time>
      </trkpt>
      <trkpt lat="43.596613" lon="12.871910">
        <ele>333.653309</ele>
        <time>2022-02-15T08:18:25.606Z</time>
      </trkpt>
      <trkpt lat="43.596507" lon="12.872621">
        <ele>328.712590</ele>
        <time>2022-02-15T08:19:28.331Z</time>
      </trkpt>
      <trkpt lat="43.596241" lon="12.873036">
        <ele>324.835442</ele>
        <time>2022-02-15T08:20:16.002Z</time>
      </trkpt>
      <trkpt lat="43.596045" lon="12.873201">
        <ele>322.490796</ele>
        <time>2022-02-15T08:20:43.075Z</time>
      </trkpt>
      <trkpt lat="43.595783" lon="12.873264">
        <ele>319.774482</ele>
        <time>2022-02-15T08:21:14.729Z</time>
      </trkpt>
      <trkpt lat="43.595378" lon="12.873230">
        <ele>315.630216</ele>
        <time>2022-02-15T08:22:03.734Z</time>
      </trkpt>
      <trkpt lat="43.595229" lon="12.873145">
        <ele>313.983574</ele>
        <time>2022-02-15T08:22:23.210Z</time>
      </trkpt>
      <trkpt lat="43.595069" lon="12.872834">
        <ele>311.161671</ele>
        <time>2022-02-15T08:22:56.783Z</time>
      </trkpt>
      <trkpt lat="43.594909" lon="12.872192">
        <ele>306.372550</ele>
        <time>2022-02-15T08:23:56.457Z</time>
      </trkpt>
      <trkpt lat="43.594790" lon="12.872073">
        <ele>305.085016</ele>
        <time>2022-02-15T08:24:14.356Z</time>
      </trkpt>
      <trkpt lat="43.594506" lon="12.872273">
        <ele>302.291370</ele>
        <time>2022-02-15T08:24:52.431Z</time>
      </trkpt>
      <trkpt lat="43.594379" lon="12.872451">
        <ele>300.705608</ele>
        <time>2022-02-15T08:25:13.553Z</time>
      </trkpt>
      <trkpt lat="43.594295" lon="12.872648">
        <ele>299.254772</ele>
        <time>2022-02-15T08:25:32.707Z</time>
      </trkpt>
      <trkpt lat="43.594055" lon="12.873717">
        <ele>292.151941</ele>
        <time>2022-02-15T08:27:05.976Z</time>
      </trkpt>
      <trkpt lat="43.593779" lon="12.874058">
        <ele>289.159687</ele>
        <time>2022-02-15T08:27:48.934Z</time>
      </trkpt>
      <trkpt lat="43.593412" lon="12.874214">
        <ele>286.068430</ele>
        <time>2022-02-15T08:28:33.250Z</time>
      </trkpt>
      <trkpt lat="43.592695" lon="12.874274">
        <ele>280.285844</ele>
        <time>2022-02-15T08:29:55.950Z</time>
      </trkpt>
      <trkpt lat="43.592057" lon="12.874217">
        <ele>274.204781</ele>
        <time>2022-02-15T08:31:11.216Z</time>
      </trkpt>
      <trkpt lat="43.591957" lon="12.874274">
        <ele>272.994986</ele>
        <time>2022-02-15T08:31:24.204Z</time>
      </trkpt>
      <trkpt lat="43.591839" lon="12.874549">
        <ele>270.406186</ele>
        <time>2022-02-15T08:31:52.320Z</time>
      </trkpt>
      <trkpt lat="43.591556" lon="12.875785">
        <ele>259.907298</ele>
        <time>2022-02-15T08:33:48.752Z</time>
      </trkpt>
      <trkpt lat="43.591171" lon="12.877048">
        <ele>249.552462</ele>
        <time>2022-02-15T08:35:51.048Z</time>
      </trkpt>
      <trkpt lat="43.590998" lon="12.877237">
        <ele>247.298365</ele>
        <time>2022-02-15T08:36:17.870Z</time>
      </trkpt>
      <trkpt lat="43.590766" lon="12.877214">
        <ele>244.921756</ele>
        <time>2022-02-15T08:36:45.376Z</time>
      </trkpt>
      <trkpt lat="43.590691" lon="12.877265">
        <ele>244.067527</ele>
        <time>2022-02-15T08:36:55.654Z</time>
      </trkpt>
      <trkpt lat="43.590729" lon="12.877422">
        <ele>242.842488</ele>
        <time>2022-02-15T08:37:09.764Z</time>
      </trkpt>
      <trkpt lat="43.590973" lon="12.877636">
        <ele>239.888886</ele>
        <time>2022-02-15T08:37:43.677Z</time>
      </trkpt>
      <trkpt lat="43.591009" lon="12.877930">
        <ele>238.143631</ele>
        <time>2022-02-15T08:38:08.239Z</time>
      </trkpt>
      <trkpt lat="43.590736" lon="12.878564">
        <ele>234.527830</ele>
        <time>2022-02-15T08:39:08.354Z</time>
      </trkpt>
      <trkpt lat="43.590575" lon="12.879119">
        <ele>231.596969</ele>
        <time>2022-02-15T08:39:57.066Z</time>
      </trkpt>
      <trkpt lat="43.590326" lon="12.879517">
        <ele>229.018764</ele>
        <time>2022-02-15T08:40:40.215Z</time>
      </trkpt>
      <trkpt lat="43.589906" lon="12.879733">
        <ele>226.024480</ele>
        <time>2022-02-15T08:41:31.167Z</time>
      </trkpt>
      <trkpt lat="43.589457" lon="12.880173">
        <ele>222.462195</ele>
        <time>2022-02-15T08:42:34.148Z</time>
      </trkpt>
      <trkpt lat="43.589122" lon="12.880410">
        <ele>220.026841</ele>
        <time>2022-02-15T08:43:17.073Z</time>
      </trkpt>
      <trkpt lat="43.588611" lon="12.880531">
        <ele>216.672512</ele>
        <time>2022-02-15T08:44:15.402Z</time>
      </trkpt>
      <trkpt lat="43.587995" lon="12.880740">
        <ele>213.729133</ele>
        <time>2022-02-15T08:45:26.070Z</time>
      </trkpt>
      <trkpt lat="43.587543" lon="12.880727">
        <ele>212.075755</ele>
        <time>2022-02-15T08:46:15.333Z</time>
      </trkpt>
      <trkpt lat="43.587328" lon="12.880546">
        <ele>211.154822</ele>
        <time>2022-02-15T08:46:41.861Z</time>
      </trkpt>
      <trkpt lat="43.586628" lon="12.880137">
        <ele>208.541137</ele>
        <time>2022-02-15T08:48:01.751Z</time>
      </trkpt>
      <trkpt lat="43.586295" lon="12.879710">
        <ele>207.846856</ele>
        <time>2022-02-15T08:48:49.068Z</time>
      </trkpt>
      <trkpt lat="43.586295" lon="12.879710">
        <ele>207.846856</ele>
        <time>2022-02-15T08:48:49.314Z</time>
      </trkpt>
      <trkpt lat="43.586295" lon="12.879710">
        <ele>207.846856</ele>
        <time>2022-02-15T08:48:49.314Z</time>
      </trkpt>
      <trkpt lat="43.586104" lon="12.878806">
        <ele>206.804864</ele>
        <time>2022-02-15T08:49:57.583Z</time>
      </trkpt>
      <trkpt lat="43.585913" lon="12.877902">
        <ele>205.919726</ele>
        <time>2022-02-15T08:51:05.861Z</time>
      </trkpt>
      <trkpt lat="43.585913" lon="12.877902">
        <ele>205.919726</ele>
        <time>2022-02-15T08:51:05.964Z</time>
      </trkpt>
      <trkpt lat="43.585913" lon="12.877902">
        <ele>205.919726</ele>
        <time>2022-02-15T08:51:05.964Z</time>
      </trkpt>
      <trkpt lat="43.585301" lon="12.878438">
        <ele>205.972273</ele>
        <time>2022-02-15T08:52:18.497Z</time>
      </trkpt>
      <trkpt lat="43.584690" lon="12.878973">
        <ele>206.024731</ele>
        <time>2022-02-15T08:53:30.905Z</time>
      </trkpt>
      <trkpt lat="43.584079" lon="12.879509">
        <ele>209.867215</ele>
        <time>2022-02-15T08:54:43.362Z</time>
      </trkpt>
      <trkpt lat="43.583942" lon="12.879368">
        <ele>211.252885</ele>
        <time>2022-02-15T08:55:04.032Z</time>
      </trkpt>
      <trkpt lat="43.583825" lon="12.879036">
        <ele>213.421539</ele>
        <time>2022-02-15T08:55:37.248Z</time>
      </trkpt>
      <trkpt lat="43.583406" lon="12.878360">
        <ele>218.647501</ele>
        <time>2022-02-15T08:57:04.554Z</time>
      </trkpt>
      <trkpt lat="43.582017" lon="12.878071">
        <ele>236.110080</ele>
        <time>2022-02-15T09:00:55.076Z</time>
      </trkpt>
      <trkpt lat="43.581669" lon="12.877788">
        <ele>241.498624</ele>
        <time>2022-02-15T09:02:01.977Z</time>
      </trkpt>
      <trkpt lat="43.581669" lon="12.877788">
        <ele>241.498624</ele>
        <time>2022-02-15T09:02:02.195Z</time>
      </trkpt>
      <trkpt lat="43.581669" lon="12.877788">
        <ele>241.498624</ele>
        <time>2022-02-15T09:02:05.041Z</time>
      </trkpt>
      <trkpt lat="43.581669" lon="12.877788">
        <ele>241.498624</ele>
        <time>2022-02-15T09:02:05.041Z</time>
      </trkpt>
      <trkpt lat="43.581550" lon="12.878706">
        <ele>248.131699</ele>
        <time>2022-02-15T09:03:13.194Z</time>
      </trkpt>
      <trkpt lat="43.581432" lon="12.879625">
        <ele>253.505295</ele>
        <time>2022-02-15T09:04:21.021Z</time>
      </trkpt>
      <trkpt lat="43.581314" lon="12.880544">
        <ele>258.878901</ele>
        <time>2022-02-15T09:05:28.692Z</time>
      </trkpt>
      <trkpt lat="43.581314" lon="12.880544">
        <ele>258.878901</ele>
        <time>2022-02-15T09:05:29.916Z</time>
      </trkpt>
      <trkpt lat="43.581314" lon="12.880544">
        <ele>258.878901</ele>
        <time>2022-02-15T09:05:29.916Z</time>
      </trkpt>
      <trkpt lat="43.581000" lon="12.881666">
        <ele>266.295383</ele>
        <time>2022-02-15T09:06:57.297Z</time>
      </trkpt>
      <trkpt lat="43.580686" lon="12.882787">
        <ele>273.709097</ele>
        <time>2022-02-15T09:08:24.789Z</time>
      </trkpt>
      <trkpt lat="43.580371" lon="12.883909">
        <ele>282.730107</ele>
        <time>2022-02-15T09:09:52.361Z</time>
      </trkpt>
      <trkpt lat="43.580057" lon="12.885031">
        <ele>291.869515</ele>
        <time>2022-02-15T09:11:19.958Z</time>
      </trkpt>
      <trkpt lat="43.579743" lon="12.886153">
        <ele>305.414356</ele>
        <time>2022-02-15T09:12:47.661Z</time>
      </trkpt>
      <trkpt lat="43.579689" lon="12.885986">
        <ele>307.578184</ele>
        <time>2022-02-15T09:13:13.866Z</time>
      </trkpt>
      <trkpt lat="43.579673" lon="12.884722">
        <ele>322.543381</ele>
        <time>2022-02-15T09:16:09.983Z</time>
      </trkpt>
      <trkpt lat="43.579504" lon="12.884302">
        <ele>328.971450</ele>
        <time>2022-02-15T09:17:20.119Z</time>
      </trkpt>
      <trkpt lat="43.579371" lon="12.884281">
        <ele>331.443885</ele>
        <time>2022-02-15T09:17:51.491Z</time>
      </trkpt>
      <trkpt lat="43.579149" lon="12.884316">
        <ele>335.570725</ele>
        <time>2022-02-15T09:18:31.518Z</time>
      </trkpt>
      <trkpt lat="43.578666" lon="12.883973">
        <ele>345.602641</ele>
        <time>2022-02-15T09:20:18.396Z</time>
      </trkpt>
      <trkpt lat="43.578381" lon="12.882885">
        <ele>358.202694</ele>
        <time>2022-02-15T09:22:42.134Z</time>
      </trkpt>
      <trkpt lat="43.578339" lon="12.882110">
        <ele>363.038998</ele>
        <time>2022-02-15T09:23:55.565Z</time>
      </trkpt>
      <trkpt lat="43.578383" lon="12.881707">
        <ele>365.575190</ele>
        <time>2022-02-15T09:24:29.986Z</time>
      </trkpt>
      <trkpt lat="43.578363" lon="12.881305">
        <ele>368.082730</ele>
        <time>2022-02-15T09:25:03.572Z</time>
      </trkpt>
      <trkpt lat="43.578244" lon="12.880660">
        <ele>372.102459</ele>
        <time>2022-02-15T09:26:00.250Z</time>
      </trkpt>
      <trkpt lat="43.577958" lon="12.880453">
        <ele>374.561101</ele>
        <time>2022-02-15T09:26:39.309Z</time>
      </trkpt>
      <trkpt lat="43.577144" lon="12.880908">
        <ele>381.247375</ele>
        <time>2022-02-15T09:28:30.097Z</time>
      </trkpt>
      <trkpt lat="43.576920" lon="12.880915">
        <ele>382.953249</ele>
        <time>2022-02-15T09:28:59.190Z</time>
      </trkpt>
      <trkpt lat="43.576478" lon="12.881322">
        <ele>387.700490</ele>
        <time>2022-02-15T09:30:09.764Z</time>
      </trkpt>
      <trkpt lat="43.575995" lon="12.881362">
        <ele>392.584580</ele>
        <time>2022-02-15T09:31:15.580Z</time>
      </trkpt>
      <trkpt lat="43.575653" lon="12.881078">
        <ele>396.613222</ele>
        <time>2022-02-15T09:32:09.782Z</time>
      </trkpt>
      <trkpt lat="43.575265" lon="12.880037">
        <ele>404.399414</ele>
        <time>2022-02-15T09:34:04.064Z</time>
      </trkpt>
      <trkpt lat="43.574451" lon="12.879805">
        <ele>409.801379</ele>
        <time>2022-02-15T09:35:46.829Z</time>
      </trkpt>
      <trkpt lat="43.574321" lon="12.879768">
        <ele>410.664052</ele>
        <time>2022-02-15T09:36:04.272Z</time>
      </trkpt>
      <trkpt lat="43.573622" lon="12.879691">
        <ele>414.625038</ele>
        <time>2022-02-15T09:37:25.146Z</time>
      </trkpt>
      <trkpt lat="43.573392" lon="12.879690">
        <ele>414.446754</ele>
        <time>2022-02-15T09:37:49.547Z</time>
      </trkpt>
      <trkpt lat="43.573280" lon="12.879624">
        <ele>414.352357</ele>
        <time>2022-02-15T09:38:03.441Z</time>
      </trkpt>
      <trkpt lat="43.573145" lon="12.879350">
        <ele>414.166270</ele>
        <time>2022-02-15T09:38:27.597Z</time>
      </trkpt>
      <trkpt lat="43.572709" lon="12.878920">
        <ele>413.750898</ele>
        <time>2022-02-15T09:39:23.148Z</time>
      </trkpt>
      <trkpt lat="43.572444" lon="12.878466">
        <ele>413.423482</ele>
        <time>2022-02-15T09:40:08.493Z</time>
      </trkpt>
      <trkpt lat="43.572335" lon="12.878411">
        <ele>413.333522</ele>
        <time>2022-02-15T09:40:20.933Z</time>
      </trkpt>
      <trkpt lat="43.572533" lon="12.879433">
        <ele>409.660942</ele>
        <time>2022-02-15T09:41:44.173Z</time>
      </trkpt>
      <trkpt lat="43.572212" lon="12.880209">
        <ele>406.375452</ele>
        <time>2022-02-15T09:42:56.567Z</time>
      </trkpt>
      <trkpt lat="43.572064" lon="12.880338">
        <ele>405.487142</ele>
        <time>2022-02-15T09:43:17.064Z</time>
      </trkpt>
      <trkpt lat="43.571770" lon="12.880424">
        <ele>403.965825</ele>
        <time>2022-02-15T09:43:50.381Z</time>
      </trkpt>
      <trkpt lat="43.571449" lon="12.880721">
        <ele>402.041479</ele>
        <time>2022-02-15T09:44:33.122Z</time>
      </trkpt>
      <trkpt lat="43.571213" lon="12.880829">
        <ele>400.803395</ele>
        <time>2022-02-15T09:45:00.156Z</time>
      </trkpt>
      <trkpt lat="43.571109" lon="12.880807">
        <ele>400.279475</ele>
        <time>2022-02-15T09:45:11.993Z</time>
      </trkpt>
      <trkpt lat="43.570832" lon="12.880559">
        <ele>398.635362</ele>
        <time>2022-02-15T09:45:48.193Z</time>
      </trkpt>
      <trkpt lat="43.570838" lon="12.880595">
        <ele>398.502090</ele>
        <time>2022-02-15T09:45:51.306Z</time>
      </trkpt>
      <trkpt lat="43.570850" lon="12.880665">
        <ele>398.242571</ele>
        <time>2022-02-15T09:45:57.330Z</time>
      </trkpt>
      <trkpt lat="43.570850" lon="12.880665">
        <ele>398.242571</ele>
        <time>2022-02-15T09:45:57.399Z</time>
      </trkpt>
      <trkpt lat="43.570850" lon="12.880665">
        <ele>398.242571</ele>
        <time>2022-02-15T09:45:57.447Z</time>
      </trkpt>
      <trkpt lat="43.570838" lon="12.880595">
        <ele>397.983052</ele>
        <time>2022-02-15T09:46:02.983Z</time>
      </trkpt>
      <trkpt lat="43.570838" lon="12.880595">
        <ele>397.983052</ele>
        <time>2022-02-15T09:46:03.377Z</time>
      </trkpt>
      <trkpt lat="43.570838" lon="12.880595">
        <ele>397.983052</ele>
        <time>2022-02-15T09:46:03.377Z</time>
      </trkpt>
      <trkpt lat="43.570275" lon="12.881422">
        <ele>394.014971</ele>
        <time>2022-02-15T09:47:25.748Z</time>
      </trkpt>
      <trkpt lat="43.570275" lon="12.881422">
        <ele>394.014971</ele>
        <time>2022-02-15T09:47:25.748Z</time>
      </trkpt>
      <trkpt lat="43.570175" lon="12.882624">
        <ele>390.066295</ele>
        <time>2022-02-15T09:48:53.538Z</time>
      </trkpt>
      <trkpt lat="43.570076" lon="12.883826">
        <ele>386.246956</ele>
        <time>2022-02-15T09:50:21.332Z</time>
      </trkpt>
      <trkpt lat="43.569976" lon="12.885027">
        <ele>382.814986</ele>
        <time>2022-02-15T09:51:49.043Z</time>
      </trkpt>
      <trkpt lat="43.569877" lon="12.886229">
        <ele>379.948777</ele>
        <time>2022-02-15T09:53:16.816Z</time>
      </trkpt>
      <trkpt lat="43.569777" lon="12.887431">
        <ele>379.384393</ele>
        <time>2022-02-15T09:54:44.551Z</time>
      </trkpt>
      <trkpt lat="43.569677" lon="12.888633">
        <ele>379.632398</ele>
        <time>2022-02-15T09:56:12.248Z</time>
      </trkpt>
      <trkpt lat="43.569677" lon="12.888633">
        <ele>379.632398</ele>
        <time>2022-02-15T09:56:13.247Z</time>
      </trkpt>
      <trkpt lat="43.569677" lon="12.888633">
        <ele>379.632398</ele>
        <time>2022-02-15T09:56:13.247Z</time>
      </trkpt>
      <trkpt lat="43.569637" lon="12.889713">
        <ele>384.097190</ele>
        <time>2022-02-15T09:57:31.709Z</time>
      </trkpt>
      <trkpt lat="43.569596" lon="12.890793">
        <ele>388.562279</ele>
        <time>2022-02-15T09:58:50.295Z</time>
      </trkpt>
      <trkpt lat="43.569596" lon="12.890793">
        <ele>388.562279</ele>
        <time>2022-02-15T09:58:50.762Z</time>
      </trkpt>
      <trkpt lat="43.569596" lon="12.890793">
        <ele>388.562279</ele>
        <time>2022-02-15T09:58:50.762Z</time>
      </trkpt>
      <trkpt lat="43.570118" lon="12.891457">
        <ele>395.339306</ele>
        <time>2022-02-15T10:00:01.993Z</time>
      </trkpt>
      <trkpt lat="43.570639" lon="12.892120">
        <ele>402.569838</ele>
        <time>2022-02-15T10:01:13.209Z</time>
      </trkpt>
      <trkpt lat="43.570639" lon="12.892120">
        <ele>402.569838</ele>
        <time>2022-02-15T10:01:13.209Z</time>
      </trkpt>
      <trkpt lat="43.571074" lon="12.892917">
        <ele>409.909311</ele>
        <time>2022-02-15T10:02:26.035Z</time>
      </trkpt>
      <trkpt lat="43.571509" lon="12.893713">
        <ele>417.168184</ele>
        <time>2022-02-15T10:03:38.703Z</time>
      </trkpt>
      <trkpt lat="43.571945" lon="12.894510">
        <ele>424.438887</ele>
        <time>2022-02-15T10:04:51.363Z</time>
      </trkpt>
      <trkpt lat="43.571945" lon="12.894510">
        <ele>424.438887</ele>
        <time>2022-02-15T10:04:51.363Z</time>
      </trkpt>
      <trkpt lat="43.572211" lon="12.894976">
        <ele>425.577605</ele>
        <time>2022-02-15T10:05:34.459Z</time>
      </trkpt>
      <trkpt lat="43.572211" lon="12.894976">
        <ele>425.577605</ele>
        <time>2022-02-15T10:05:34.459Z</time>
      </trkpt>
      <trkpt lat="43.572233" lon="12.895926">
        <ele>425.577605</ele>
        <time>2022-02-15T10:06:43.420Z</time>
      </trkpt>
      <trkpt lat="43.572255" lon="12.896875">
        <ele>425.577605</ele>
        <time>2022-02-15T10:07:52.286Z</time>
      </trkpt>
      <trkpt lat="43.572255" lon="12.896875">
        <ele>425.577605</ele>
        <time>2022-02-15T10:07:52.286Z</time>
      </trkpt>
      <trkpt lat="43.571369" lon="12.896844">
        <ele>425.577605</ele>
        <time>2022-02-15T10:09:20.996Z</time>
      </trkpt>
    </trkseg>
  </trk>
</gpx>